Provisional Data: South Branch Codorus Creek near Leader Heights, PA


Please select a monitoring station.
Please select start date.
Please select start date.

Toggle Unit: C/F Toggle Unit: C/F
Sample Time Temperature (C) Temperature (F) Specific Conductivity (mS/cm) pH   Turbidity (NTU+) DO (mg/L)
10/27/2021 7:45:00 AM 15.8 60.44 0.219 7.12 13.58 7.89
10/27/2021 8:00:00 AM 15.85 60.53 0.218 7.12 12.53 8.25
10/27/2021 8:15:00 AM 15.79 60.422 0.219 7.12 11.42 8.29
10/27/2021 8:30:00 AM 15.82 60.476 0.218 7.12 11.41 8.33
10/27/2021 8:45:00 AM 15.9 60.62 0.217 7.13 11.93 8.36
10/27/2021 9:00:00 AM 15.86 60.548 0.216 7.12 11.36 8.4
10/27/2021 9:15:00 AM 15.83 60.494 0.216 7.12 11.63 8.45
10/27/2021 9:30:00 AM 15.83 60.494 0.217 7.13 9.73 8.51
10/27/2021 9:45:00 AM 15.98 60.764 0.217 7.13 9.76 8.55
10/27/2021 10:00:00 AM 15.85 60.53 0.217 7.13 10.04 8.61
10/27/2021 10:15:00 AM 15.98 60.764 0.217 7.15 8.83 8.68
10/27/2021 10:30:00 AM 16.03 60.854 0.217 7.15 8.93 8.63
10/27/2021 10:45:00 AM 16 60.8 0.218 7.15 9.15 8.72
10/27/2021 11:00:00 AM 16.06 60.908 0.218 7.15 9.48 8.77
10/27/2021 11:15:00 AM 16.03 60.854 0.22 7.16 8.57 8.78
10/27/2021 11:30:00 AM 16.04 60.872 0.219 7.16 7.84 8.78
10/27/2021 11:45:00 AM 16.12 61.016 0.219 7.16 7.67 8.85
10/27/2021 12:00:00 PM 16.22 61.196 0.217 7.17 7.64 8.82
10/27/2021 12:15:00 PM 16.29 61.322 0.217 7.18 8.42 8.86
10/27/2021 12:30:00 PM 16.24 61.232 0.218 7.17 8.47 8.88
10/27/2021 12:45:00 PM 16.28 61.304 0.218 7.17 7.86 8.91
10/27/2021 1:00:00 PM 16.36 61.448 0.217 7.18 8.81 8.88
10/27/2021 1:15:00 PM 16.37 61.466 0.216 7.2 8.75 8.9
10/27/2021 1:30:00 PM 16.13 61.034 0.218 7.2 8.17 9.07
10/27/2021 1:45:00 PM 16.06 60.908 0.219 7.19 8 9.17
10/27/2021 2:00:00 PM 16.07 60.926 0.221 7.2 8.55 9.22
10/27/2021 2:15:00 PM 16.13 61.034 0.219 7.21 8.12 9.23
10/27/2021 2:30:00 PM 16.18 61.124 0.221 7.21 8.8 9.31
10/27/2021 2:45:00 PM 16.19 61.142 0.223 7.22 8.21 9.35
10/27/2021 3:00:00 PM 16.25 61.25 0.223 7.23 7.66 9.32
10/27/2021 3:15:00 PM 16.31 61.358 0.223 7.23 9.16 9.31
10/27/2021 3:30:00 PM 16.32 61.376 0.223 7.23 9.04 9.36
10/27/2021 3:45:00 PM 16.28 61.304 0.223 7.23 7.34 9.28
10/27/2021 4:00:00 PM 16.32 61.376 0.223 7.24 8.79 9.25
10/27/2021 4:15:00 PM 16.28 61.304 0.224 7.24 8.38 9.2
10/27/2021 4:30:00 PM 16.25 61.25 0.225 7.24 8.86 9.17
10/27/2021 4:45:00 PM 16.19 61.142 0.225 7.24 7.45 9.12
10/27/2021 5:00:00 PM 16.24 61.232 0.225 7.24 6.69 9.09
10/27/2021 5:15:00 PM 16.19 61.142 0.224 7.24 6.48 8.99
10/27/2021 5:30:00 PM 16.18 61.124 0.224 7.23 7.05 9
10/27/2021 5:45:00 PM 16.1 60.98 0.225 7.23 7.03 8.98
10/27/2021 6:00:00 PM 16.14 61.052 0.224 7.23 7.51 8.94
10/27/2021 6:15:00 PM 16.11 60.998 0.224 7.22 6.97 8.95
10/27/2021 6:30:00 PM 16.1 60.98 0.224 7.22 6.37 8.83
10/27/2021 6:45:00 PM 16.02 60.836 0.226 7.22 7.25 8.88
10/27/2021 7:00:00 PM 16.02 60.836 0.226 7.21 7.12 8.83
10/27/2021 7:15:00 PM 15.93 60.674 0.226 7.21 8.82 8.86
10/27/2021 7:30:00 PM 15.98 60.764 0.224 7.19 8.39 8.79
10/27/2021 7:45:00 PM 15.94 60.692 0.224 7.2 7.54 8.79
10/27/2021 8:00:00 PM 15.94 60.692 0.226 7.19 8.03 8.76
10/27/2021 8:15:00 PM 15.9 60.62 0.224 7.19 7.87 8.76
10/27/2021 8:30:00 PM 15.85 60.53 0.225 7.19 8.54 8.75
10/27/2021 8:45:00 PM 15.89 60.602 0.224 7.18 10.61 8.79
10/27/2021 9:00:00 PM 15.83 60.494 0.225 7.18 9.63 8.78
10/27/2021 9:15:00 PM 15.82 60.476 0.226 7.2 7.21 8.76
10/27/2021 9:30:00 PM 15.78 60.404 0.226 7.18 8.52 8.75
10/27/2021 9:45:00 PM 15.76 60.368 0.225 7.19 8.64 8.78
10/27/2021 10:00:00 PM 15.76 60.368 0.225 7.17 9.07 8.77
10/27/2021 10:15:00 PM 15.76 60.368 0.226 7.18 7.41 8.78
10/27/2021 10:30:00 PM 15.78 60.404 0.225 7.18 8.64 8.77
10/27/2021 10:45:00 PM 15.72 60.296 0.226 7.17 7.56 8.77
10/27/2021 11:00:00 PM 15.74 60.332 0.226 7.18 7.91 8.76
10/27/2021 11:15:00 PM 15.7 60.26 0.226 7.17 8.32 8.8
10/27/2021 11:30:00 PM 15.72 60.296 0.227 7.16 10.36 8.73
10/27/2021 11:45:00 PM 15.62 60.116 0.228 7.16 9.18 8.6
10/28/2021 12:00:00 AM 15.61 60.098 0.228 7.16 9.69 8.66
10/28/2021 12:15:00 AM 15.55 59.99 0.229 7.15 9.41 8.66
10/28/2021 12:30:00 AM 15.53 59.954 0.23 7.14 15.98 8.68
10/28/2021 12:45:00 AM 15.43 59.774 0.231 7.15 11.06 8.69
10/28/2021 1:00:00 AM 15.49 59.882 0.23 7.13 11.11 8.68
10/28/2021 1:15:00 AM 15.43 59.774 0.229 7.14 9.64 8.7
10/28/2021 1:30:00 AM 15.45 59.81 0.229 7.14 10.05 8.67
10/28/2021 1:45:00 AM 15.43 59.774 0.23 7.13 12.5 8.7
10/28/2021 2:00:00 AM 15.39 59.702 0.23 7.15 11.22 8.68
10/28/2021 2:15:00 AM 15.36 59.648 0.23 7.13 10.24 8.68
10/28/2021 2:30:00 AM 15.31 59.558 0.229 7.13 9.4 8.68
10/28/2021 2:45:00 AM 15.27 59.486 0.229 7.12 8.4 8.69
10/28/2021 3:00:00 AM 15.27 59.486 0.229 7.12 8.21 8.71
10/28/2021 3:15:00 AM 15.29 59.522 0.23 7.11 8.47 8.72
10/28/2021 3:30:00 AM 15.2 59.36 0.229 7.11 8.33 8.73
10/28/2021 3:45:00 AM 15.15 59.27 0.229 7.11 10.52 8.73
10/28/2021 4:00:00 AM 15.2 59.36 0.23 7.12 10.18 8.65
10/28/2021 4:15:00 AM 15.15 59.27 0.229 7.11 7.84 8.72
10/28/2021 4:30:00 AM 15.15 59.27 0.23 7.12 9.46 8.77
10/28/2021 4:45:00 AM 15.13 59.234 0.229 7.11 9.13 8.77
10/28/2021 5:00:00 AM 15.11 59.198 0.23 7.12 8.59 8.74
10/28/2021 5:15:00 AM 15.09 59.162 0.229 7.12 8.44 8.76
10/28/2021 5:30:00 AM 15.05 59.09 0.23 7.11 7.82 8.76
10/28/2021 5:45:00 AM 15.02 59.036 0.23 7.12 8.29 8.81
10/28/2021 6:00:00 AM 15.01 59.018 0.23 7.13 9.46 8.81
10/28/2021 6:15:00 AM 15.02 59.036 0.229 7.12 7.32 8.8
10/28/2021 6:30:00 AM 15.03 59.054 0.229 7.12 7.44 8.81
10/28/2021 6:45:00 AM 14.99 58.982 0.23 7.12 8.53 8.85
10/28/2021 7:00:00 AM 14.97 58.946 0.229 7.12 8.78 8.86
10/28/2021 7:15:00 AM 15.02 59.036 0.229 7.13 9.04 8.82
10/28/2021 7:30:00 AM 14.88 58.784 0.231 7.13 7.63 8.84
10/28/2021 7:45:00 AM 14.93 58.874 0.23 7.13 6.89 8.81
10/28/2021 8:00:00 AM 14.86 58.748 0.231 7.13 7.7 8.83
10/28/2021 8:15:00 AM 14.83 58.694 0.229 7.13 6.67 8.86
10/28/2021 8:30:00 AM 14.86 58.748 0.23 7.14 6.36 8.9
10/28/2021 8:45:00 AM 14.86 58.748 0.23 7.14 7.74 8.96
10/28/2021 9:00:00 AM 14.88 58.784 0.23 7.14 6.66 8.99
10/28/2021 9:15:00 AM 14.93 58.874 0.23 7.15 6.74 9.06
10/28/2021 9:30:00 AM 14.95 58.91 0.229 7.15 5.15 9.13
10/28/2021 9:45:00 AM 14.88 58.784 0.23 7.16 5.87 9.2
10/28/2021 10:00:00 AM 14.98 58.964 0.23 7.17 7 9.23
10/28/2021 10:15:00 AM 15.09 59.162 0.229 7.17 5.49 9.26
10/28/2021 10:30:00 AM 15.14 59.252 0.229 7.18 5.56 9.37
10/28/2021 10:45:00 AM 15.17 59.306 0.229 7.19 5.53 9.39
10/28/2021 11:00:00 AM 15.24 59.432 0.23 7.19 5.2 9.43
10/28/2021 11:15:00 AM 15.32 59.576 0.23 7.19 5.15 9.48
10/28/2021 11:30:00 AM 15.33 59.594 0.231 7.21 4.63 9.52
10/28/2021 11:45:00 AM 15.37 59.666 0.23 7.22 4.98 9.58
10/28/2021 12:00:00 PM 15.46 59.828 0.23 7.23 5.13 9.59
10/28/2021 12:15:00 PM 15.5 59.9 0.23 7.23 5.67 9.61
10/28/2021 12:30:00 PM 15.63 60.134 0.228 7.25 5.12 9.63
10/28/2021 12:45:00 PM 15.63 60.134 0.229 7.24 5.4 9.7
10/28/2021 1:00:00 PM 15.73 60.314 0.227 7.25 5.21 9.68
10/28/2021 1:15:00 PM 15.8 60.44 0.227 7.25 5.36 9.75
10/28/2021 1:30:00 PM 15.82 60.476 0.228 7.25 5.13 9.75
10/28/2021 1:45:00 PM 15.83 60.494 0.228 7.26 6.47 9.74
10/28/2021 2:00:00 PM 15.85 60.53 0.228 7.25 8.83 9.74
10/28/2021 2:15:00 PM 15.88 60.584 0.229 7.27 5.54 9.75
10/28/2021 2:30:00 PM 15.89 60.602 0.229 7.26 6.46 9.76
10/28/2021 2:45:00 PM 15.9 60.62 0.228 7.28 5.54 9.76
10/28/2021 3:00:00 PM 15.89 60.602 0.229 7.28 5.18 9.75
10/28/2021 3:15:00 PM 15.85 60.53 0.228 7.28 5.5 9.77
10/28/2021 3:30:00 PM 15.93 60.674 0.227 7.29 6.2 9.66
10/28/2021 3:45:00 PM 15.94 60.692 0.227 7.29 5.44 9.64
10/28/2021 4:00:00 PM 15.86 60.548 0.229 7.29 5.2 9.6
10/28/2021 4:15:00 PM 15.93 60.674 0.228 7.28 5.6 9.55
10/28/2021 4:30:00 PM 15.91 60.638 0.229 7.29 6.59 9.53
10/28/2021 4:45:00 PM 15.95 60.71 0.229 7.28 6.97 9.51
10/28/2021 5:00:00 PM 15.91 60.638 0.229 7.29 6.99 9.48
10/28/2021 5:15:00 PM 15.85 60.53 0.229 7.29 6.64 9.45
10/28/2021 5:30:00 PM 15.86 60.548 0.229 7.29 5.78 9.35
10/28/2021 5:45:00 PM 15.75 60.35 0.229 7.28 6.15 9.29
10/28/2021 6:00:00 PM 15.74 60.332 0.229 7.28 6 9.19
10/28/2021 6:15:00 PM 15.77 60.386 0.229 7.27 6.47 9.14
10/28/2021 6:30:00 PM 15.68 60.224 0.229 7.26 6.05 9.09
10/28/2021 6:45:00 PM 15.66 60.188 0.229 7.25 6.56 9.06
10/28/2021 7:00:00 PM 15.63 60.134 0.23 7.25 5.64 9.02
10/28/2021 7:15:00 PM 15.61 60.098 0.23 7.24 8.43 8.99
10/28/2021 7:30:00 PM 15.62 60.116 0.23 7.24 6.09 8.98
10/28/2021 7:45:00 PM 15.58 60.044 0.231 7.22 6.5 8.95
10/28/2021 8:00:00 PM 15.6 60.08 0.23 7.22 6.37 8.91
10/28/2021 8:15:00 PM 15.6 60.08 0.231 7.22 6.67 8.89
10/28/2021 8:30:00 PM 15.59 60.062 0.23 7.22 6.81 8.87
10/28/2021 8:45:00 PM 15.68 60.224 0.23 7.2 8.19 8.83
10/28/2021 9:00:00 PM 15.55 59.99 0.232 7.21 7.53 8.8
10/28/2021 9:15:00 PM 15.62 60.116 0.231 7.2 7.5 8.76
10/28/2021 9:30:00 PM 15.59 60.062 0.233 7.19 8.45 8.75
10/28/2021 9:45:00 PM 15.6 60.08 0.232 7.18 8.29 8.71
10/28/2021 10:00:00 PM 15.6 60.08 0.232 7.18 8.37 8.71
10/28/2021 10:15:00 PM 15.62 60.116 0.232 7.16 8.54 8.7
10/28/2021 10:30:00 PM 15.62 60.116 0.231 7.18 9.3 8.68
10/28/2021 10:45:00 PM 15.57 60.026 0.231 7.16 7.47 8.72
10/28/2021 11:00:00 PM 15.58 60.044 0.23 7.16 7.82 8.71
10/28/2021 11:15:00 PM 15.58 60.044 0.232 7.16 7.56 8.69
10/28/2021 11:30:00 PM 15.59 60.062 0.232 7.17 9.78 8.7
10/28/2021 11:45:00 PM 15.62 60.116 0.231 7.16 8.3 8.69
10/29/2021 12:00:00 AM 15.58 60.044 0.233 7.17 8.89 8.68
10/29/2021 12:15:00 AM 15.61 60.098 0.232 7.16 7.9 8.68
10/29/2021 12:30:00 AM 15.57 60.026 0.232 7.16 7.88 8.68
10/29/2021 12:45:00 AM 15.61 60.098 0.231 7.15 7.68 8.66
10/29/2021 1:00:00 AM 15.61 60.098 0.232 7.16 7.45 8.62
10/29/2021 1:15:00 AM 15.59 60.062 0.231 7.16 8.96 8.68
10/29/2021 1:30:00 AM 15.56 60.008 0.231 7.16 7.4 8.61
10/29/2021 1:45:00 AM 15.6 60.08 0.232 7.16 9.78 8.59
10/29/2021 2:00:00 AM 15.63 60.134 0.231 7.15 8.91 8.64
10/29/2021 2:15:00 AM 15.61 60.098 0.232 7.15 8.51 8.6
10/29/2021 2:30:00 AM 15.58 60.044 0.232 7.15 8.65 8.6
10/29/2021 2:45:00 AM 15.61 60.098 0.232 7.15 8.35 8.61
10/29/2021 3:00:00 AM 15.62 60.116 0.232 7.14 9.42 8.56
10/29/2021 3:15:00 AM 15.58 60.044 0.232 7.15 9.07 8.58
10/29/2021 3:30:00 AM 15.52 59.936 0.232 7.14 8.59 8.55
10/29/2021 3:45:00 AM 15.52 59.936 0.232 7.13 9.31 8.55
10/29/2021 4:00:00 AM 15.56 60.008 0.231 7.13 8.36 8.58
10/29/2021 4:15:00 AM 15.54 59.972 0.231 7.12 9.87 8.64
10/29/2021 4:30:00 AM 15.55 59.99 0.231 7.11 7.32 8.68
10/29/2021 4:45:00 AM 15.56 60.008 0.231 7.12 7.68 8.71
10/29/2021 5:00:00 AM 15.54 59.972 0.232 7.13 13.05 8.71
10/29/2021 5:15:00 AM 15.57 60.026 0.232 7.14 7.96 8.69
10/29/2021 5:30:00 AM 15.54 59.972 0.231 7.15 7.69 8.67
10/29/2021 5:45:00 AM 15.52 59.936 0.231 7.15 8.5 8.64
10/29/2021 6:00:00 AM 15.54 59.972 0.23 7.16 7.1 8.71
10/29/2021 6:15:00 AM 15.47 59.846 0.23 7.17 7.25 8.75
10/29/2021 6:30:00 AM 15.4 59.72 0.231 7.17 7.88 8.78
10/29/2021 6:45:00 AM 15.45 59.81 0.23 7.18 6.51 8.79
10/29/2021 7:00:00 AM 15.42 59.756 0.231 7.18 6.27 8.79
10/29/2021 7:15:00 AM 15.42 59.756 0.231 7.19 7.5 8.8
10/29/2021 7:30:00 AM 15.38 59.684 0.231 7.18 6.84 8.79
10/29/2021 7:45:00 AM 15.36 59.648 0.231 7.17 8.09 8.86
10/29/2021 8:00:00 AM 15.44 59.792 0.231 7.17 7.44 8.85
10/29/2021 8:15:00 AM 15.37 59.666 0.231 7.17 6.6 8.87
10/29/2021 8:30:00 AM 15.43 59.774 0.23 7.16 6.17 8.93
10/29/2021 8:45:00 AM 15.41 59.738 0.23 7.17 6.63 8.92
10/29/2021 9:00:00 AM 15.4 59.72 0.231 7.15 6.55 8.97
10/29/2021 9:15:00 AM 15.39 59.702 0.231 7.16 5.4 9.03
10/29/2021 9:30:00 AM 15.35 59.63 0.23 7.17 5.42 9.1
10/29/2021 9:45:00 AM 15.37 59.666 0.231 7.17 5.35 9.12
10/29/2021 10:00:00 AM 15.34 59.612 0.23 7.18 5.5 9.19
10/29/2021 10:15:00 AM 15.4 59.72 0.23 7.17 4.81 9.2
10/29/2021 10:30:00 AM 15.37 59.666 0.229 7.19 5.54 9.24
10/29/2021 10:45:00 AM 15.41 59.738 0.229 7.18 4.91 9.25
10/29/2021 11:00:00 AM 15.34 59.612 0.229 7.2 5.35 9.33
10/29/2021 11:15:00 AM 15.35 59.63 0.229 7.2 5.3 9.43
10/29/2021 11:30:00 AM 15.3 59.54 0.23 7.2 5.09 9.47
10/29/2021 11:45:00 AM 15.31 59.558 0.23 7.21 5.3 9.53
10/29/2021 12:00:00 PM 15.23 59.414 0.23 7.21 7.26 9.63
10/29/2021 12:15:00 PM 15.08 59.144 0.231 7.22 4.66 9.61
10/29/2021 12:30:00 PM 15.09 59.162 0.23 7.22 5.11 9.66
10/29/2021 12:45:00 PM 15.02 59.036 0.23 7.22 4.53 9.75
10/29/2021 1:00:00 PM 15.02 59.036 0.23 7.23 5.33 9.76
10/29/2021 1:15:00 PM 15.08 59.144 0.23 7.24 4.33 9.77
10/29/2021 1:30:00 PM 15.07 59.126 0.229 7.24 6.2 9.76
10/29/2021 1:45:00 PM 15.04 59.072 0.231 7.24 9.34 9.72
10/29/2021 2:00:00 PM 15.01 59.018 0.231 7.24 8.49 9.69
10/29/2021 2:15:00 PM 15 59 0.229 7.26 8.18 9.65
10/29/2021 2:30:00 PM 14.95 58.91 0.23 7.26 7.99 9.65
10/29/2021 2:45:00 PM 14.99 58.982 0.229 7.25 9.79 9.67
10/29/2021 3:00:00 PM 14.95 58.91 0.229 7.25 9.62 9.64
10/29/2021 3:15:00 PM 14.95 58.91 0.228 7.26 9.44 9.64
10/29/2021 3:30:00 PM 14.92 58.856 0.229 7.25 9.56 9.6
10/29/2021 3:45:00 PM 14.87 58.766 0.231 7.25 9.13 9.68
10/29/2021 4:00:00 PM 14.86 58.748 0.232 7.25 10.15 9.58
10/29/2021 4:15:00 PM 14.82 58.676 0.232 7.25 10.06 9.55
10/29/2021 4:30:00 PM 14.88 58.784 0.232 7.24 12.11 9.49
10/29/2021 4:45:00 PM 14.81 58.658 0.234 7.23 11.72 9.49
10/29/2021 5:00:00 PM 14.71 58.478 0.237 7.24 14.86 9.43
10/29/2021 5:15:00 PM 14.63 58.334 0.236 7.23 15.34 9.42
10/29/2021 5:30:00 PM 14.63 58.334 0.235 7.23 16.21 9.39
10/29/2021 5:45:00 PM 14.57 58.226 0.233 7.22 17.33 9.39
10/29/2021 6:00:00 PM 14.55 58.19 0.229 7.23 15.12 9.35
10/29/2021 6:15:00 PM 14.47 58.046 0.227 7.24 16.77 9.41
10/29/2021 6:30:00 PM 14.43 57.974 0.222 7.22 18.86 9.41
10/29/2021 6:45:00 PM 14.37 57.866 0.22 7.22 24.18 9.41
10/29/2021 7:00:00 PM 14.39 57.902 0.216 7.21 23.68 9.38
10/29/2021 7:15:00 PM 14.28 57.704 0.217 7.21 23.25 9.41
10/29/2021 7:30:00 PM 14.38 57.884 0.215 7.2 35.05 9.41
10/29/2021 7:45:00 PM 14.13 57.434 0.213 7.2 66.02 9.45
10/29/2021 8:00:00 PM 13.91 57.038 0.209 7.2 101.6 9.54
10/29/2021 8:15:00 PM 13.84 56.912 0.205 7.2 129.8 9.62
10/29/2021 8:30:00 PM 13.8 56.84 0.205 7.2 171.4 9.6
10/29/2021 8:45:00 PM 13.7 56.66 0.204 7.2 138.3 9.63
10/29/2021 9:00:00 PM 13.62 56.516 0.203 7.21 149.2 9.65
10/29/2021 9:15:00 PM 13.59 56.462 0.203 7.2 148 9.61
10/29/2021 9:30:00 PM 13.54 56.372 0.204 7.2 173.5 9.61
10/29/2021 9:45:00 PM 13.45 56.21 0.207 7.19 177.4 9.57
10/29/2021 10:00:00 PM 13.4 56.12 0.207 7.18 228.5 9.58
10/29/2021 10:15:00 PM 13.36 56.048 0.208 7.18 264.4 9.51
10/29/2021 10:30:00 PM 13.32 55.976 0.205 7.18 340.2 9.47
10/29/2021 10:45:00 PM 13.32 55.976 0.2 7.17 378.5 9.48
10/29/2021 11:00:00 PM 13.26 55.868 0.194 7.16 436.4 9.43
10/29/2021 11:15:00 PM 13.29 55.922 0.191 7.13 434.8 9.38
10/29/2021 11:30:00 PM 13.3 55.94 0.187 7.12 431.2 9.33
10/29/2021 11:45:00 PM 13.28 55.904 0.186 7.12 323.9 9.35
10/30/2021 12:00:00 AM 13.25 55.85 0.184 7.08 460.4 9.35
10/30/2021 12:15:00 AM 13.27 55.886 0.183 7.06 459.2 9.35
10/30/2021 12:30:00 AM 13.25 55.85 0.184 7.07 460.9 9.39
10/30/2021 12:45:00 AM 13.24 55.832 0.181 7.04 447.3 9.34
10/30/2021 1:00:00 AM 13.25 55.85 0.178 7.04 444.1 9.36
10/30/2021 1:15:00 AM 13.23 55.814 0.174 7.05 416.5 9.38
10/30/2021 1:30:00 AM 13.22 55.796 0.172 7.02 405.4 9.35
10/30/2021 1:45:00 AM 13.25 55.85 0.17 7.03 423.3 9.35
10/30/2021 2:00:00 AM 13.24 55.832 0.168 7.01 391.6 9.37
10/30/2021 2:15:00 AM 13.26 55.868 0.169 7 396.8 9.36
10/30/2021 2:30:00 AM 13.28 55.904 0.168 7 387.9 9.32
10/30/2021 2:45:00 AM 13.29 55.922 0.169 6.99 352.6 9.33
10/30/2021 3:00:00 AM 13.31 55.958 0.167 6.98 339.6 9.34
10/30/2021 3:15:00 AM 13.3 55.94 0.165 6.97 293.8 9.37
10/30/2021 3:30:00 AM 13.31 55.958 0.165 6.97 274.5 9.35
10/30/2021 3:45:00 AM 13.3 55.94 0.165 6.97 290.5 9.35
10/30/2021 4:00:00 AM 13.34 56.012 0.165 6.96 236.1 9.3
10/30/2021 4:15:00 AM 13.36 56.048 0.166 6.97 215.5 9.34
10/30/2021 4:30:00 AM 13.37 56.066 0.166 6.96 240.5 9.33
10/30/2021 4:45:00 AM 13.37 56.066 0.168 6.97 224.1 9.34
10/30/2021 5:00:00 AM 13.4 56.12 0.169 6.96 222.4 9.32
10/30/2021 5:15:00 AM 13.41 56.138 0.17 6.99 189.2 9.32
10/30/2021 5:30:00 AM 13.41 56.138 0.17 6.99 204 9.33
10/30/2021 5:45:00 AM 13.44 56.192 0.172 6.98 195.3 9.37
10/30/2021 6:00:00 AM 13.47 56.246 0.173 6.98 189.3 9.36
10/30/2021 6:15:00 AM 13.46 56.228 0.175 6.99 172.1 9.37
10/30/2021 6:30:00 AM 13.45 56.21 0.175 6.99 175.2 9.35
10/30/2021 6:45:00 AM 13.54 56.372 0.178 6.97 153.1 9.36
10/30/2021 7:00:00 AM 13.53 56.354 0.179 6.97 150.3 9.37
10/30/2021 7:15:00 AM 13.54 56.372 0.18 6.97 145.4 9.34
10/30/2021 7:30:00 AM 13.53 56.354 0.181 6.98 138.6 9.36
10/30/2021 7:45:00 AM 13.6 56.48 0.183 6.98 128.9 9.32
10/30/2021 8:00:00 AM 13.61 56.498 0.183 6.97 126.5 9.35
10/30/2021 8:15:00 AM 13.59 56.462 0.184 6.97 114.8 9.39
10/30/2021 8:30:00 AM 13.65 56.57 0.183 6.98 111.7 9.33
10/30/2021 8:45:00 AM 13.61 56.498 0.183 7 103.3 9.37
10/30/2021 9:00:00 AM 13.67 56.606 0.184 7 99.48 9.36
10/30/2021 9:15:00 AM 13.67 56.606 0.185 7.01 98.21 9.37
10/30/2021 9:30:00 AM 13.73 56.714 0.185 7 96.51 9.38
10/30/2021 9:45:00 AM 13.71 56.678 0.186 7 85.53 9.41
10/30/2021 10:00:00 AM 13.72 56.696 0.187 7 92.46 9.4
10/30/2021 10:15:00 AM 13.78 56.804 0.189 7 86.44 9.36
10/30/2021 10:30:00 AM 13.8 56.84 0.19 7.01 78.57 9.42
10/30/2021 10:45:00 AM 13.82 56.876 0.191 7 77.51 9.38
10/30/2021 11:00:00 AM 13.81 56.858 0.191 7.02 75.05 9.43
10/30/2021 11:15:00 AM 13.89 57.002 0.193 7.01 73.01 9.42
10/30/2021 11:30:00 AM 13.91 57.038 0.194 7.01 67.26 9.43
10/30/2021 11:45:00 AM 14.02 57.236 0.195 7.01 67.18 9.44
10/30/2021 12:00:00 PM 14.07 57.326 0.197 7.02 68.4 9.52
10/30/2021 12:15:00 PM 14.12 57.416 0.197 7.02 74.73 9.5
10/30/2021 12:30:00 PM 14.26 57.668 0.198 7.03 59.25 9.5
10/30/2021 12:45:00 PM 14.21 57.578 0.198 7.04 60.98 9.53
10/30/2021 1:00:00 PM 14.28 57.704 0.2 7.04 63.93 9.52
10/30/2021 1:15:00 PM 14.36 57.848 0.202 7.03 56.65 9.48
10/30/2021 1:30:00 PM 14.38 57.884 0.202 7.04 54.27 9.48
10/30/2021 1:45:00 PM 14.41 57.938 0.202 7.04 53.41 9.53
10/30/2021 2:00:00 PM 14.45 58.01 0.203 7.05 51.94 9.5
10/30/2021 2:15:00 PM 14.42 57.956 0.204 7.06 49.65 9.51
10/30/2021 2:30:00 PM 14.42 57.956 0.205 7.05 49.98 9.51
10/30/2021 2:45:00 PM 14.49 58.082 0.204 7.06 49.21 9.53
10/30/2021 3:00:00 PM 14.54 58.172 0.206 7.06 46.61 9.53
10/30/2021 3:15:00 PM 14.5 58.1 0.207 7.06 45.19 9.5
10/30/2021 3:30:00 PM 14.52 58.136 0.209 7.06 45.34 9.52
10/30/2021 3:45:00 PM 14.53 58.154 0.209 7.06 43.14 9.5
10/30/2021 4:00:00 PM 14.59 58.262 0.209 7.07 44.26 9.51
10/30/2021 4:15:00 PM 14.58 58.244 0.21 7.07 41.04 9.5
10/30/2021 4:30:00 PM 14.63 58.334 0.209 7.07 41.8 9.47
10/30/2021 4:45:00 PM 14.63 58.334 0.21 7.08 40.26 9.44
10/30/2021 5:00:00 PM 14.64 58.352 0.21 7.08 38.14 9.47
10/30/2021 5:15:00 PM 14.69 58.442 0.211 7.09 38.52 9.42
10/30/2021 5:30:00 PM 14.62 58.316 0.21 7.09 37.35 9.42
10/30/2021 5:45:00 PM 14.7 58.46 0.212 7.08 38.42 9.35
10/30/2021 6:00:00 PM 14.66 58.388 0.213 7.08 38.68 9.34
10/30/2021 6:15:00 PM 14.62 58.316 0.213 7.08 36.52 9.34
10/30/2021 6:30:00 PM 14.65 58.37 0.212 7.08 36.4 9.33
10/30/2021 6:45:00 PM 14.6 58.28 0.214 7.08 36.88 9.33
10/30/2021 7:00:00 PM 14.61 58.298 0.214 7.07 35.62 9.29
10/30/2021 7:15:00 PM 14.58 58.244 0.214 7.08 36.68 9.31
10/30/2021 7:30:00 PM 14.55 58.19 0.215 7.07 37.92 9.26
10/30/2021 7:45:00 PM 14.54 58.172 0.215 7.08 36.08 9.28
10/30/2021 8:00:00 PM 14.48 58.064 0.216 7.08 39.16 9.26
10/30/2021 8:15:00 PM 14.52 58.136 0.216 7.07 38.72 9.26
10/30/2021 8:30:00 PM 14.5 58.1 0.217 7.08 32.3 9.27
10/30/2021 8:45:00 PM 14.51 58.118 0.216 7.07 35.6 9.3
10/30/2021 9:00:00 PM 14.5 58.1 0.216 7.07 32.14 9.26
10/30/2021 9:15:00 PM 14.48 58.064 0.216 7.08 32.33 9.2
10/30/2021 9:30:00 PM 14.5 58.1 0.217 7.08 34.49 9.27
10/30/2021 9:45:00 PM 14.48 58.064 0.216 7.07 33.27 9.27
10/30/2021 10:00:00 PM 14.51 58.118 0.218 7.08 33.76 9.27
10/30/2021 10:15:00 PM 14.5 58.1 0.217 7.07 34.09 9.25
10/30/2021 10:30:00 PM 14.48 58.064 0.218 7.08 31.44 9.29
10/30/2021 10:45:00 PM 14.44 57.992 0.216 7.08 32.63 9.27
10/30/2021 11:00:00 PM 14.41 57.938 0.218 7.07 32.54 9.26
10/30/2021 11:15:00 PM 14.39 57.902 0.218 7.07 34.19 9.27
10/30/2021 11:30:00 PM 14.35 57.83 0.218 7.08 32.26 9.27
10/30/2021 11:45:00 PM 14.32 57.776 0.217 7.09 30.97 9.27
10/31/2021 12:00:00 AM 14.32 57.776 0.217 7.08 31.34 9.29
10/31/2021 12:15:00 AM 14.29 57.722 0.218 7.08 33.03 9.24
10/31/2021 12:30:00 AM 14.28 57.704 0.218 7.08 32.79 9.25
10/31/2021 12:45:00 AM 14.23 57.614 0.218 7.09 30.12 9.28
10/31/2021 1:00:00 AM 14.2 57.56 0.218 7.07 31.28 9.27
10/31/2021 1:15:00 AM 14.2 57.56 0.219 7.08 30.99 9.28
10/31/2021 1:30:00 AM 14.14 57.452 0.22 7.09 31.93 9.25
10/31/2021 1:45:00 AM 14.14 57.452 0.22 7.08 30.48 9.25
10/31/2021 2:00:00 AM 14.11 57.398 0.219 7.08 30.08 9.27
10/31/2021 2:15:00 AM 14.14 57.452 0.22 7.08 31.87 9.28
10/31/2021 2:30:00 AM 14.09 57.362 0.218 7.08 30.43 9.29
10/31/2021 2:45:00 AM 14.09 57.362 0.219 7.09 28.83 9.26
10/31/2021 3:00:00 AM 14.08 57.344 0.22 7.08 29.65 9.27
10/31/2021 3:15:00 AM 14.07 57.326 0.221 7.07 28.72 9.27
10/31/2021 3:30:00 AM 14.07 57.326 0.22 7.08 30.76 9.25
10/31/2021 3:45:00 AM 14.03 57.254 0.22 7.08 28.67 9.29
10/31/2021 4:00:00 AM 14.02 57.236 0.221 7.07 30.26 9.32
10/31/2021 4:15:00 AM 13.97 57.146 0.222 7.08 27.55 9.3
10/31/2021 4:30:00 AM 13.89 57.002 0.221 7.08 29.65 9.32
10/31/2021 4:45:00 AM 13.92 57.056 0.221 7.07 28.96 9.37
10/31/2021 5:00:00 AM 13.87 56.966 0.22 7.08 27.87 9.31
10/31/2021 5:15:00 AM 13.88 56.984 0.221 7.07 28.17 9.3
10/31/2021 5:30:00 AM 13.86 56.948 0.221 7.08 26.35 9.31
10/31/2021 5:45:00 AM 13.76 56.768 0.221 7.08 28.02 9.36
10/31/2021 6:00:00 AM 13.76 56.768 0.222 7.07 28.49 9.37
10/31/2021 6:15:00 AM 13.78 56.804 0.221 7.08 26.67 9.36
10/31/2021 6:30:00 AM 13.67 56.606 0.22 7.08 28.23 9.33
10/31/2021 6:45:00 AM 13.65 56.57 0.22 7.07 26.91 9.34
10/31/2021 7:00:00 AM 13.69 56.642 0.22 7.08 29.05 9.34
10/31/2021 7:15:00 AM 13.68 56.624 0.221 7.07 27.38 9.39
10/31/2021 7:30:00 AM 13.63 56.534 0.22 7.08 25.23 9.39
10/31/2021 7:45:00 AM 13.68 56.624 0.221 7.08 25.24 9.36
10/31/2021 8:00:00 AM 13.69 56.642 0.221 7.09 26.21 9.35
10/31/2021 8:15:00 AM 13.66 56.588 0.222 7.08 25.37 9.38
10/31/2021 8:30:00 AM 13.6 56.48 0.222 7.07 25.51 9.42
10/31/2021 8:45:00 AM 13.61 56.498 0.222 7.07 24.32 9.4
10/31/2021 9:00:00 AM 13.65 56.57 0.222 7.07 24.36 9.5
10/31/2021 9:15:00 AM 13.59 56.462 0.222 7.07 22.01 9.47
10/31/2021 9:30:00 AM 13.64 56.552 0.222 7.07 21.73 9.47
10/31/2021 9:45:00 AM 13.63 56.534 0.221 7.07 21.06 9.5
10/31/2021 10:00:00 AM 13.64 56.552 0.221 7.07 21.42 9.52
10/31/2021 10:15:00 AM 13.65 56.57 0.22 7.08 19.33 9.58
10/31/2021 10:30:00 AM 13.7 56.66 0.222 7.08 18.97 9.53
10/31/2021 10:45:00 AM 13.73 56.714 0.223 7.07 20.92 9.63
10/31/2021 11:00:00 AM 13.75 56.75 0.223 7.08 19.19 9.61
10/31/2021 11:15:00 AM 13.71 56.678 0.223 7.08 18.31 9.64
10/31/2021 11:30:00 AM 13.77 56.786 0.223 7.08 18.17 9.69
10/31/2021 11:45:00 AM 13.83 56.894 0.224 7.08 18.24 9.67
10/31/2021 12:00:00 PM 13.87 56.966 0.224 7.09 16.69 9.74
10/31/2021 12:15:00 PM 13.87 56.966 0.224 7.09 16.63 9.74
10/31/2021 12:30:00 PM 14 57.2 0.224 7.1 15.27 9.78
10/31/2021 12:45:00 PM 14.03 57.254 0.224 7.1 18.09 9.84
10/31/2021 1:00:00 PM 14.11 57.398 0.224 7.1 17.15 9.84
10/31/2021 1:15:00 PM 14.18 57.524 0.224 7.1 17.25 9.89
10/31/2021 1:30:00 PM 14.17 57.506 0.225 7.11 15.31 9.88
10/31/2021 1:45:00 PM 14.11 57.398 0.225 7.11 15.01 9.87
10/31/2021 2:00:00 PM 14.26 57.668 0.225 7.11 14.68 9.88
10/31/2021 2:15:00 PM 14.24 57.632 0.224 7.13 15.96 9.87
10/31/2021 2:30:00 PM 14.26 57.668 0.224 7.13 14.72 9.89
10/31/2021 2:45:00 PM 14.29 57.722 0.223 7.13 13.99 9.89
10/31/2021 3:00:00 PM 14.37 57.866 0.224 7.14 14.7 9.9
10/31/2021 3:15:00 PM 14.42 57.956 0.223 7.15 13.94 9.87
10/31/2021 3:30:00 PM 14.34 57.812 0.224 7.15 15.68 9.84
10/31/2021 3:45:00 PM 14.37 57.866 0.225 7.17 13.65 9.79
10/31/2021 4:00:00 PM 14.29 57.722 0.225 7.15 13.04 9.86
10/31/2021 4:15:00 PM 14.34 57.812 0.225 7.15 12.92 9.82
10/31/2021 4:30:00 PM 14.32 57.776 0.226 7.16 14.12 9.81
10/31/2021 4:45:00 PM 14.33 57.794 0.226 7.15 13.52 9.75
10/31/2021 5:00:00 PM 14.28 57.704 0.226 7.16 12.75 9.74
10/31/2021 5:15:00 PM 14.31 57.758 0.225 7.14 13.13 9.67
10/31/2021 5:30:00 PM 14.31 57.758 0.225 7.14 14.32 9.61
10/31/2021 5:45:00 PM 14.31 57.758 0.225 7.14 14.02 9.59
10/31/2021 6:00:00 PM 14.27 57.686 0.226 7.13 14.4 9.6
10/31/2021 6:15:00 PM 14.3 57.74 0.225 7.13 14.3 9.53
10/31/2021 6:30:00 PM 14.26 57.668 0.226 7.14 13.58 9.54
10/31/2021 6:45:00 PM 14.23 57.614 0.226 7.13 15.81 9.51
10/31/2021 7:00:00 PM 14.21 57.578 0.225 7.12 14.5 9.48
10/31/2021 7:15:00 PM 14.25 57.65 0.225 7.12 14.56 9.48
10/31/2021 7:30:00 PM 14.22 57.596 0.225 7.12 14.81 9.41
10/31/2021 7:45:00 PM 14.24 57.632 0.225 7.13 15.29 9.45
10/31/2021 8:00:00 PM 14.24 57.632 0.225 7.12 15.84 9.45
10/31/2021 8:15:00 PM 14.2 57.56 0.226 7.11 14.67 9.43
10/31/2021 8:30:00 PM 14.15 57.47 0.226 7.11 15.69 9.45
10/31/2021 8:45:00 PM 14.17 57.506 0.226 7.12 16.38 9.37
10/31/2021 9:00:00 PM 14.15 57.47 0.226 7.13 15.86 9.45
10/31/2021 9:15:00 PM 14.07 57.326 0.226 7.12 15.32 9.38
10/31/2021 9:30:00 PM 14.11 57.398 0.226 7.12 16.41 9.36
10/31/2021 9:45:00 PM 14.09 57.362 0.226 7.12 15.46 9.43
10/31/2021 10:00:00 PM 14.1 57.38 0.225 7.12 15.85 9.4
10/31/2021 10:15:00 PM 14.05 57.29 0.225 7.12 16.68 9.44
10/31/2021 10:30:00 PM 14.01 57.218 0.225 7.12 16.19 9.43
10/31/2021 10:45:00 PM 14.02 57.236 0.225 7.13 16.78 9.44
10/31/2021 11:00:00 PM 13.99 57.182 0.225 7.12 16.66 9.45
10/31/2021 11:15:00 PM 13.98 57.164 0.225 7.13 16.02 9.46
10/31/2021 11:30:00 PM 13.92 57.056 0.225 7.13 14.96 9.44
10/31/2021 11:45:00 PM 13.96 57.128 0.226 7.13 16.12 9.44
11/1/2021 12:00:00 AM 13.9 57.02 0.226 7.12 15.99 9.49
11/1/2021 12:15:00 AM 13.91 57.038 0.224 7.12 16.53 9.47
11/1/2021 12:30:00 AM 13.89 57.002 0.224 7.13 15.19 9.51
11/1/2021 12:45:00 AM 13.86 56.948 0.224 7.13 16.14 9.5
11/1/2021 1:00:00 AM 13.88 56.984 0.224 7.13 16.62 9.46
11/1/2021 1:15:00 AM 13.8 56.84 0.224 7.12 15.57 9.48
11/1/2021 1:30:00 AM 13.73 56.714 0.224 7.13 17.22 9.53
11/1/2021 1:45:00 AM 13.81 56.858 0.224 7.13 15.34 9.46
11/1/2021 2:00:00 AM 13.77 56.786 0.225 7.12 17.29 9.52
11/1/2021 2:15:00 AM 13.78 56.804 0.224 7.13 16.3 9.56
11/1/2021 2:30:00 AM 13.77 56.786 0.224 7.12 14.84 9.53
11/1/2021 2:45:00 AM 13.73 56.714 0.224 7.12 18.7 9.55
11/1/2021 3:00:00 AM 13.7 56.66 0.224 7.12 16.28 9.52
11/1/2021 3:15:00 AM 13.73 56.714 0.225 7.14 15.45 9.51
11/1/2021 3:30:00 AM 13.68 56.624 0.225 7.13 15.61 9.57
11/1/2021 3:45:00 AM 13.68 56.624 0.226 7.12 16.52 9.5
11/1/2021 4:00:00 AM 13.67 56.606 0.226 7.12 14.63 9.53
11/1/2021 4:15:00 AM 13.58 56.444 0.226 7.11 17.11 9.53
11/1/2021 4:30:00 AM 13.59 56.462 0.224 7.12 17.23 9.57
11/1/2021 4:45:00 AM 13.52 56.336 0.225 7.12 17.72 9.55
11/1/2021 5:00:00 AM 13.53 56.354 0.226 7.12 16.43 9.52
11/1/2021 5:15:00 AM 13.55 56.39 0.224 7.12 16.3 9.58
11/1/2021 5:30:00 AM 13.49 56.282 0.224 7.12 15.86 9.56
11/1/2021 5:45:00 AM 13.48 56.264 0.224 7.12 16.73 9.6
11/1/2021 6:00:00 AM 13.43 56.174 0.225 7.13 15.19 9.59
11/1/2021 6:15:00 AM 13.45 56.21 0.224 7.13 15.56 9.56
11/1/2021 6:30:00 AM 13.38 56.084 0.225 7.14 16.27 9.59
11/1/2021 6:45:00 AM 13.41 56.138 0.225 7.14 16.86 9.6
11/1/2021 7:00:00 AM 13.44 56.192 0.224 7.15 15.36 9.6
11/1/2021 7:15:00 AM 13.49 56.282 0.224 7.15 15.71 9.6
11/1/2021 7:30:00 AM 13.5 56.3 0.225 7.15 17 9.62
11/1/2021 7:45:00 AM 13.48 56.264 0.225 7.17 14.8 9.58
11/1/2021 8:00:00 AM 13.49 56.282 0.225 7.17 15.14 9.6
11/1/2021 8:15:00 AM 13.46 56.228 0.225 7.19 14.15 9.6
11/1/2021 8:30:00 AM 13.45 56.21 0.225 7.21 15 9.64
11/1/2021 8:45:00 AM 13.42 56.156 0.225 7.22 14.89 9.74
11/1/2021 9:00:00 AM 13.38 56.084 0.224 7.22 13.4 9.74
11/1/2021 9:15:00 AM 13.42 56.156 0.225 7.24 12.74 9.8
11/1/2021 9:30:00 AM 13.29 55.922 0.224 7.25 12.09 9.84
11/1/2021 9:45:00 AM 13.42 56.156 0.224 7.25 12.1 9.83
11/1/2021 10:00:00 AM 13.42 56.156 0.224 7.25 12.27 9.9
11/1/2021 10:15:00 AM 13.42 56.156 0.225 7.25 12.24 9.99
11/1/2021 10:30:00 AM 13.46 56.228 0.224 7.25 13.72 9.97
11/1/2021 10:45:00 AM 13.63 56.534 0.224 7.26 10.99 10.02
11/1/2021 11:00:00 AM 13.92 57.056 0.223 7.26 31.37 9.77
11/1/2021 11:15:00 AM 14.24 57.632 0.221 7.24 26.98 9.64
11/1/2021 11:30:00 AM 14.29 57.722 0.222 7.23 19.67 9.62
11/1/2021 11:45:00 AM 14.25 57.65 0.221 7.23 18.23 9.69
11/1/2021 12:00:00 PM 14.42 57.956 0.222 7.21 17.67 9.62
11/1/2021 12:15:00 PM 14.38 57.884 0.222 7.19 16.68 9.7
11/1/2021 12:30:00 PM 14.4 57.92 0.222 7.19 16.6 9.67
11/1/2021 12:45:00 PM 14.45 58.01 0.222 7.19 16.64 9.71
11/1/2021 1:00:00 PM 14.6 58.28 0.222 7.17 16.03 9.67
11/1/2021 1:15:00 PM 14.52 58.136 0.223 7.18 15.87 9.75
11/1/2021 1:30:00 PM 14.43 57.974 0.223 7.17 13.87 9.72
11/1/2021 1:45:00 PM 14.57 58.226 0.223 7.17 14.37 9.74
11/1/2021 2:00:00 PM 14.58 58.244 0.223 7.17 13.3 9.77
11/1/2021 2:15:00 PM 14.7 58.46 0.222 7.18 16.35 9.74
11/1/2021 2:30:00 PM 14.64 58.352 0.223 7.17 13.64 9.72
11/1/2021 2:45:00 PM 14.72 58.496 0.223 7.16 13.25 9.7
11/1/2021 3:00:00 PM 14.67 58.406 0.223 7.18 12.72 9.66
11/1/2021 3:15:00 PM 14.75 58.55 0.223 7.17 13.16 9.68
11/1/2021 3:30:00 PM 14.69 58.442 0.224 7.17 12.53 9.68
11/1/2021 3:45:00 PM 14.72 58.496 0.223 7.17 14.59 9.65
11/1/2021 4:00:00 PM 14.63 58.334 0.224 7.17 15.3 9.64
11/1/2021 4:15:00 PM 14.66 58.388 0.224 7.18 14.39 9.54
11/1/2021 4:30:00 PM 14.61 58.298 0.224 7.17 14.95 9.53
11/1/2021 4:45:00 PM 14.66 58.388 0.223 7.18 14.1 9.51
11/1/2021 5:00:00 PM 14.59 58.262 0.224 7.17 13.31 9.57
11/1/2021 5:15:00 PM 14.42 57.956 0.224 7.17 13.5 9.55
11/1/2021 5:30:00 PM 14.48 58.064 0.224 7.17 12.79 9.51
11/1/2021 5:45:00 PM 14.57 58.226 0.223 7.18 13.14 9.47
11/1/2021 6:00:00 PM 14.53 58.154 0.224 7.18 12.83 9.38
11/1/2021 6:15:00 PM 14.41 57.938 0.224 7.17 13.03 9.41
11/1/2021 6:30:00 PM 14.47 58.046 0.224 7.16 12.93 9.4
11/1/2021 6:45:00 PM 14.46 58.028 0.224 7.16 13.19 9.38
11/1/2021 7:00:00 PM 14.38 57.884 0.224 7.15 16.05 9.39
11/1/2021 7:15:00 PM 14.34 57.812 0.224 7.16 13.77 9.4
11/1/2021 7:30:00 PM 14.3 57.74 0.224 7.15 15.32 9.39
11/1/2021 7:45:00 PM 14.22 57.596 0.224 7.15 14.52 9.35
11/1/2021 8:00:00 PM 14.26 57.668 0.224 7.15 14.21 9.4
11/1/2021 8:15:00 PM 14.37 57.866 0.224 7.15 13.97 9.38
11/1/2021 8:30:00 PM 14.3 57.74 0.223 7.14 14.13 9.38
11/1/2021 8:45:00 PM 14.31 57.758 0.223 7.15 13.53 9.4
11/1/2021 9:00:00 PM 14.22 57.596 0.224 7.16 15.24 9.39
11/1/2021 9:15:00 PM 14.22 57.596 0.224 7.15 13.7 9.32
11/1/2021 9:30:00 PM 14.04 57.272 0.224 7.14 14.49 9.37
11/1/2021 9:45:00 PM 14.26 57.668 0.223 7.15 14.48 9.37
11/1/2021 10:00:00 PM 14.18 57.524 0.223 7.16 15.04 9.37
11/1/2021 10:15:00 PM 14.28 57.704 0.223 7.15 13.53 9.33
11/1/2021 10:30:00 PM 14.23 57.614 0.224 7.15 13.62 9.37
11/1/2021 10:45:00 PM 14.09 57.362 0.224 7.14 14.18 9.36
11/1/2021 11:00:00 PM 14.19 57.542 0.224 7.15 13.79 9.34
11/1/2021 11:15:00 PM 14.15 57.47 0.223 7.15 13.67 9.33
11/1/2021 11:30:00 PM 14.12 57.416 0.223 7.14 15.99 9.33
11/1/2021 11:45:00 PM 13.98 57.164 0.223 7.13 15.47 9.35
11/2/2021 12:00:00 AM 14.1 57.38 0.223 7.15 14.47 9.35
11/2/2021 12:15:00 AM 14.03 57.254 0.222 7.15 14.09 9.37
11/2/2021 12:30:00 AM 13.93 57.074 0.223 7.15 13.93 9.33
11/2/2021 12:45:00 AM 13.89 57.002 0.222 7.16 13.8 9.38
11/2/2021 1:00:00 AM 13.98 57.164 0.222 7.13 13.95 9.36
11/2/2021 1:15:00 AM 13.77 56.786 0.223 7.13 15.29 9.39
11/2/2021 1:30:00 AM 13.88 56.984 0.223 7.14 14.71 9.36
11/2/2021 1:45:00 AM 13.75 56.75 0.224 7.14 13.23 9.41
11/2/2021 2:00:00 AM 13.81 56.858 0.224 7.14 13.45 9.37
11/2/2021 2:15:00 AM 13.79 56.822 0.224 7.12 13.92 9.4
11/2/2021 2:30:00 AM 13.78 56.804 0.223 7.13 13.17 9.36
11/2/2021 2:45:00 AM 13.73 56.714 0.224 7.13 13.32 9.42
11/2/2021 3:00:00 AM 13.72 56.696 0.223 7.14 12.72 9.42
11/2/2021 3:15:00 AM 13.75 56.75 0.224 7.14 13.82 9.4
11/2/2021 3:30:00 AM 13.79 56.822 0.224 7.13 13.57 9.39
11/2/2021 3:45:00 AM 13.74 56.732 0.223 7.15 14.7 9.38
11/2/2021 4:00:00 AM 13.75 56.75 0.223 7.15 12.6 9.39
11/2/2021 4:15:00 AM 13.62 56.516 0.224 7.14 13.11 9.38
11/2/2021 4:30:00 AM 13.69 56.642 0.222 7.15 12.14 9.33
11/2/2021 4:45:00 AM 13.77 56.786 0.222 7.13 13.63 9.34
11/2/2021 5:00:00 AM 13.74 56.732 0.224 7.13 13.61 9.39
11/2/2021 5:15:00 AM 13.74 56.732 0.224 7.13 12.72 9.42
11/2/2021 5:30:00 AM 13.67 56.606 0.223 7.13 12.82 9.37
11/2/2021 5:45:00 AM 13.58 56.444 0.224 7.13 13.14 9.4
11/2/2021 6:00:00 AM 13.71 56.678 0.223 7.13 13.41 9.4
11/2/2021 6:15:00 AM 13.65 56.57 0.223 7.13 13.27 9.41
11/2/2021 6:30:00 AM 13.57 56.426 0.224 7.14 13.53 9.39
11/2/2021 6:45:00 AM 13.65 56.57 0.224 7.13 14.84 9.39
11/2/2021 7:00:00 AM 13.52 56.336 0.224 7.13 12.67 9.43
11/2/2021 7:15:00 AM 13.57 56.426 0.223 7.12 13.4 9.41
11/2/2021 7:30:00 AM 13.51 56.318 0.224 7.14 13.5 9.38
11/2/2021 7:45:00 AM 13.61 56.498 0.224 7.13 13.65 9.39
11/2/2021 8:00:00 AM 13.51 56.318 0.224 7.13 12.07 9.41
11/2/2021 8:15:00 AM 13.63 56.534 0.223 7.12 12.37 9.43
11/2/2021 8:30:00 AM 13.56 56.408 0.223 7.13 12.56 9.43
11/2/2021 8:45:00 AM 13.62 56.516 0.223 7.12 12.18 9.45
11/2/2021 9:00:00 AM 13.61 56.498 0.223 7.11 12.38 9.45
11/2/2021 9:15:00 AM 13.61 56.498 0.223 7.11 11.94 9.45
11/2/2021 9:30:00 AM 13.52 56.336 0.223 7.12 12.64 9.51
11/2/2021 9:45:00 AM 13.51 56.318 0.223 7.11 12.02 9.48
11/2/2021 10:00:00 AM 13.59 56.462 0.223 7.12 11.57 9.48
11/2/2021 10:15:00 AM 13.62 56.516 0.223 7.13 12.99 9.55
11/2/2021 10:30:00 AM 13.61 56.498 0.224 7.13 12.34 9.63
11/2/2021 10:45:00 AM 13.58 56.444 0.223 7.13 12.15 9.58
11/2/2021 11:00:00 AM 13.56 56.408 0.224 7.14 11.43 9.57
11/2/2021 11:15:00 AM 13.54 56.372 0.225 7.14 11.25 9.66
11/2/2021 11:30:00 AM 13.66 56.588 0.224 7.15 10.85 9.68
11/2/2021 11:45:00 AM 13.52 56.336 0.224 7.15 10.61 9.7
11/2/2021 12:00:00 PM 13.66 56.588 0.224 7.14 10.78 9.69
11/2/2021 12:15:00 PM 13.71 56.678 0.224 7.15 10.82 9.64
11/2/2021 12:30:00 PM 13.69 56.642 0.224 7.16 11.27 9.74
11/2/2021 12:45:00 PM 13.65 56.57 0.223 7.17 11.42 9.75
11/2/2021 1:00:00 PM 13.55 56.39 0.224 7.17 11.18 9.82
11/2/2021 1:15:00 PM 13.7 56.66 0.224 7.18 11.11 9.83
11/2/2021 1:30:00 PM 13.73 56.714 0.225 7.18 10.6 9.8
11/2/2021 1:45:00 PM 13.76 56.768 0.224 7.21 12.19 9.86
11/2/2021 2:00:00 PM 13.62 56.516 0.224 7.21 10.81 9.87
11/2/2021 2:15:00 PM 13.56 56.408 0.225 7.21 10.44 9.87
11/2/2021 2:30:00 PM 13.57 56.426 0.224 7.22 10.36 9.86
11/2/2021 2:45:00 PM 13.49 56.282 0.224 7.22 10.01 9.93
11/2/2021 3:00:00 PM 13.62 56.516 0.224 7.22 10.09 9.87
11/2/2021 3:15:00 PM 13.62 56.516 0.224 7.22 10.45 9.84
11/2/2021 3:30:00 PM 13.67 56.606 0.225 7.22 10.45 9.85
11/2/2021 3:45:00 PM 13.65 56.57 0.225 7.22 10.72 9.83
11/2/2021 4:00:00 PM 13.61 56.498 0.224 7.23 9.8 9.78
11/2/2021 4:15:00 PM 13.67 56.606 0.225 7.23 9.74 9.74
11/2/2021 4:30:00 PM 13.6 56.48 0.224 7.23 10.24 9.79
11/2/2021 4:45:00 PM 13.56 56.408 0.225 7.22 10.49 9.83
11/2/2021 5:00:00 PM 13.56 56.408 0.224 7.23 10.79 9.85
11/2/2021 5:15:00 PM 13.57 56.426 0.224 7.22 10.95 9.76
11/2/2021 5:30:00 PM 13.57 56.426 0.225 7.21 10.62 9.78
11/2/2021 5:45:00 PM 13.52 56.336 0.226 7.22 11.14 9.73
11/2/2021 6:00:00 PM 13.44 56.192 0.225 7.22 11.37 9.81
11/2/2021 6:15:00 PM 13.52 56.336 0.225 7.21 10.5 9.71
11/2/2021 6:30:00 PM 13.38 56.084 0.226 7.21 11.27 9.74
11/2/2021 6:45:00 PM 13.51 56.318 0.225 7.2 11.82 9.72
11/2/2021 7:00:00 PM 13.45 56.21 0.225 7.2 11.33 9.63
11/2/2021 7:15:00 PM 13.44 56.192 0.224 7.18 10.57 9.63
11/2/2021 7:30:00 PM 13.46 56.228 0.225 7.17 11.79 9.68
11/2/2021 7:45:00 PM 13.35 56.03 0.225 7.16 12.22 9.61
11/2/2021 8:00:00 PM 13.39 56.102 0.224 7.16 12.42 9.58
11/2/2021 8:15:00 PM 13.26 55.868 0.225 7.15 11.26 9.58
11/2/2021 8:30:00 PM 13.53 56.354 0.224 7.15 12.33 9.57
11/2/2021 8:45:00 PM 13.27 55.886 0.225 7.15 12.55 9.63
11/2/2021 9:00:00 PM 13.23 55.814 0.225 7.16 10.3 9.66
11/2/2021 9:15:00 PM 13.2 55.76 0.225 7.16 11.4 9.59
11/2/2021 9:30:00 PM 13.29 55.922 0.224 7.15 11.39 9.62
11/2/2021 9:45:00 PM 13.15 55.67 0.224 7.14 12.41 9.66
11/2/2021 10:00:00 PM 13.22 55.796 0.224 7.14 11.37 9.64
11/2/2021 10:15:00 PM 13.17 55.706 0.225 7.15 12.53 9.6
11/2/2021 10:30:00 PM 13.04 55.472 0.224 7.14 12.24 9.67
11/2/2021 10:45:00 PM 13.02 55.436 0.225 7.14 12.77 9.61
11/2/2021 11:00:00 PM 13.24 55.832 0.224 7.14 12.25 9.6
11/2/2021 11:15:00 PM 13.15 55.67 0.224 7.14 12.54 9.63
11/2/2021 11:30:00 PM 12.92 55.256 0.225 7.14 12.75 9.65
11/2/2021 11:45:00 PM 13.02 55.436 0.225 7.14 12.26 9.62
11/3/2021 12:00:00 AM 13.04 55.472 0.223 7.14 14.24 9.61
11/3/2021 12:15:00 AM 13.09 55.562 0.224 7.13 13.22 9.54
11/3/2021 12:30:00 AM 12.92 55.256 0.224 7.13 14.05 9.56
11/3/2021 12:45:00 AM 13.11 55.598 0.222 7.13 12.41 9.64
11/3/2021 1:00:00 AM 13.01 55.418 0.223 7.13 12.91 9.54
11/3/2021 1:15:00 AM 12.82 55.076 0.225 7.12 11.31 9.64
11/3/2021 1:30:00 AM 12.96 55.328 0.225 7.12 12.29 9.58
11/3/2021 1:45:00 AM 12.95 55.31 0.225 7.13 12.84 9.63
11/3/2021 2:00:00 AM 12.9 55.22 0.224 7.12 14.34 9.58
11/3/2021 2:15:00 AM 12.79 55.022 0.224 7.12 14.81 9.57
11/3/2021 2:30:00 AM 12.76 54.968 0.225 7.12 12.09 9.6
11/3/2021 2:45:00 AM 12.59 54.662 0.225 7.11 12.91 9.65
11/3/2021 3:00:00 AM 12.79 55.022 0.224 7.13 12.82 9.63
11/3/2021 3:15:00 AM 12.86 55.148 0.224 7.13 16.7 9.57
11/3/2021 3:30:00 AM 12.59 54.662 0.225 7.12 13.48 9.63
11/3/2021 3:45:00 AM 12.74 54.932 0.224 7.12 12.67 9.63
11/3/2021 4:00:00 AM 12.61 54.698 0.224 7.12 13.63 9.63
11/3/2021 4:15:00 AM 12.6 54.68 0.224 7.11 13.1 9.68
11/3/2021 4:30:00 AM 12.87 55.166 0.224 7.11 12.65 9.59
11/3/2021 4:45:00 AM 12.62 54.716 0.224 7.12 13.15 9.61
11/3/2021 5:00:00 AM 12.62 54.716 0.225 7.11 13.47 9.6
11/3/2021 5:15:00 AM 12.57 54.626 0.224 7.12 12.93 9.63
11/3/2021 5:30:00 AM 12.61 54.698 0.224 7.11 14.43 9.68
11/3/2021 5:45:00 AM 12.64 54.752 0.223 7.11 13.97 9.61
11/3/2021 6:00:00 AM 12.49 54.482 0.223 7.1 13.48 9.64
11/3/2021 6:15:00 AM 12.55 54.59 0.223 7.11 13.89 9.64
11/3/2021 6:30:00 AM 12.56 54.608 0.223 7.12 14.19 9.68
11/3/2021 6:45:00 AM 12.47 54.446 0.223 7.11 13.08 9.64
11/3/2021 7:00:00 AM 12.46 54.428 0.223 7.11 13.71 9.66
11/3/2021 7:15:00 AM 12.43 54.374 0.223 7.12 13.13 9.65
11/3/2021 7:30:00 AM 12.45 54.41 0.223 7.1 11.74 9.63
11/3/2021 7:45:00 AM 12.3 54.14 0.223 7.11 12.05 9.72
11/3/2021 8:00:00 AM 12.39 54.302 0.223 7.11 12.25 9.66
11/3/2021 8:15:00 AM 12.38 54.284 0.223 7.11 12.16 9.68
11/3/2021 8:30:00 AM 12.33 54.194 0.223 7.11 12.25 9.73
11/3/2021 8:45:00 AM 12.31 54.158 0.223 7.11 11.23 9.78
11/3/2021 9:00:00 AM 12.41 54.338 0.223 7.11 11.79 9.76
11/3/2021 9:15:00 AM 12.45 54.41 0.222 7.12 12.21 9.74
11/3/2021 9:30:00 AM 12.26 54.068 0.223 7.12 11.62 9.88
11/3/2021 9:45:00 AM 12.4 54.32 0.222 7.12 12.07 9.89
11/3/2021 10:00:00 AM 12.43 54.374 0.223 7.13 11.45 9.94
11/3/2021 10:15:00 AM 12.6 54.68 0.222 7.13 11.18 9.93
11/3/2021 10:30:00 AM 12.57 54.626 0.222 7.13 11.58 9.99
11/3/2021 10:45:00 AM 12.44 54.392 0.224 7.14 10.94 10.04
11/3/2021 11:00:00 AM 12.48 54.464 0.224 7.13 10.75 10.06
11/3/2021 11:15:00 AM 12.65 54.77 0.224 7.13 11.69 10.04
11/3/2021 11:30:00 AM 12.61 54.698 0.224 7.13 11.37 10.07
11/3/2021 11:45:00 AM 12.48 54.464 0.224 7.14 11.52 10.16
11/3/2021 12:00:00 PM 12.71 54.878 0.223 7.15 11.35 10.1
11/3/2021 12:15:00 PM 12.69 54.842 0.222 7.14 10.79 10.17
11/3/2021 12:30:00 PM 12.83 55.094 0.222 7.15 11.25 10.11
11/3/2021 12:45:00 PM 12.88 55.184 0.223 7.15 12.09 10.14
11/3/2021 1:00:00 PM 12.97 55.346 0.223 7.16 11.27 10.18
11/3/2021 1:15:00 PM 12.82 55.076 0.224 7.15 10.85 10.16
11/3/2021 1:30:00 PM 12.85 55.13 0.224 7.16 12.17 10.23
11/3/2021 1:45:00 PM 12.86 55.148 0.224 7.17 12.56 10.18
11/3/2021 2:00:00 PM 12.96 55.328 0.225 7.16 12.65 10.24
11/3/2021 2:15:00 PM 12.92 55.256 0.225 7.16 12.35 10.22
11/3/2021 2:30:00 PM 12.99 55.382 0.225 7.16 11.48 10.13
11/3/2021 2:45:00 PM 12.84 55.112 0.225 7.17 12.78 10.15
11/3/2021 3:00:00 PM 12.93 55.274 0.224 7.16 11.58 10.21
11/3/2021 3:15:00 PM 13.04 55.472 0.224 7.17 11.64 10.15
11/3/2021 3:30:00 PM 12.96 55.328 0.224 7.17 12.13 10.19
11/3/2021 3:45:00 PM 13.06 55.508 0.224 7.2 11.65 10.12
11/3/2021 4:00:00 PM 12.95 55.31 0.224 7.18 13.62 10.1
11/3/2021 4:15:00 PM 12.95 55.31 0.224 7.19 12.74 10.06
11/3/2021 4:30:00 PM 12.71 54.878 0.226 7.18 13.05 10.09
11/3/2021 4:45:00 PM 12.67 54.806 0.224 7.19 13.24 10.07
11/3/2021 5:00:00 PM 12.63 54.734 0.225 7.18 12.79 10.1
11/3/2021 5:15:00 PM 12.62 54.716 0.224 7.17 12.27 10.01
11/3/2021 5:30:00 PM 12.68 54.824 0.224 7.18 12.22 10.03
11/3/2021 5:45:00 PM 12.68 54.824 0.223 7.18 11.48 10.01
11/3/2021 6:00:00 PM 12.52 54.536 0.224 7.18 12.15 10.01
11/3/2021 6:15:00 PM 12.67 54.806 0.224 7.17 12.27 9.93
11/3/2021 6:30:00 PM 12.62 54.716 0.224 7.17 12.02 9.93
11/3/2021 6:45:00 PM 12.57 54.626 0.224 7.18 12.42 9.91
11/3/2021 7:00:00 PM 12.56 54.608 0.225 7.17 14.84 9.88
11/3/2021 7:15:00 PM 12.5 54.5 0.225 7.16 13.94 9.87
11/3/2021 7:30:00 PM 12.64 54.752 0.224 7.17 13.29 9.8
11/3/2021 7:45:00 PM 12.49 54.482 0.225 7.18 12.15 9.92
11/3/2021 8:00:00 PM 12.54 54.572 0.225 7.17 13.01 9.89
11/3/2021 8:15:00 PM 12.4 54.32 0.225 7.18 12.44 9.92
11/3/2021 8:30:00 PM 12.56 54.608 0.224 7.17 11.6 9.86
11/3/2021 8:45:00 PM 12.53 54.554 0.224 7.16 12.3 9.81
11/3/2021 9:00:00 PM 12.47 54.446 0.224 7.17 13.7 9.89
11/3/2021 9:15:00 PM 12.43 54.374 0.224 7.16 12.93 9.9
11/3/2021 9:30:00 PM 12.37 54.266 0.223 7.17 12.24 9.88
11/3/2021 9:45:00 PM 12.44 54.392 0.224 7.15 12.57 9.91
11/3/2021 10:00:00 PM 12.44 54.392 0.223 7.16 36.9 9.85
11/3/2021 10:15:00 PM 12.41 54.338 0.223 7.17 11.35 9.88
11/3/2021 10:30:00 PM 12.44 54.392 0.224 7.16 10.68 9.84
11/3/2021 10:45:00 PM 12.38 54.284 0.224 7.15 11.41 9.84
11/3/2021 11:00:00 PM 12.37 54.266 0.224 7.14 11.57 9.84
11/3/2021 11:15:00 PM 12.33 54.194 0.224 7.15 11.39 9.84
11/3/2021 11:30:00 PM 12.39 54.302 0.224 7.14 12.56 9.82
11/3/2021 11:45:00 PM 12.3 54.14 0.225 7.15 12.13 9.84
11/4/2021 12:00:00 AM 12.26 54.068 0.225 7.13 13.58 9.81
11/4/2021 12:15:00 AM 12.4 54.32 0.224 7.14 13.48 9.8
11/4/2021 12:30:00 AM 12.15 53.87 0.225 7.14 13.79 9.85
11/4/2021 12:45:00 AM 12.14 53.852 0.226 7.13 13.2 9.84
11/4/2021 1:00:00 AM 12.16 53.888 0.225 7.14 13.23 9.83
11/4/2021 1:15:00 AM 12.07 53.726 0.226 7.14 12.34 9.84
11/4/2021 1:30:00 AM 12.16 53.888 0.225 7.15 14.21 9.86
11/4/2021 1:45:00 AM 11.96 53.528 0.225 7.14 12.51 9.88
11/4/2021 2:00:00 AM 12 53.6 0.225 7.14 12.97 9.86
11/4/2021 2:15:00 AM 11.95 53.51 0.226 7.15 13.43 9.91
11/4/2021 2:30:00 AM 11.92 53.456 0.225 7.16 13.6 9.89
11/4/2021 2:45:00 AM 12.03 53.654 0.225 7.16 13.32 9.81
11/4/2021 3:00:00 AM 11.81 53.258 0.225 7.17 12.66 9.87
11/4/2021 3:15:00 AM 11.93 53.474 0.225 7.17 13.44 9.87
11/4/2021 3:30:00 AM 12.02 53.636 0.225 7.16 12.37 9.84
11/4/2021 3:45:00 AM 11.72 53.096 0.226 7.15 12.69 9.91
11/4/2021 4:00:00 AM 11.81 53.258 0.226 7.16 12.75 9.89
11/4/2021 4:15:00 AM 11.87 53.366 0.226 7.15 12.41 9.89
11/4/2021 4:30:00 AM 11.78 53.204 0.225 7.13 11.73 9.88
11/4/2021 4:45:00 AM 11.63 52.934 0.226 7.13 12.46 9.93
11/4/2021 5:00:00 AM 11.83 53.294 0.225 7.13 13.9 9.84
11/4/2021 5:15:00 AM 11.69 53.042 0.226 7.13 11.88 9.91
11/4/2021 5:30:00 AM 11.8 53.24 0.225 7.12 12.14 9.91
11/4/2021 5:45:00 AM 11.63 52.934 0.226 7.12 12.32 9.91
11/4/2021 6:00:00 AM 11.67 53.006 0.225 7.12 11.91 9.91
11/4/2021 6:15:00 AM 11.69 53.042 0.226 7.12 12.01 9.87
11/4/2021 6:30:00 AM 11.62 52.916 0.225 7.12 12.64 9.9
11/4/2021 6:45:00 AM 11.57 52.826 0.227 7.13 12.37 9.91
11/4/2021 7:00:00 AM 11.67 53.006 0.226 7.12 12.49 9.87
11/4/2021 7:15:00 AM 11.75 53.15 0.224 7.12 12.91 10
11/4/2021 7:30:00 AM 11.52 52.736 0.224 7.11 11.86 9.89
11/4/2021 7:45:00 AM 11.53 52.754 0.224 7.11 12.38 9.94
11/4/2021 8:00:00 AM 11.2 52.16 0.225 7.12 11.56 10.03
11/4/2021 8:15:00 AM 11.46 52.628 0.224 7.12 11.22 10
11/4/2021 8:30:00 AM 10.93 51.674 0.225 7.11 11.33 10.23
11/4/2021 8:45:00 AM 10.39 50.702 0.226 7.12 11.78 10.46
11/4/2021 9:00:00 AM 10.24 50.432 0.228 7.14 11 10.58
11/4/2021 9:15:00 AM 10.2 50.36 0.227 7.13 10.92 10.67
11/4/2021 9:30:00 AM 10.23 50.414 0.228 7.14 10.07 10.72
11/4/2021 9:45:00 AM 10.18 50.324 0.227 7.15 10.12 10.73
11/4/2021 10:00:00 AM 10.21 50.378 0.228 7.15 9.9 10.84
11/4/2021 10:15:00 AM 10.24 50.432 0.227 7.14 9.71 10.89
11/4/2021 10:30:00 AM 10.22 50.396 0.228 7.14 9.62 10.96
11/4/2021 10:45:00 AM 10.32 50.576 0.228 7.15 9.54 10.97
11/4/2021 11:00:00 AM 10.34 50.612 0.227 7.15 9.92 10.95
11/4/2021 11:15:00 AM 10.37 50.666 0.228 7.15 9.27 11.06
11/4/2021 11:30:00 AM 10.38 50.684 0.228 7.15 10.09 11.12
11/4/2021 11:45:00 AM 10.5 50.9 0.228 7.16 9.8 11.12
11/4/2021 12:00:00 PM 10.49 50.882 0.228 7.16 10.6 11.19
11/4/2021 12:15:00 PM 10.59 51.062 0.227 7.17 10.35 11.2
11/4/2021 12:30:00 PM 10.62 51.116 0.227 7.17 10.13 11.26
11/4/2021 12:45:00 PM 10.85 51.53 0.225 7.17 11.24 11.25
11/4/2021 1:00:00 PM 10.85 51.53 0.227 7.18 11.53 11.27
11/4/2021 1:15:00 PM 10.98 51.764 0.226 7.18 12.17 11.29
11/4/2021 1:30:00 PM 11.12 52.016 0.227 7.19 9.36 11.28
11/4/2021 1:45:00 PM 11.09 51.962 0.228 7.2 10.19 11.32
11/4/2021 2:00:00 PM 11.14 52.052 0.227 7.2 9.6 11.32
11/4/2021 2:15:00 PM 11.03 51.854 0.227 7.19 9.41 11.37
11/4/2021 2:30:00 PM 11.13 52.034 0.227 7.2 8.93 11.34
11/4/2021 2:45:00 PM 11.23 52.214 0.227 7.2 9.35 11.33
11/4/2021 3:00:00 PM 11.27 52.286 0.226 7.22 9.3 11.35
11/4/2021 3:15:00 PM 11.2 52.16 0.227 7.22 9.49 11.29
11/4/2021 3:30:00 PM 11.19 52.142 0.227 7.22 9.41 11.22
11/4/2021 3:45:00 PM 11.19 52.142 0.227 7.22 11.24 11.17
11/4/2021 4:00:00 PM 11.2 52.16 0.227 7.22 11.92 11.13
11/4/2021 4:15:00 PM 11.09 51.962 0.229 7.22 11.39 11.13
11/4/2021 4:30:00 PM 11.07 51.926 0.229 7.23 11.29 11.09
11/4/2021 4:45:00 PM 11.11 51.998 0.229 7.22 11.39 11.07
11/4/2021 5:00:00 PM 11.03 51.854 0.229 7.22 11.89 11.04
11/4/2021 5:15:00 PM 10.92 51.656 0.229 7.22 10.83 11.02
11/4/2021 5:30:00 PM 10.82 51.476 0.228 7.22 10.4 11.01
11/4/2021 5:45:00 PM 10.96 51.728 0.228 7.21 10.46 10.87
11/4/2021 6:00:00 PM 10.93 51.674 0.228 7.21 10.85 10.79
11/4/2021 6:15:00 PM 10.88 51.584 0.228 7.21 12.09 10.76
11/4/2021 6:30:00 PM 10.82 51.476 0.23 7.2 11.77 10.68
11/4/2021 6:45:00 PM 10.84 51.512 0.229 7.2 11.79 10.64
11/4/2021 7:00:00 PM 10.79 51.422 0.229 7.19 12.18 10.63
11/4/2021 7:15:00 PM 10.7 51.26 0.228 7.18 14.31 10.57
11/4/2021 7:30:00 PM 10.68 51.224 0.229 7.18 13.43 10.59
11/4/2021 7:45:00 PM 10.65 51.17 0.229 7.18 13.53 10.49
11/4/2021 8:00:00 PM 10.62 51.116 0.228 7.17 13.57 10.56
11/4/2021 8:15:00 PM 10.52 50.936 0.229 7.16 13.46 10.53
11/4/2021 8:30:00 PM 10.6 51.08 0.228 7.16 15.82 10.5
11/4/2021 8:45:00 PM 10.63 51.134 0.229 7.15 14.05 10.53
11/4/2021 9:00:00 PM 10.57 51.026 0.229 7.15 12.54 10.49
11/4/2021 9:15:00 PM 10.48 50.864 0.229 7.16 16.08 10.56
11/4/2021 9:30:00 PM 10.49 50.882 0.228 7.15 57.58 10.54
11/4/2021 9:45:00 PM 10.5 50.9 0.227 7.15 21.52 10.54
11/4/2021 10:00:00 PM 10.42 50.756 0.227 7.15 12.96 10.54
11/4/2021 10:15:00 PM 10.46 50.828 0.226 7.15 12.78 10.56
11/4/2021 10:30:00 PM 10.42 50.756 0.225 7.15 12.35 10.55
11/4/2021 10:45:00 PM 10.54 50.972 0.224 7.15 12.98 10.52
11/4/2021 11:00:00 PM 10.42 50.756 0.225 7.14 12.03 10.54
11/4/2021 11:15:00 PM 10.37 50.666 0.227 7.15 13.87 10.57
11/4/2021 11:30:00 PM 10.3 50.54 0.227 7.14 13.79 10.6
11/4/2021 11:45:00 PM 10.35 50.63 0.227 7.15 13.62 10.57
11/5/2021 12:00:00 AM 10.35 50.63 0.228 7.15 13.67 10.6
11/5/2021 12:15:00 AM 10.26 50.468 0.228 7.14 14.56 10.6
11/5/2021 12:30:00 AM 10.28 50.504 0.227 7.15 13.65 10.53
11/5/2021 12:45:00 AM 10.12 50.216 0.228 7.15 14.26 10.61
11/5/2021 1:00:00 AM 10.22 50.396 0.228 7.14 13.87 10.56
11/5/2021 1:15:00 AM 10.15 50.27 0.229 7.15 13.95 10.59
11/5/2021 1:30:00 AM 10.03 50.054 0.228 7.14 13.28 10.61
11/5/2021 1:45:00 AM 9.96 49.928 0.229 7.13 13.12 10.59
11/5/2021 2:00:00 AM 9.99 49.982 0.229 7.14 13.95 10.58
11/5/2021 2:15:00 AM 9.91 49.838 0.23 7.13 13.65 10.63
11/5/2021 2:30:00 AM 9.87 49.766 0.228 7.12 13 10.62
11/5/2021 2:45:00 AM 9.81 49.658 0.229 7.12 13.18 10.62
11/5/2021 3:00:00 AM 9.79 49.622 0.229 7.13 13.31 10.59
11/5/2021 3:15:00 AM 9.84 49.712 0.229 7.13 13.53 10.69
11/5/2021 3:30:00 AM 9.79 49.622 0.229 7.12 13.96 10.66
11/5/2021 3:45:00 AM 9.73 49.514 0.229 7.13 15.13 10.66
11/5/2021 4:00:00 AM 9.66 49.388 0.227 7.12 13.98 10.66
11/5/2021 4:15:00 AM 9.61 49.298 0.228 7.12 13.77 10.67
11/5/2021 4:30:00 AM 9.64 49.352 0.228 7.13 13.23 10.69
11/5/2021 4:45:00 AM 9.64 49.352 0.226 7.13 13.48 10.68
11/5/2021 5:00:00 AM 9.59 49.262 0.228 7.13 13.41 10.7
11/5/2021 5:15:00 AM 9.63 49.334 0.227 7.15 14.24 10.69
11/5/2021 5:30:00 AM 9.54 49.172 0.229 7.15 13.73 10.73
11/5/2021 5:45:00 AM 9.53 49.154 0.228 7.14 13.7 10.69
11/5/2021 6:00:00 AM 9.47 49.046 0.229 7.15 13.01 10.66
11/5/2021 6:15:00 AM 9.56 49.208 0.227 7.14 14.29 10.74
11/5/2021 6:30:00 AM 9.44 48.992 0.228 7.12 13.06 10.75
11/5/2021 6:45:00 AM 9.49 49.082 0.228 7.13 12.51 10.72
11/5/2021 7:00:00 AM 9.45 49.01 0.229 7.12 14.12 10.71
11/5/2021 7:15:00 AM 9.39 48.902 0.229 7.14 12.6 10.79
11/5/2021 7:30:00 AM 9.5 49.1 0.227 7.14 12.81 10.79
11/5/2021 7:45:00 AM 9.34 48.812 0.228 7.13 13.63 10.75
11/5/2021 8:00:00 AM 9.37 48.866 0.228 7.13 13.5 10.75
11/5/2021 8:15:00 AM 9.4 48.92 0.228 7.13 12.29 10.8
11/5/2021 8:30:00 AM 9.35 48.83 0.229 7.13 13.92 10.87
11/5/2021 8:45:00 AM 9.26 48.668 0.229 7.13 12.39 10.95
11/5/2021 9:00:00 AM 9.33 48.794 0.229 7.14 12.32 11.02
11/5/2021 9:15:00 AM 9.32 48.776 0.23 7.13 12.08 11.02
11/5/2021 9:30:00 AM 9.32 48.776 0.23 7.14 12.66 11.06
11/5/2021 9:45:00 AM 9.43 48.974 0.228 7.14 12.34 11.11
11/5/2021 10:00:00 AM 9.42 48.956 0.228 7.14 12.28 11.21
11/5/2021 10:15:00 AM 9.52 49.136 0.228 7.15 12.47 11.16
11/5/2021 10:30:00 AM 9.62 49.316 0.228 7.15 12.59 11.22
11/5/2021 10:45:00 AM 9.72 49.496 0.229 7.15 11.65 11.28
11/5/2021 11:00:00 AM 9.64 49.352 0.228 7.16 12.24 11.24
11/5/2021 11:15:00 AM 9.8 49.64 0.229 7.16 12.33 11.3
11/5/2021 11:30:00 AM 9.81 49.658 0.229 7.15 12.21 11.36
11/5/2021 11:45:00 AM 9.91 49.838 0.229 7.16 12.37 11.37
11/5/2021 12:00:00 PM 9.99 49.982 0.228 7.17 12.19 11.41
11/5/2021 12:15:00 PM 10.13 50.234 0.227 7.17 13.01 11.43
11/5/2021 12:30:00 PM 10.15 50.27 0.227 7.18 12.38 11.43
11/5/2021 12:45:00 PM 10.3 50.54 0.227 7.18 12.31 11.39
11/5/2021 1:00:00 PM 10.2 50.36 0.228 7.18 12.39 11.44
11/5/2021 1:15:00 PM 10.43 50.774 0.228 7.19 13.61 11.44
11/5/2021 1:30:00 PM 10.51 50.918 0.228 7.19 12.9 11.4
11/5/2021 1:45:00 PM 10.46 50.828 0.228 7.19 12.17 11.43
11/5/2021 2:00:00 PM 10.53 50.954 0.229 7.21 12.82 11.53
11/5/2021 2:15:00 PM 10.49 50.882 0.228 7.2 12.4 11.47
11/5/2021 2:30:00 PM 10.57 51.026 0.228 7.21 12.17 11.47
11/5/2021 2:45:00 PM 10.54 50.972 0.229 7.21 12.95 11.51
11/5/2021 3:00:00 PM 10.5 50.9 0.228 7.2 12.7 11.45
11/5/2021 3:15:00 PM 10.58 51.044 0.229 7.2 12.6 11.46
11/5/2021 3:30:00 PM 10.66 51.188 0.229 7.21 12.92 11.34
11/5/2021 3:45:00 PM 10.68 51.224 0.228 7.21 12.56 11.37
11/5/2021 4:00:00 PM 10.6 51.08 0.228 7.21 12.18 11.36
11/5/2021 4:15:00 PM 10.53 50.954 0.23 7.21 12.42 11.35
11/5/2021 4:30:00 PM 10.44 50.792 0.23 7.21 12.26 11.31
11/5/2021 4:45:00 PM 10.43 50.774 0.229 7.21 11.91 11.24
11/5/2021 5:00:00 PM 10.43 50.774 0.228 7.22 12.34 11.23
11/5/2021 5:15:00 PM 10.31 50.558 0.229 7.22 12.69 11.24
11/5/2021 5:30:00 PM 10.34 50.612 0.228 7.21 12.2 11.17
11/5/2021 5:45:00 PM 10.33 50.594 0.228 7.21 11.97 11.09
11/5/2021 6:00:00 PM 10.36 50.648 0.227 7.21 13.07 11.04
11/5/2021 6:15:00 PM 10.27 50.486 0.228 7.21 13.03 10.95
11/5/2021 6:30:00 PM 10.2 50.36 0.229 7.19 15.84 10.9
11/5/2021 6:45:00 PM 10.19 50.342 0.23 7.19 14.79 10.89
11/5/2021 7:00:00 PM 10.14 50.252 0.229 7.18 15.89 10.85
11/5/2021 7:15:00 PM 9.96 49.928 0.23 7.18 15.53 10.84
11/5/2021 7:30:00 PM 10 50 0.228 7.17 15.74 10.75
11/5/2021 7:45:00 PM 10 50 0.228 7.17 16.6 10.8
11/5/2021 8:00:00 PM 9.98 49.964 0.227 7.17 15.03 10.76
11/5/2021 8:15:00 PM 9.89 49.802 0.228 7.15 15.45 10.74
11/5/2021 8:30:00 PM 9.88 49.784 0.229 7.15 15.41 10.78
11/5/2021 8:45:00 PM 9.86 49.748 0.229 7.14 15.07 10.73
11/5/2021 9:00:00 PM 9.89 49.802 0.23 7.14 15.28 10.75
11/5/2021 9:15:00 PM 9.82 49.676 0.23 7.14 14.58 10.77
11/5/2021 9:30:00 PM 9.85 49.73 0.229 7.14 14.92 10.75
11/5/2021 9:45:00 PM 9.78 49.604 0.229 7.14 14.55 10.72
11/5/2021 10:00:00 PM 9.77 49.586 0.228 7.13 15.4 10.8
11/5/2021 10:15:00 PM 9.79 49.622 0.228 7.13 15.01 10.78
11/5/2021 10:30:00 PM 9.72 49.496 0.229 7.13 16.28 10.78
11/5/2021 10:45:00 PM 9.74 49.532 0.228 7.14 14.86 10.8
11/5/2021 11:00:00 PM 9.77 49.586 0.228 7.15 14.03 10.8
11/5/2021 11:15:00 PM 9.82 49.676 0.229 7.14 15.33 10.81
11/5/2021 11:30:00 PM 9.81 49.658 0.229 7.13 15.14 10.8
11/5/2021 11:45:00 PM 9.7 49.46 0.23 7.13 14 10.82
11/6/2021 12:00:00 AM 9.63 49.334 0.229 7.14 14.27 10.85
11/6/2021 12:15:00 AM 9.7 49.46 0.229 7.14 13.65 10.82
11/6/2021 12:30:00 AM 9.59 49.262 0.229 7.13 14.19 10.86
11/6/2021 12:45:00 AM 9.51 49.118 0.229 7.13 13.74 10.82
11/6/2021 1:00:00 AM 9.69 49.442 0.229 7.14 13.29 10.78
11/6/2021 1:15:00 AM 9.57 49.226 0.228 7.13 12.87 10.81
11/6/2021 1:30:00 AM 9.62 49.316 0.228 7.13 12.49 10.82
11/6/2021 1:45:00 AM 9.51 49.118 0.229 7.13 13.88 10.83
11/6/2021 2:00:00 AM 9.52 49.136 0.23 7.14 13.27 10.83
11/6/2021 2:15:00 AM 9.47 49.046 0.23 7.14 12.99 10.82
11/6/2021 2:30:00 AM 9.4 48.92 0.23 7.14 13.26 10.87
11/6/2021 2:45:00 AM 9.45 49.01 0.23 7.14 13.34 10.84
11/6/2021 3:00:00 AM 9.29 48.722 0.23 7.14 13.49 10.89
11/6/2021 3:15:00 AM 9.32 48.776 0.23 7.13 13.97 10.86
11/6/2021 3:30:00 AM 9.34 48.812 0.229 7.14 13.32 10.86
11/6/2021 3:45:00 AM 9.36 48.848 0.228 7.14 15.01 10.88
11/6/2021 4:00:00 AM 9.34 48.812 0.229 7.14 14.57 10.85
11/6/2021 4:15:00 AM 9.29 48.722 0.228 7.14 14 10.9
11/6/2021 4:30:00 AM 9.11 48.398 0.229 7.14 14.83 10.96
11/6/2021 4:45:00 AM 9.18 48.524 0.229 7.14 13.65 10.95
11/6/2021 5:00:00 AM 9.14 48.452 0.229 7.14 13.77 10.89
11/6/2021 5:15:00 AM 9.17 48.506 0.228 7.14 16.2 10.92
11/6/2021 5:30:00 AM 9.06 48.308 0.228 7.15 13.8 10.89
11/6/2021 5:45:00 AM 9.09 48.362 0.228 7.15 14 10.95
11/6/2021 6:00:00 AM 8.96 48.128 0.229 7.17 14.94 10.96
11/6/2021 6:15:00 AM 9.01 48.218 0.229 7.19 14.37 10.96
11/6/2021 6:30:00 AM 8.88 47.984 0.229 7.21 14.22 11
11/6/2021 6:45:00 AM 8.84 47.912 0.229 7.21 13.7 11
11/6/2021 7:00:00 AM 8.78 47.804 0.23 7.21 13.86 11.03
11/6/2021 7:15:00 AM 8.92 48.056 0.228 7.2 14.75 11.03
11/6/2021 7:30:00 AM 8.87 47.966 0.229 7.2 13.95 11
11/6/2021 7:45:00 AM 8.85 47.93 0.228 7.18 13.82 11.05
11/6/2021 8:00:00 AM 8.77 47.786 0.228 7.16 14.19 11.1
11/6/2021 8:15:00 AM 8.75 47.75 0.228 7.16 13.92 11.04
11/6/2021 8:30:00 AM 8.72 47.696 0.228 7.16 14.73 11.14
11/6/2021 8:45:00 AM 8.65 47.57 0.23 7.15 13.78 11.23
11/6/2021 9:00:00 AM 8.76 47.768 0.23 7.15 13.72 11.26
11/6/2021 9:15:00 AM 8.77 47.786 0.23 7.14 13.54 11.32
11/6/2021 9:30:00 AM 8.77 47.786 0.229 7.15 13.66 11.38
11/6/2021 9:45:00 AM 8.73 47.714 0.228 7.15 14.59 11.43
11/6/2021 10:00:00 AM 8.91 48.038 0.228 7.16 13.73 11.4
11/6/2021 10:15:00 AM 8.93 48.074 0.227 7.16 13.24 11.5
11/6/2021 10:30:00 AM 8.98 48.164 0.227 7.16 13.92 11.55
11/6/2021 10:45:00 AM 9.1 48.38 0.227 7.17 13.95 11.57
11/6/2021 11:00:00 AM 9.18 48.524 0.227 7.17 13.43 11.56
11/6/2021 11:15:00 AM 9.23 48.614 0.228 7.17 13.43 11.64
11/6/2021 11:30:00 AM 9.3 48.74 0.229 7.17 13.55 11.69
11/6/2021 11:45:00 AM 9.42 48.956 0.227 7.17 13.93 11.65
11/6/2021 12:00:00 PM 9.5 49.1 0.227 7.17 13.43 11.75
11/6/2021 12:15:00 PM 9.5 49.1 0.226 7.17 13.85 11.75
11/6/2021 12:30:00 PM 9.71 49.478 0.226 7.17 14.14 11.75
11/6/2021 12:45:00 PM 9.8 49.64 0.226 7.19 14.5 11.72
11/6/2021 1:00:00 PM 9.84 49.712 0.226 7.2 14.3 11.71
11/6/2021 1:15:00 PM 9.89 49.802 0.226 7.19 14.02 11.68
11/6/2021 1:30:00 PM 9.84 49.712 0.226 7.2 14.8 11.71
11/6/2021 1:45:00 PM 9.81 49.658 0.228 7.2 14.54 11.73
11/6/2021 2:00:00 PM 9.99 49.982 0.227 7.21 14.44 11.73
11/6/2021 2:15:00 PM 9.96 49.928 0.227 7.21 14.47 11.75
11/6/2021 2:30:00 PM 10.05 50.09 0.227 7.21 14.28 11.73
11/6/2021 2:45:00 PM 10.04 50.072 0.227 7.22 15.03 11.7
11/6/2021 3:00:00 PM 10.18 50.324 0.226 7.22 14.71 11.66
11/6/2021 3:15:00 PM 10.23 50.414 0.225 7.23 15.18 11.68
11/6/2021 3:30:00 PM 10.11 50.198 0.227 7.24 14.62 11.67
11/6/2021 3:45:00 PM 10.22 50.396 0.227 7.24 16.06 11.56
11/6/2021 4:00:00 PM 10.14 50.252 0.227 7.25 15.01 11.56
11/6/2021 4:15:00 PM 10.2 50.36 0.228 7.25 15.92 11.52
11/6/2021 4:30:00 PM 10.12 50.216 0.228 7.24 14.68 11.46
11/6/2021 4:45:00 PM 10.11 50.198 0.228 7.24 15.32 11.44
11/6/2021 5:00:00 PM 10.01 50.018 0.228 7.24 15.16 11.43
11/6/2021 5:15:00 PM 10.02 50.036 0.227 7.24 14.42 11.36
11/6/2021 5:30:00 PM 9.96 49.928 0.228 7.23 15.04 11.26
11/6/2021 5:45:00 PM 9.96 49.928 0.228 7.23 15.11 11.26
11/6/2021 6:00:00 PM 10.02 50.036 0.228 7.21 14.88 11.2
11/6/2021 6:15:00 PM 9.94 49.892 0.228 7.2 14.3 11.13
11/6/2021 6:30:00 PM 9.84 49.712 0.229 7.2 15.17 11.14
11/6/2021 6:45:00 PM 9.83 49.694 0.229 7.2 14.26 11.08
11/6/2021 7:00:00 PM 9.77 49.586 0.229 7.2 14.81 11.09
11/6/2021 7:15:00 PM 9.77 49.586 0.229 7.19 15.96 11.07
11/6/2021 7:30:00 PM 9.69 49.442 0.229 7.18 15.02 11
11/6/2021 7:45:00 PM 9.69 49.442 0.229 7.18 15.95 11
11/6/2021 8:00:00 PM 9.64 49.352 0.228 7.18 14.35 10.99
11/6/2021 8:15:00 PM 9.67 49.406 0.228 7.18 15.29 10.9
11/6/2021 8:30:00 PM 9.69 49.442 0.228 7.18 16.14 10.89
11/6/2021 8:45:00 PM 9.63 49.334 0.227 7.17 15.1 10.94
11/6/2021 9:00:00 PM 9.61 49.298 0.228 7.17 15.38 10.86
11/6/2021 9:15:00 PM 9.55 49.19 0.229 7.18 16 10.94
11/6/2021 9:30:00 PM 9.56 49.208 0.228 7.17 14.79 10.89
11/6/2021 9:45:00 PM 9.51 49.118 0.229 7.17 15.94 10.9
11/6/2021 10:00:00 PM 9.51 49.118 0.228 7.16 15.52 10.93
11/6/2021 10:15:00 PM 9.57 49.226 0.227 7.16 15.44 10.88
11/6/2021 10:30:00 PM 9.6 49.28 0.226 7.15 15.56 10.89
11/6/2021 10:45:00 PM 9.52 49.136 0.228 7.16 16.75 10.88
11/6/2021 11:00:00 PM 9.51 49.118 0.227 7.16 14.49 10.85
11/6/2021 11:15:00 PM 9.48 49.064 0.228 7.15 14.86 10.83
11/6/2021 11:30:00 PM 9.5 49.1 0.228 7.14 15.63 10.83
11/6/2021 11:45:00 PM 9.5 49.1 0.229 7.15 16.05 10.84
11/7/2021 12:00:00 AM 9.5 49.1 0.228 7.14 15.48 10.84
11/7/2021 12:15:00 AM 9.52 49.136 0.228 7.15 15.89 10.79
11/7/2021 12:30:00 AM 9.44 48.992 0.229 7.14 16.86 10.81
11/7/2021 12:45:00 AM 9.47 49.046 0.228 7.14 16.63 10.83
11/7/2021 1:00:00 AM 9.44 48.992 0.228 7.15 17.36 10.87
11/7/2021 1:15:00 AM 9.36 48.848 0.228 7.15 17.45 10.86
11/7/2021 1:30:00 AM 9.37 48.866 0.228 7.15 18.48 10.89
11/7/2021 1:45:00 AM 9.34 48.812 0.229 7.15 17.55 10.88
11/7/2021 2:00:00 AM 9.29 48.722 0.229 7.15 17.65 10.89
11/7/2021 2:15:00 AM 9.22 48.596 0.228 7.15 17.59 10.93
11/7/2021 2:30:00 AM 9.26 48.668 0.229 7.15 17.79 10.93
11/7/2021 2:45:00 AM 9.24 48.632 0.229 7.15 21.1 10.92
11/7/2021 3:00:00 AM 9.23 48.614 0.229 7.15 17.93 10.92
11/7/2021 3:15:00 AM 9.27 48.686 0.228 7.15 18.36 10.86
11/7/2021 3:30:00 AM 9.28 48.704 0.227 7.15 18.85 10.91
11/7/2021 3:45:00 AM 9.2 48.56 0.228 7.14 17.2 10.93
11/7/2021 4:00:00 AM 8.94 48.092 0.229 7.15 17.77 11
11/7/2021 4:15:00 AM 9.05 48.29 0.228 7.15 19.28 10.93
11/7/2021 4:30:00 AM 8.92 48.056 0.228 7.15 18.14 10.96
11/7/2021 4:45:00 AM 8.96 48.128 0.228 7.14 18.58 10.96
11/7/2021 5:00:00 AM 8.93 48.074 0.228 7.15 18.42 10.96
11/7/2021 5:15:00 AM 9.02 48.236 0.227 7.13 19.22 10.95
11/7/2021 5:30:00 AM 8.88 47.984 0.228 7.14 18.71 10.95
11/7/2021 5:45:00 AM 8.86 47.948 0.228 7.13 18.52 10.96
11/7/2021 6:00:00 AM 8.83 47.894 0.228 7.13 18.66 10.99
11/7/2021 6:15:00 AM 8.75 47.75 0.228 7.12 18.2 10.99
11/7/2021 6:30:00 AM 8.69 47.642 0.229 7.13 18.45 11
11/7/2021 6:45:00 AM 8.78 47.804 0.227 7.12 17.01 11.03
11/7/2021 7:00:00 AM 8.7 47.66 0.228 7.13 18.88 11.04
11/7/2021 7:15:00 AM 8.72 47.696 0.227 7.13 18.57 11.06
11/7/2021 7:30:00 AM 8.74 47.732 0.227 7.13 17.47 11.06
11/7/2021 7:45:00 AM 8.74 47.732 0.227 7.12 17.9 11.12
11/7/2021 8:00:00 AM 8.69 47.642 0.227 7.13 18.04 11.13
11/7/2021 8:15:00 AM 8.67 47.606 0.227 7.12 17.09 11.22
11/7/2021 8:30:00 AM 8.63 47.534 0.227 7.13 17.72 11.25
11/7/2021 8:45:00 AM 8.75 47.75 0.227 7.14 18.29 11.34
11/7/2021 9:00:00 AM 8.7 47.66 0.227 7.14 17.89 11.43
11/7/2021 9:15:00 AM 8.69 47.642 0.227 7.14 17.69 11.49
11/7/2021 9:30:00 AM 8.77 47.786 0.226 7.14 18.24 11.56
11/7/2021 9:45:00 AM 8.87 47.966 0.227 7.14 17.78 11.59
11/7/2021 10:00:00 AM 8.98 48.164 0.227 7.16 18.36 11.6
11/7/2021 10:15:00 AM 9.17 48.506 0.227 7.16 17.23 11.64
11/7/2021 10:30:00 AM 9.02 48.236 0.228 7.17 16.7 11.73
11/7/2021 10:45:00 AM 9.14 48.452 0.227 7.18 18.55 11.73
11/7/2021 11:00:00 AM 9.19 48.542 0.227 7.18 18.49 11.75
11/7/2021 11:15:00 AM 9.41 48.938 0.227 7.18 17.77 11.75
11/7/2021 11:30:00 AM 9.53 49.154 0.226 7.19 17.72 11.72
11/7/2021 11:45:00 AM 9.61 49.298 0.226 7.18 23.29 11.81
11/7/2021 12:00:00 PM 9.64 49.352 0.227 7.19 20.31 11.77
11/7/2021 12:15:00 PM 9.67 49.406 0.226 7.19 20.06 11.77
11/7/2021 12:30:00 PM 9.82 49.676 0.226 7.2 18.41 11.77
11/7/2021 12:45:00 PM 9.79 49.622 0.227 7.19 18.77 11.78
11/7/2021 1:00:00 PM 9.88 49.784 0.227 7.2 17.62 11.75
11/7/2021 1:15:00 PM 9.92 49.856 0.226 7.2 19.11 11.8
11/7/2021 1:30:00 PM 9.86 49.748 0.227 7.21 18.84 11.78
11/7/2021 1:45:00 PM 9.94 49.892 0.227 7.21 16.94 11.75
11/7/2021 2:00:00 PM 10.03 50.054 0.226 7.22 20.14 11.71
11/7/2021 2:15:00 PM 10.08 50.144 0.226 7.22 18.8 11.7
11/7/2021 2:30:00 PM 10.08 50.144 0.226 7.22 19.07 11.69
11/7/2021 2:45:00 PM 9.99 49.982 0.226 7.22 17.86 11.66
11/7/2021 3:00:00 PM 10.07 50.126 0.227 7.22 18.91 11.64
11/7/2021 3:15:00 PM 10.01 50.018 0.227 7.23 18.77 11.65
11/7/2021 3:30:00 PM 10.01 50.018 0.228 7.22 17.95 11.61
11/7/2021 3:45:00 PM 10.02 50.036 0.228 7.24 19.46 11.57
11/7/2021 4:00:00 PM 9.93 49.874 0.228 7.22 18.29 11.41
11/7/2021 4:15:00 PM 9.97 49.946 0.228 7.22 20.59 11.51
11/7/2021 4:30:00 PM 9.83 49.694 0.229 7.23 19.25 11.38
11/7/2021 4:45:00 PM 9.86 49.748 0.228 7.24 20.15 11.3
11/7/2021 5:00:00 PM 9.91 49.838 0.227 7.25 17.84 11.27
11/7/2021 5:15:00 PM 9.85 49.73 0.228 7.23 20.33 11.19
11/7/2021 5:30:00 PM 9.78 49.604 0.228 7.22 18.45 11.18
11/7/2021 5:45:00 PM 9.71 49.478 0.228 7.22 17.99 11.11
11/7/2021 6:00:00 PM 9.71 49.478 0.228 7.22 20.53 11.1
11/7/2021 6:15:00 PM 9.73 49.514 0.228 7.21 18.72 11.04
11/7/2021 6:30:00 PM 9.67 49.406 0.229 7.21 17.42 11.01
11/7/2021 6:45:00 PM 9.54 49.172 0.229 7.2 17.98 11.06
11/7/2021 7:00:00 PM 9.49 49.082 0.229 7.2 17.93 11.07
11/7/2021 7:15:00 PM 9.58 49.244 0.228 7.2 19.1 11.02
11/7/2021 7:30:00 PM 9.57 49.226 0.228 7.21 19.31 10.9
11/7/2021 7:45:00 PM 9.54 49.172 0.229 7.2 18.36 10.94
11/7/2021 8:00:00 PM 9.51 49.118 0.229 7.19 18.67 10.96
11/7/2021 8:15:00 PM 9.39 48.902 0.229 7.2 18.69 10.99
11/7/2021 8:30:00 PM 9.47 49.046 0.229 7.19 18.37 10.95
11/7/2021 8:45:00 PM 9.49 49.082 0.229 7.19 17.7 10.96
11/7/2021 9:00:00 PM 9.46 49.028 0.229 7.18 18.6 10.92
11/7/2021 9:15:00 PM 9.37 48.866 0.229 7.18 17.19 10.94
11/7/2021 9:30:00 PM 9.43 48.974 0.228 7.17 20.22 10.94
11/7/2021 9:45:00 PM 9.42 48.956 0.229 7.18 18.42 10.93
11/7/2021 10:00:00 PM 9.43 48.974 0.228 7.19 19.46 10.91
11/7/2021 10:15:00 PM 9.4 48.92 0.228 7.19 18.79 10.91
11/7/2021 10:30:00 PM 9.32 48.776 0.228 7.19 18.42 10.91
11/7/2021 10:45:00 PM 9.36 48.848 0.23 7.19 19.59 10.97
11/7/2021 11:00:00 PM 9.35 48.83 0.229 7.2 18.32 10.92
11/7/2021 11:15:00 PM 9.32 48.776 0.229 7.2 19.22 10.87
11/7/2021 11:30:00 PM 9.27 48.686 0.229 7.19 18.82 10.89
11/7/2021 11:45:00 PM 9.35 48.83 0.228 7.2 19.11 10.9
11/8/2021 12:00:00 AM 9.31 48.758 0.228 7.2 17.95 10.91
11/8/2021 12:15:00 AM 9.26 48.668 0.227 7.19 19.32 10.89
11/8/2021 12:30:00 AM 9.29 48.722 0.227 7.2 18.96 10.92
11/8/2021 12:45:00 AM 9.18 48.524 0.229 7.19 17.17 10.93
11/8/2021 1:00:00 AM 9.29 48.722 0.229 7.2 18.34 10.88
11/8/2021 1:15:00 AM 9.15 48.47 0.23 7.19 18.48 10.97
11/8/2021 1:30:00 AM 9.18 48.524 0.229 7.18 19.25 10.94
11/8/2021 1:45:00 AM 9.16 48.488 0.229 7.19 18.56 10.9
11/8/2021 2:00:00 AM 9.12 48.416 0.229 7.19 18.81 10.99
11/8/2021 2:15:00 AM 9.12 48.416 0.228 7.18 19.07 10.96
11/8/2021 2:30:00 AM 9.07 48.326 0.228 7.18 18.86 10.99
11/8/2021 2:45:00 AM 9.15 48.47 0.228 7.2 19.18 10.92
11/8/2021 3:00:00 AM 9.04 48.272 0.228 7.22 20.04 10.95
11/8/2021 3:15:00 AM 9.02 48.236 0.228 7.21 20.32 10.97
11/8/2021 3:30:00 AM 8.93 48.074 0.229 7.21 18.34 10.95
11/8/2021 3:45:00 AM 8.94 48.092 0.228 7.22 18.41 10.99
11/8/2021 4:00:00 AM 8.94 48.092 0.228 7.2 18.75 10.97
11/8/2021 4:15:00 AM 8.89 48.002 0.229 7.19 19.75 10.96
11/8/2021 4:30:00 AM 8.84 47.912 0.228 7.2 19.81 11.02
11/8/2021 4:45:00 AM 8.82 47.876 0.229 7.19 18.04 10.97
11/8/2021 5:00:00 AM 8.79 47.822 0.229 7.2 20.57 11.03
11/8/2021 5:15:00 AM 8.88 47.984 0.228 7.19 18.27 10.95
11/8/2021 5:30:00 AM 8.9 48.02 0.228 7.2 18.55 10.99
11/8/2021 5:45:00 AM 8.8 47.84 0.229 7.19 18.2 11.03
11/8/2021 6:00:00 AM 8.76 47.768 0.229 7.2 20.1 11.01
11/8/2021 6:15:00 AM 8.79 47.822 0.229 7.19 19.19 10.96
11/8/2021 6:30:00 AM 8.78 47.804 0.228 7.18 19.4 11.05
11/8/2021 6:45:00 AM 8.7 47.66 0.228 7.18 20.74 11.02
11/8/2021 7:00:00 AM 8.67 47.606 0.228 7.18 19.05 11.08
11/8/2021 7:15:00 AM 8.66 47.588 0.228 7.18 19.71 11.07
11/8/2021 7:30:00 AM 8.68 47.624 0.228 7.18 19.51 11.16
11/8/2021 7:45:00 AM 8.65 47.57 0.228 7.16 18.5 11.24
11/8/2021 8:00:00 AM 8.65 47.57 0.229 7.16 19.17 11.28
11/8/2021 8:15:00 AM 8.73 47.714 0.228 7.17 18.48 11.3
11/8/2021 8:30:00 AM 8.74 47.732 0.228 7.18 18.51 11.38
11/8/2021 8:45:00 AM 8.84 47.912 0.227 7.19 20.84 11.42
11/8/2021 9:00:00 AM 8.89 48.002 0.227 7.18 19.29 11.49
11/8/2021 9:15:00 AM 8.94 48.092 0.227 7.18 18.04 11.54
11/8/2021 9:30:00 AM 9.14 48.452 0.227 7.18 18.61 11.56
11/8/2021 9:45:00 AM 9.11 48.398 0.227 7.18 17.92 11.65
11/8/2021 10:00:00 AM 9.26 48.668 0.227 7.19 18.19 11.64
11/8/2021 10:15:00 AM 9.36 48.848 0.227 7.19 19.38 11.71
11/8/2021 10:30:00 AM 9.3 48.74 0.228 7.18 18.51 11.77
11/8/2021 10:45:00 AM 9.48 49.064 0.227 7.18 20.13 11.72
11/8/2021 11:00:00 AM 9.67 49.406 0.226 7.19 20.15 11.82
11/8/2021 11:15:00 AM 9.63 49.334 0.227 7.19 18.23 11.81
11/8/2021 11:30:00 AM 9.78 49.604 0.227 7.2 19.95 11.83
11/8/2021 11:45:00 AM 9.95 49.91 0.226 7.2 19.07 11.73
11/8/2021 12:00:00 PM 10.02 50.036 0.225 7.21 18.93 11.79
11/8/2021 12:15:00 PM 10.13 50.234 0.226 7.22 19.08 11.82
11/8/2021 12:30:00 PM 10.23 50.414 0.226 7.22 19.5 11.8
11/8/2021 12:45:00 PM 10.26 50.468 0.226 7.23 19.77 11.79
11/8/2021 1:00:00 PM 10.32 50.576 0.227 7.21 19.48 11.78
11/8/2021 1:15:00 PM 10.35 50.63 0.227 7.22 20.22 11.81
11/8/2021 1:30:00 PM 10.36 50.648 0.227 7.22 18.29 11.81
11/8/2021 1:45:00 PM 10.41 50.738 0.227 7.22 19.46 11.77
11/8/2021 2:00:00 PM 10.44 50.792 0.227 7.23 19.89 11.76
11/8/2021 2:15:00 PM 10.51 50.918 0.227 7.23 19.08 11.66
11/8/2021 2:30:00 PM 10.47 50.846 0.227 7.24 19.6 11.67
11/8/2021 2:45:00 PM 10.52 50.936 0.227 7.23 22.58 11.65
11/8/2021 3:00:00 PM 10.44 50.792 0.226 7.23 19.19 11.62
11/8/2021 3:15:00 PM 10.41 50.738 0.228 7.23 19.25 11.67
11/8/2021 3:30:00 PM 10.38 50.684 0.228 7.23 19.52 11.6
11/8/2021 3:45:00 PM 10.29 50.522 0.228 7.23 20.09 11.55
11/8/2021 4:00:00 PM 10.32 50.576 0.228 7.23 18.43 11.52
11/8/2021 4:15:00 PM 10.25 50.45 0.229 7.23 20.34 11.47
11/8/2021 4:30:00 PM 10.24 50.432 0.229 7.22 20.85 11.41
11/8/2021 4:45:00 PM 10.22 50.396 0.228 7.23 20.21 11.36
11/8/2021 5:00:00 PM 10.14 50.252 0.229 7.22 20.41 11.22
11/8/2021 5:15:00 PM 10.15 50.27 0.228 7.21 19.92 11.27
11/8/2021 5:30:00 PM 10.1 50.18 0.228 7.21 19.77 11.2
11/8/2021 5:45:00 PM 10.06 50.108 0.229 7.21 21.15 11.18
11/8/2021 6:00:00 PM 10.03 50.054 0.229 7.21 17.82 11.11
11/8/2021 6:15:00 PM 9.96 49.928 0.229 7.2 21.35 11.11
11/8/2021 6:30:00 PM 9.98 49.964 0.229 7.2 19.74 11.06
11/8/2021 6:45:00 PM 9.88 49.784 0.229 7.2 20 11.08
11/8/2021 7:00:00 PM 9.86 49.748 0.228 7.19 20.38 11.08
11/8/2021 7:15:00 PM 9.89 49.802 0.228 7.17 19.71 11.03
11/8/2021 7:30:00 PM 9.89 49.802 0.228 7.17 20.83 10.98
11/8/2021 7:45:00 PM 9.83 49.694 0.228 7.17 19.82 10.96
11/8/2021 8:00:00 PM 9.89 49.802 0.228 7.17 20.66 10.96
11/8/2021 8:15:00 PM 9.84 49.712 0.228 7.17 19.74 10.99
11/8/2021 8:30:00 PM 9.8 49.64 0.229 7.17 19.54 11.04
11/8/2021 8:45:00 PM 9.83 49.694 0.229 7.19 20.72 11.03
11/8/2021 9:00:00 PM 9.82 49.676 0.228 7.19 19.93 10.99
11/8/2021 9:15:00 PM 9.84 49.712 0.228 7.2 19.97 10.99
11/8/2021 9:30:00 PM 9.82 49.676 0.228 7.2 20.69 10.94
11/8/2021 9:45:00 PM 9.84 49.712 0.228 7.2 19.98 10.92
11/8/2021 10:00:00 PM 9.86 49.748 0.228 7.19 21.29 10.86
11/8/2021 10:15:00 PM 9.85 49.73 0.228 7.18 21.54 10.89
11/8/2021 10:30:00 PM 9.86 49.748 0.229 7.18 19.38 10.87
11/8/2021 10:45:00 PM 9.84 49.712 0.23 7.19 21.5 10.87
11/8/2021 11:00:00 PM 9.84 49.712 0.23 7.19 20.69 10.88
11/8/2021 11:15:00 PM 9.86 49.748 0.229 7.17 20.17 10.88
11/8/2021 11:30:00 PM 9.84 49.712 0.229 7.18 20.86 10.84
11/8/2021 11:45:00 PM 9.84 49.712 0.229 7.18 21.28 10.86
11/9/2021 12:00:00 AM 9.78 49.604 0.229 7.17 19.61 10.82
11/9/2021 12:15:00 AM 9.84 49.712 0.229 7.17 20.26 10.76
11/9/2021 12:30:00 AM 9.8 49.64 0.229 7.17 21.45 10.82
11/9/2021 12:45:00 AM 9.78 49.604 0.23 7.17 21.76 10.78
11/9/2021 1:00:00 AM 9.75 49.55 0.23 7.17 21.08 10.74
11/9/2021 1:15:00 AM 9.74 49.532 0.231 7.17 19.83 10.78
11/9/2021 1:30:00 AM 9.71 49.478 0.231 7.17 22.63 10.79
11/9/2021 1:45:00 AM 9.64 49.352 0.231 7.16 21.25 10.79
11/9/2021 2:00:00 AM 9.63 49.334 0.231 7.16 21.04 10.79
11/9/2021 2:15:00 AM 9.57 49.226 0.23 7.15 21.72 10.78
11/9/2021 2:30:00 AM 9.61 49.298 0.23 7.16 21.92 10.79
11/9/2021 2:45:00 AM 9.59 49.262 0.23 7.16 20.54 10.77
11/9/2021 3:00:00 AM 9.54 49.172 0.23 7.17 21.34 10.77
11/9/2021 3:15:00 AM 9.51 49.118 0.231 7.17 22.66 10.82
11/9/2021 3:30:00 AM 9.47 49.046 0.231 7.18 23.15 10.8
11/9/2021 3:45:00 AM 9.44 48.992 0.231 7.16 22.76 10.8
11/9/2021 4:00:00 AM 9.4 48.92 0.231 7.17 22.3 10.75
11/9/2021 4:15:00 AM 9.34 48.812 0.231 7.17 22.65 10.84
11/9/2021 4:30:00 AM 9.31 48.758 0.231 7.16 24.64 10.82
11/9/2021 4:45:00 AM 9.32 48.776 0.23 7.17 24.18 10.8
11/9/2021 5:00:00 AM 9.23 48.614 0.231 7.16 25.12 10.88
11/9/2021 5:15:00 AM 9.32 48.776 0.23 7.16 24.69 10.84
11/9/2021 5:30:00 AM 9.26 48.668 0.23 7.16 23.44 10.83
11/9/2021 5:45:00 AM 9.22 48.596 0.231 7.16 24.36 10.87
11/9/2021 6:00:00 AM 9.21 48.578 0.231 7.16 23.76 10.89
11/9/2021 6:15:00 AM 9.21 48.578 0.232 7.16 24.07 10.84
11/9/2021 6:30:00 AM 9.1 48.38 0.232 7.14 23.6 10.9
11/9/2021 6:45:00 AM 9.15 48.47 0.232 7.14 24.8 10.9
11/9/2021 7:00:00 AM 9.12 48.416 0.232 7.14 23.49 10.9
11/9/2021 7:15:00 AM 9.14 48.452 0.231 7.15 22.73 10.92
11/9/2021 7:30:00 AM 9.14 48.452 0.23 7.15 25 11
11/9/2021 7:45:00 AM 9.14 48.452 0.231 7.13 22.69 11.03
11/9/2021 8:00:00 AM 9.15 48.47 0.232 7.12 23.02 11.08
11/9/2021 8:15:00 AM 9.14 48.452 0.232 7.13 23.18 11.2
11/9/2021 8:30:00 AM 9.2 48.56 0.232 7.14 22.87 11.25
11/9/2021 8:45:00 AM 9.2 48.56 0.231 7.15 19.78 11.32
11/9/2021 9:00:00 AM 9.31 48.758 0.231 7.15 21.63 11.47
11/9/2021 9:15:00 AM 9.43 48.974 0.231 7.15 22.76 11.54
11/9/2021 9:30:00 AM 9.47 49.046 0.231 7.16 23.17 11.55
11/9/2021 9:45:00 AM 9.56 49.208 0.23 7.15 22.84 11.59
11/9/2021 10:00:00 AM 9.74 49.532 0.23 7.15 26.61 11.62
11/9/2021 10:15:00 AM 9.83 49.694 0.23 7.17 23.32 11.65
11/9/2021 10:30:00 AM 9.86 49.748 0.23 7.18 22.69 11.74
11/9/2021 10:45:00 AM 9.95 49.91 0.231 7.19 23.13 11.79
11/9/2021 11:00:00 AM 10.04 50.072 0.23 7.2 22.64 11.79
11/9/2021 11:15:00 AM 10.21 50.378 0.23 7.2 22.93 11.8
11/9/2021 11:30:00 AM 10.3 50.54 0.23 7.21 22.99 11.81
11/9/2021 11:45:00 AM 10.4 50.72 0.23 7.21 24.01 11.86
11/9/2021 12:00:00 PM 10.56 51.008 0.229 7.2 23.59 11.82
11/9/2021 12:15:00 PM 10.64 51.152 0.229 7.21 22.43 11.86
11/9/2021 12:30:00 PM 10.72 51.296 0.229 7.21 22.66 11.84
11/9/2021 12:45:00 PM 10.76 51.368 0.23 7.21 21.28 11.8
11/9/2021 1:00:00 PM 10.84 51.512 0.23 7.21 21.9 11.85
11/9/2021 1:15:00 PM 10.89 51.602 0.23 7.22 24.88 11.83
11/9/2021 1:30:00 PM 10.89 51.602 0.231 7.23 32.55 11.82
11/9/2021 1:45:00 PM 10.98 51.764 0.231 7.24 33.76 11.83
11/9/2021 2:00:00 PM 11.03 51.854 0.229 7.25 32.53 11.8
11/9/2021 2:15:00 PM 11.03 51.854 0.229 7.24 33.57 11.77
11/9/2021 2:30:00 PM 11.08 51.944 0.229 7.25 30.21 11.75
11/9/2021 2:45:00 PM 11.09 51.962 0.229 7.25 28.58 11.67
11/9/2021 3:00:00 PM 11.08 51.944 0.229 7.25 30.55 11.57
11/9/2021 3:15:00 PM 10.99 51.782 0.23 7.24 31.24 11.65
11/9/2021 3:30:00 PM 10.86 51.548 0.231 7.25 29.78 11.73
11/9/2021 3:45:00 PM 10.85 51.53 0.232 7.26 22.78 11.61
11/9/2021 4:00:00 PM 10.78 51.404 0.233 7.26 27.08 11.61
11/9/2021 4:15:00 PM 10.75 51.35 0.234 7.25 30.08 11.48
11/9/2021 4:30:00 PM 10.71 51.278 0.234 7.27 32.14 11.32
11/9/2021 4:45:00 PM 10.67 51.206 0.233 7.27 35.32 11.39
11/9/2021 5:00:00 PM 10.62 51.116 0.234 7.25 29.38 11.29
11/9/2021 5:15:00 PM 10.58 51.044 0.233 7.24 36.58 11.17
11/9/2021 5:30:00 PM 10.53 50.954 0.234 7.23 27.55 11.12
11/9/2021 5:45:00 PM 10.49 50.882 0.234 7.23 30.99 11.14
11/9/2021 6:00:00 PM 10.45 50.81 0.235 7.23 36.21 11.02
11/9/2021 6:15:00 PM 10.41 50.738 0.234 7.23 34.63 10.99
11/9/2021 6:30:00 PM 10.37 50.666 0.235 7.22 29.4 10.94
11/9/2021 6:45:00 PM 10.32 50.576 0.235 7.22 33.3 10.94
11/9/2021 7:00:00 PM 10.29 50.522 0.235 7.2 37.09 10.93
11/9/2021 7:15:00 PM 10.25 50.45 0.234 7.19 27.44 10.86
11/9/2021 7:30:00 PM 10.23 50.414 0.233 7.19 27.94 10.87
11/9/2021 7:45:00 PM 10.25 50.45 0.233 7.18 34.26 10.81
11/9/2021 8:00:00 PM 10.26 50.468 0.233 7.18 37.13 10.78
11/9/2021 8:15:00 PM 10.23 50.414 0.232 7.18 34.89 10.82
11/9/2021 8:30:00 PM 10.18 50.324 0.233 7.17 34.33 10.74
11/9/2021 8:45:00 PM 10.19 50.342 0.233 7.18 33.07 10.82
11/9/2021 9:00:00 PM 10.19 50.342 0.232 7.17 34.65 10.78
11/9/2021 9:15:00 PM 10.19 50.342 0.234 7.16 35.39 10.77
11/9/2021 9:30:00 PM 10.21 50.378 0.233 7.17 34.41 10.8
11/9/2021 9:45:00 PM 10.23 50.414 0.233 7.17 35.85 10.79
11/9/2021 10:00:00 PM 10.22 50.396 0.234 7.17 34.03 10.82
11/9/2021 10:15:00 PM 10.27 50.486 0.232 7.16 34.31 10.78
11/9/2021 10:30:00 PM 10.29 50.522 0.233 7.15 30.96 10.71
11/9/2021 10:45:00 PM 10.3 50.54 0.232 7.15 40.13 10.75
11/9/2021 11:00:00 PM 10.3 50.54 0.233 7.16 36.02 10.7
11/9/2021 11:15:00 PM 10.35 50.63 0.233 7.14 41.09 10.73
11/9/2021 11:30:00 PM 10.36 50.648 0.233 7.15 30.91 10.72
11/9/2021 11:45:00 PM 10.35 50.63 0.233 7.14 36.02 10.64
11/10/2021 12:00:00 AM 10.36 50.648 0.232 7.14 37.88 10.62
11/10/2021 12:15:00 AM 10.37 50.666 0.232 7.14 36.98 10.69
11/10/2021 12:30:00 AM 10.37 50.666 0.232 7.14 32.34 10.65
11/10/2021 12:45:00 AM 10.38 50.684 0.232 7.15 31.51 10.63
11/10/2021 1:00:00 AM 10.35 50.63 0.232 7.14 34.89 10.61
11/10/2021 1:15:00 AM 10.35 50.63 0.233 7.13 31.34 10.63
11/10/2021 1:30:00 AM 10.36 50.648 0.233 7.13 34.56 10.59
11/10/2021 1:45:00 AM 10.35 50.63 0.233 7.13 32.78 10.61
11/10/2021 2:00:00 AM 10.36 50.648 0.233 7.13 38.61 10.57
11/10/2021 2:15:00 AM 10.32 50.576 0.233 7.13 33.38 10.59
11/10/2021 2:30:00 AM 10.31 50.558 0.232 7.13 71.31 10.57
11/10/2021 2:45:00 AM 10.3 50.54 0.233 7.12 114.7 10.53
11/10/2021 3:00:00 AM 10.29 50.522 0.232 7.13 109 10.58
11/10/2021 3:15:00 AM 10.31 50.558 0.231 7.13 105.2 10.54
11/10/2021 3:30:00 AM 10.3 50.54 0.232 7.12 89.37 10.6
11/10/2021 3:45:00 AM 10.3 50.54 0.233 7.12 155.7 10.57
11/10/2021 4:00:00 AM 10.27 50.486 0.232 7.12 115.7 10.55
11/10/2021 4:15:00 AM 10.27 50.486 0.232 7.12 127.4 10.53
11/10/2021 4:30:00 AM 10.25 50.45 0.231 7.11 129.8 10.59
11/10/2021 4:45:00 AM 10.21 50.378 0.231 7.12 161.5 10.57
11/10/2021 5:00:00 AM 10.23 50.414 0.231 7.12 82.18 10.56
11/10/2021 5:15:00 AM 10.23 50.414 0.231 7.12 127.5 10.62
11/10/2021 5:30:00 AM 10.23 50.414 0.23 7.11 291.3 10.54
11/10/2021 5:45:00 AM 10.23 50.414 0.231 7.11 206.4 10.54
11/10/2021 6:00:00 AM 10.17 50.306 0.231 7.11 249.8 10.58
11/10/2021 6:15:00 AM 10.16 50.288 0.232 7.11 139.7 10.58
11/10/2021 6:30:00 AM 10.09 50.162 0.231 7.11 359.3 10.58
11/10/2021 6:45:00 AM 10.09 50.162 0.23 7.11 144.2 10.64
11/10/2021 7:00:00 AM 10.05 50.09 0.23 7.12 106.5 10.64
11/10/2021 7:15:00 AM 10.01 50.018 0.23 7.12 239.1 10.61
11/10/2021 7:30:00 AM 10.02 50.036 0.23 7.12 333.5 10.65
11/10/2021 7:45:00 AM 10.02 50.036 0.229 7.12 122.4 10.56
11/10/2021 8:00:00 AM 10.02 50.036 0.229 7.12 131.6 10.6
11/10/2021 8:15:00 AM 10.08 50.144 0.229 7.12 293.1 10.85
11/10/2021 8:30:00 AM 10.09 50.162 0.229 7.13 153.4 11.03
11/10/2021 8:45:00 AM 10.15 50.27 0.228 7.14 302.7 11.16
11/10/2021 9:00:00 AM 10.19 50.342 0.228 7.13 105.9 11.29
11/10/2021 9:15:00 AM 10.28 50.504 0.228 7.14 225.3 11.34
11/10/2021 9:30:00 AM 10.37 50.666 0.227 7.15 131.3 11.47
11/10/2021 9:45:00 AM 10.45 50.81 0.227 7.17 123.1 11.51
11/10/2021 10:00:00 AM 10.54 50.972 0.227 7.19 375.8 11.47
11/10/2021 10:15:00 AM 10.64 51.152 0.228 7.19 304.1 11.19
11/10/2021 10:30:00 AM 10.75 51.35 0.227 7.19 177.1 11.38
11/10/2021 10:45:00 AM 10.85 51.53 0.228 7.19 291.7 11.81
11/10/2021 11:00:00 AM 10.94 51.692 0.227 7.2 312.5 11.83
11/10/2021 11:15:00 AM 11.05 51.89 0.227 7.2 221.5 11.86
11/10/2021 11:30:00 AM 11.18 52.124 0.227 7.21 225.4 11.92
11/10/2021 11:45:00 AM 11.27 52.286 0.227 7.22 139.6 11.86
11/10/2021 12:00:00 PM 11.39 52.502 0.227 7.23 318.4 11.92
11/10/2021 12:15:00 PM 11.48 52.664 0.226 7.23 414.3 11.96
11/10/2021 12:30:00 PM 11.59 52.862 0.226 7.24 274.9 11.94
11/10/2021 12:45:00 PM 11.64 52.952 0.226 7.25 305.9 11.94
11/10/2021 1:00:00 PM 11.71 53.078 0.227 7.25 278.7 11.94
11/10/2021 1:15:00 PM 11.8 53.24 0.227 7.25 173.2 11.92
11/10/2021 1:30:00 PM 11.83 53.294 0.228 7.26 225.8 11.91
11/10/2021 1:45:00 PM 11.87 53.366 0.227 7.27 328.8 11.92
11/10/2021 2:00:00 PM 11.91 53.438 0.227 7.28 455.8 11.93
11/10/2021 2:15:00 PM 11.92 53.456 0.227 7.29 728.7 11.83
11/10/2021 2:30:00 PM 11.94 53.492 0.227 7.29 103.1 11.78
11/10/2021 2:45:00 PM 11.94 53.492 0.226 7.29 37.17 11.73
11/10/2021 3:00:00 PM 11.93 53.474 0.227 7.31 27.36 11.67
11/10/2021 3:15:00 PM 11.9 53.42 0.228 7.3 27.43 11.61
11/10/2021 3:30:00 PM 11.88 53.384 0.227 7.29 26.11 11.54
11/10/2021 3:45:00 PM 11.83 53.294 0.229 7.31 26.15 11.42
11/10/2021 4:00:00 PM 11.79 53.222 0.228 7.3 26.47 11.31
11/10/2021 4:15:00 PM 11.75 53.15 0.228 7.28 25.94 11.18
11/10/2021 4:30:00 PM 11.7 53.06 0.229 7.28 27.08 11.18
11/10/2021 4:45:00 PM 11.65 52.97 0.229 7.27 28.89 11.04
11/10/2021 5:00:00 PM 11.6 52.88 0.228 7.27 30.2 10.99
11/10/2021 5:15:00 PM 11.54 52.772 0.228 7.26 29.2 10.9
11/10/2021 5:30:00 PM 11.48 52.664 0.228 7.25 28.92 10.81
11/10/2021 5:45:00 PM 11.42 52.556 0.229 7.26 27.8 10.75
11/10/2021 6:00:00 PM 11.36 52.448 0.229 7.25 29.33 10.73
11/10/2021 6:15:00 PM 11.3 52.34 0.23 7.23 28.36 10.63
11/10/2021 6:30:00 PM 11.25 52.25 0.23 7.23 28.79 10.69
11/10/2021 6:45:00 PM 11.19 52.142 0.23 7.22 28.29 10.61
11/10/2021 7:00:00 PM 11.14 52.052 0.231 7.22 27.63 10.55
11/10/2021 7:15:00 PM 11.1 51.98 0.23 7.22 25.66 10.58
11/10/2021 7:30:00 PM 11.05 51.89 0.229 7.21 30.73 10.54
11/10/2021 7:45:00 PM 11.02 51.836 0.229 7.2 29.26 10.52
11/10/2021 8:00:00 PM 10.98 51.764 0.229 7.2 28.41 10.53
11/10/2021 8:15:00 PM 10.96 51.728 0.23 7.19 29.7 10.52
11/10/2021 8:30:00 PM 10.93 51.674 0.231 7.17 27.33 10.54
11/10/2021 8:45:00 PM 10.9 51.62 0.231 7.19 29.55 10.5
11/10/2021 9:00:00 PM 10.88 51.584 0.231 7.18 31.22 10.47
11/10/2021 9:15:00 PM 10.85 51.53 0.231 7.18 27.38 10.51
11/10/2021 9:30:00 PM 10.85 51.53 0.23 7.17 30.22 10.55
11/10/2021 9:45:00 PM 10.83 51.494 0.23 7.17 28.33 10.56
11/10/2021 10:00:00 PM 10.83 51.494 0.229 7.17 27 10.51
11/10/2021 10:15:00 PM 10.81 51.458 0.229 7.16 27.63 10.55
11/10/2021 10:30:00 PM 10.81 51.458 0.229 7.17 30.28 10.5
11/10/2021 10:45:00 PM 10.8 51.44 0.23 7.17 28.52 10.5
11/10/2021 11:00:00 PM 10.77 51.386 0.23 7.16 28.03 10.47
11/10/2021 11:15:00 PM 10.75 51.35 0.23 7.15 29.87 10.51
11/10/2021 11:30:00 PM 10.73 51.314 0.231 7.15 30.01 10.5
11/10/2021 11:45:00 PM 10.71 51.278 0.23 7.15 30.01 10.48
11/11/2021 12:00:00 AM 10.7 51.26 0.231 7.15 27.82 10.47
11/11/2021 12:15:00 AM 10.67 51.206 0.23 7.16 28.12 10.47
11/11/2021 12:30:00 AM 10.67 51.206 0.23 7.14 28.81 10.38
11/11/2021 12:45:00 AM 10.66 51.188 0.23 7.14 31.5 10.4
11/11/2021 1:00:00 AM 10.63 51.134 0.23 7.14 28.55 10.43
11/11/2021 1:15:00 AM 10.6 51.08 0.231 7.14 28.96 10.43
11/11/2021 1:30:00 AM 10.55 50.99 0.232 7.14 30.04 10.41
11/11/2021 1:45:00 AM 10.52 50.936 0.232 7.13 33.47 10.39
11/11/2021 2:00:00 AM 10.48 50.864 0.232 7.13 29.01 10.36
11/11/2021 2:15:00 AM 10.44 50.792 0.233 7.13 28.8 10.41
11/11/2021 2:30:00 AM 10.39 50.702 0.232 7.13 36.53 10.47
11/11/2021 2:45:00 AM 10.36 50.648 0.231 7.12 29.43 10.46
11/11/2021 3:00:00 AM 10.35 50.63 0.231 7.11 30.81 10.42
11/11/2021 3:15:00 AM 10.31 50.558 0.231 7.12 28.36 10.43
11/11/2021 3:30:00 AM 10.27 50.486 0.231 7.11 30.06 10.41
11/11/2021 3:45:00 AM 10.22 50.396 0.232 7.1 29.47 10.46
11/11/2021 4:00:00 AM 10.19 50.342 0.232 7.11 33.14 10.5
11/11/2021 4:15:00 AM 10.14 50.252 0.232 7.12 31.49 10.45
11/11/2021 4:30:00 AM 10.14 50.252 0.232 7.12 32.25 10.5
11/11/2021 4:45:00 AM 10.09 50.162 0.232 7.11 30.08 10.55
11/11/2021 5:00:00 AM 10.08 50.144 0.231 7.1 31.56 10.53
11/11/2021 5:15:00 AM 10.06 50.108 0.231 7.11 29.83 10.53
11/11/2021 5:30:00 AM 10.01 50.018 0.231 7.11 33.71 10.54
11/11/2021 5:45:00 AM 10.01 50.018 0.231 7.1 33.22 10.53
11/11/2021 6:00:00 AM 9.96 49.928 0.232 7.11 29.79 10.49
11/11/2021 6:15:00 AM 9.9 49.82 0.233 7.11 33.37 10.54
11/11/2021 6:30:00 AM 9.86 49.748 0.232 7.11 35.09 10.6
11/11/2021 6:45:00 AM 9.84 49.712 0.232 7.11 34.62 10.63
11/11/2021 7:00:00 AM 9.82 49.676 0.231 7.1 31.5 10.64
11/11/2021 7:15:00 AM 9.78 49.604 0.231 7.11 31.41 10.6
11/11/2021 7:30:00 AM 9.79 49.622 0.23 7.11 28.73 10.71
11/11/2021 7:45:00 AM 9.78 49.604 0.231 7.12 32.18 10.81
11/11/2021 8:00:00 AM 9.81 49.658 0.23 7.12 29.15 10.94
11/11/2021 8:15:00 AM 9.8 49.64 0.23 7.13 34.33 11
11/11/2021 8:30:00 AM 9.85 49.73 0.23 7.14 32.48 11.13
11/11/2021 8:45:00 AM 9.88 49.784 0.23 7.15 31.74 11.24
11/11/2021 9:00:00 AM 9.95 49.91 0.23 7.16 31.84 11.37
11/11/2021 9:15:00 AM 10.01 50.018 0.23 7.15 32.35 11.49
11/11/2021 9:30:00 AM 10.1 50.18 0.23 7.16 32.86 11.56
11/11/2021 9:45:00 AM 10.18 50.324 0.229 7.16 32.72 11.64
11/11/2021 10:00:00 AM 10.22 50.396 0.229 7.17 32.59 11.75
11/11/2021 10:15:00 AM 10.29 50.522 0.229 7.18 32.56 11.82
11/11/2021 10:30:00 AM 10.4 50.72 0.229 7.19 30.26 11.89
11/11/2021 10:45:00 AM 10.49 50.882 0.229 7.19 30.8 11.97
11/11/2021 11:00:00 AM 10.55 50.99 0.229 7.21 31.72 12.04
11/11/2021 11:15:00 AM 10.64 51.152 0.229 7.22 31.34 12.12
11/11/2021 11:30:00 AM 10.74 51.332 0.229 7.23 30.59 12.21
11/11/2021 11:45:00 AM 10.86 51.548 0.228 7.24 28.97 12.28
11/11/2021 12:00:00 PM 10.94 51.692 0.228 7.26 30.24 12.33
11/11/2021 12:15:00 PM 11 51.8 0.228 7.27 30.1 12.28
11/11/2021 12:30:00 PM 11.08 51.944 0.228 7.28 29.93 12.34
11/11/2021 12:45:00 PM 11.16 52.088 0.227 7.3 29.78 12.38
11/11/2021 1:00:00 PM 11.19 52.142 0.228 7.31 29.35 12.39
11/11/2021 1:15:00 PM 11.24 52.232 0.228 7.32 29.09 12.42
11/11/2021 1:30:00 PM 11.29 52.322 0.229 7.34 31.04 12.42
11/11/2021 1:45:00 PM 11.4 52.52 0.229 7.36 33.18 12.49
11/11/2021 2:00:00 PM 11.44 52.592 0.229 7.38 25.54 12.47
11/11/2021 2:15:00 PM 11.52 52.736 0.228 7.38 29.56 12.47
11/11/2021 2:30:00 PM 11.52 52.736 0.228 7.4 30.79 12.4
11/11/2021 2:45:00 PM 11.56 52.808 0.228 7.4 28.64 12.36
11/11/2021 3:00:00 PM 11.59 52.862 0.228 7.4 32.86 12.31
11/11/2021 3:15:00 PM 11.61 52.898 0.228 7.41 30.82 12.17
11/11/2021 3:30:00 PM 11.59 52.862 0.23 7.42 32.49 12.03
11/11/2021 3:45:00 PM 11.57 52.826 0.23 7.42 28.04 11.94
11/11/2021 4:00:00 PM 11.55 52.79 0.231 7.42 28.53 11.86
11/11/2021 4:15:00 PM 11.51 52.718 0.231 7.42 31.34 11.74
11/11/2021 4:30:00 PM 11.48 52.664 0.231 7.41 29.88 11.67
11/11/2021 4:45:00 PM 11.45 52.61 0.23 7.41 28.41 11.46
11/11/2021 5:00:00 PM 11.41 52.538 0.23 7.4 28.78 11.38
11/11/2021 5:15:00 PM 11.41 52.538 0.23 7.4 29.21 11.28
11/11/2021 5:30:00 PM 11.37 52.466 0.23 7.39 28.38 11.16
11/11/2021 5:45:00 PM 11.37 52.466 0.23 7.37 29.81 11.04
11/11/2021 6:00:00 PM 11.35 52.43 0.23 7.37 30.73 10.98
11/11/2021 6:15:00 PM 11.33 52.394 0.231 7.36 29.94 10.94
11/11/2021 6:30:00 PM 11.3 52.34 0.232 7.34 29.6 10.92
11/11/2021 6:45:00 PM 11.27 52.286 0.232 7.33 28.88 10.84
11/11/2021 7:00:00 PM 11.3 52.34 0.231 7.32 29.95 10.83
11/11/2021 7:15:00 PM 11.28 52.304 0.231 7.32 30.84 10.8
11/11/2021 7:30:00 PM 11.32 52.376 0.231 7.3 32.42 10.83
11/11/2021 7:45:00 PM 11.31 52.358 0.231 7.3 29.7 10.72
11/11/2021 8:00:00 PM 11.34 52.412 0.231 7.29 31.12 10.72
11/11/2021 8:15:00 PM 11.35 52.43 0.231 7.29 30.86 10.63
11/11/2021 8:30:00 PM 11.35 52.43 0.232 7.27 31.22 10.63
11/11/2021 8:45:00 PM 11.37 52.466 0.232 7.27 36.77 10.67
11/11/2021 9:00:00 PM 11.38 52.484 0.232 7.26 30.58 10.59
11/11/2021 9:15:00 PM 11.4 52.52 0.232 7.25 30.64 10.61
11/11/2021 9:30:00 PM 11.43 52.574 0.232 7.25 30.65 10.58
11/11/2021 9:45:00 PM 11.45 52.61 0.231 7.25 32.72 10.53
11/11/2021 10:00:00 PM 11.47 52.646 0.231 7.25 31.59 10.45
11/11/2021 10:15:00 PM 11.46 52.628 0.231 7.25 33.23 10.53
11/11/2021 10:30:00 PM 11.46 52.628 0.23 7.23 32.42 10.55
11/11/2021 10:45:00 PM 11.47 52.646 0.231 7.22 31.33 10.48
11/11/2021 11:00:00 PM 11.47 52.646 0.231 7.22 33.34 10.44
11/11/2021 11:15:00 PM 11.49 52.682 0.232 7.23 31.85 10.48
11/11/2021 11:30:00 PM 11.52 52.736 0.232 7.22 32.96 10.45
11/11/2021 11:45:00 PM 11.56 52.808 0.231 7.22 34.86 10.42
11/12/2021 12:00:00 AM 11.57 52.826 0.231 7.22 34.12 10.38
11/12/2021 12:15:00 AM 11.59 52.862 0.231 7.22 33.4 10.44
11/12/2021 12:30:00 AM 11.64 52.952 0.23 7.21 33.18 10.37
11/12/2021 12:45:00 AM 11.65 52.97 0.231 7.21 34.85 10.32
11/12/2021 1:00:00 AM 11.66 52.988 0.23 7.21 33.72 10.35
11/12/2021 1:15:00 AM 11.68 53.024 0.231 7.2 33.69 10.28
11/12/2021 1:30:00 AM 11.69 53.042 0.232 7.19 33.16 10.26
11/12/2021 1:45:00 AM 11.7 53.06 0.232 7.2 33.35 10.32
11/12/2021 2:00:00 AM 11.74 53.132 0.232 7.19 34.75 10.28
11/12/2021 2:15:00 AM 11.76 53.168 0.232 7.2 36.26 10.26
11/12/2021 2:30:00 AM 11.78 53.204 0.232 7.2 35.11 10.34
11/12/2021 2:45:00 AM 11.79 53.222 0.232 7.21 34.25 10.24
11/12/2021 3:00:00 AM 11.81 53.258 0.231 7.21 33.64 10.2
11/12/2021 3:15:00 AM 11.83 53.294 0.231 7.19 33.03 10.24
11/12/2021 3:30:00 AM 11.85 53.33 0.23 7.19 34.4 10.2
11/12/2021 3:45:00 AM 11.89 53.402 0.23 7.18 34.68 10.21
11/12/2021 4:00:00 AM 11.91 53.438 0.229 7.18 38.04 10.14
11/12/2021 4:15:00 AM 11.92 53.456 0.229 7.2 38.65 10.14
11/12/2021 4:30:00 AM 11.93 53.474 0.229 7.17 34.46 10.12
11/12/2021 4:45:00 AM 11.96 53.528 0.229 7.17 38.76 10.08
11/12/2021 5:00:00 AM 11.99 53.582 0.227 7.18 37.54 10.1
11/12/2021 5:15:00 AM 12.02 53.636 0.227 7.16 37.39 10.09
11/12/2021 5:30:00 AM 12.03 53.654 0.226 7.17 37.92 10.11
11/12/2021 5:45:00 AM 12.05 53.69 0.226 7.17 39.11 10.09
11/12/2021 6:00:00 AM 12.05 53.69 0.228 7.15 37.72 10.07
11/12/2021 6:15:00 AM 12.09 53.762 0.228 7.15 38.91 10.06
11/12/2021 6:30:00 AM 12.13 53.834 0.228 7.15 43.03 10.11
11/12/2021 6:45:00 AM 12.15 53.87 0.229 7.16 41.34 10.13
11/12/2021 7:00:00 AM 12.16 53.888 0.232 7.14 41.35 10.07
11/12/2021 7:15:00 AM 12.14 53.852 0.233 7.15 43.68 10.07
11/12/2021 7:30:00 AM 12.14 53.852 0.233 7.14 45.29 10.1
11/12/2021 7:45:00 AM 12.14 53.852 0.232 7.14 44.86 10.1
11/12/2021 8:00:00 AM 12.12 53.816 0.231 7.14 42.81 10.1
11/12/2021 8:15:00 AM 12.14 53.852 0.23 7.14 48.43 10.11
11/12/2021 8:30:00 AM 12.15 53.87 0.229 7.14 49.65 10.14
11/12/2021 8:45:00 AM 12.15 53.87 0.229 7.15 51.26 10.24
11/12/2021 9:00:00 AM 12.15 53.87 0.23 7.15 47.03 10.18
11/12/2021 9:15:00 AM 12.13 53.834 0.228 7.16 52.25 10.16
11/12/2021 9:30:00 AM 12.14 53.852 0.227 7.17 51.69 10.29
11/12/2021 9:45:00 AM 12.13 53.834 0.225 7.18 54.13 10.31
11/12/2021 10:00:00 AM 12.12 53.816 0.223 7.17 50.4 10.29
11/12/2021 10:15:00 AM 12.18 53.924 0.223 7.17 50.47 10.43
11/12/2021 10:30:00 AM 12.21 53.978 0.222 7.18 50.02 10.52
11/12/2021 10:45:00 AM 12.26 54.068 0.221 7.18 57.04 10.56
11/12/2021 11:00:00 AM 12.35 54.23 0.221 7.19 53.01 10.63
11/12/2021 11:15:00 AM 12.41 54.338 0.221 7.17 66.13 10.65
11/12/2021 11:30:00 AM 12.42 54.356 0.221 7.15 60.48 10.65
11/12/2021 11:45:00 AM 12.49 54.482 0.221 7.15 70.15 10.64
11/12/2021 12:00:00 PM 12.56 54.608 0.221 7.14 87.44 10.53
11/12/2021 12:15:00 PM 12.63 54.734 0.22 7.15 87.03 10.4
11/12/2021 12:30:00 PM 12.7 54.86 0.22 7.15 101.7 10.31
11/12/2021 12:45:00 PM 12.77 54.986 0.22 7.15 103.5 10.28
11/12/2021 1:00:00 PM 12.82 55.076 0.22 7.15 81.27 10.21
11/12/2021 1:15:00 PM 12.86 55.148 0.22 7.16 98.16 10.22
11/12/2021 1:30:00 PM 12.9 55.22 0.22 7.15 97.35 10.07
11/12/2021 1:45:00 PM 12.93 55.274 0.22 7.15 102.9 10.13
11/12/2021 2:00:00 PM 12.95 55.31 0.219 7.15 95.42 10.13
11/12/2021 2:15:00 PM 12.96 55.328 0.22 7.15 90.83 10.13
11/12/2021 2:30:00 PM 12.96 55.328 0.219 7.15 92.37 10.11
11/12/2021 2:45:00 PM 12.96 55.328 0.219 7.16 83.69 9.94
11/12/2021 3:00:00 PM 12.97 55.346 0.217 7.17 82.3 9.98
11/12/2021 3:15:00 PM 12.97 55.346 0.217 7.17 77.57 10.03
11/12/2021 3:30:00 PM 12.98 55.364 0.215 7.17 65.83 9.97
11/12/2021 3:45:00 PM 13 55.4 0.214 7.17 72.82 10.01
11/12/2021 4:00:00 PM 12.98 55.364 0.213 7.15 68.16 10
11/12/2021 4:15:00 PM 12.97 55.346 0.214 7.15 67.44 9.96
11/12/2021 4:30:00 PM 12.96 55.328 0.214 7.14 63.01 9.94
11/12/2021 4:45:00 PM 12.93 55.274 0.215 7.14 66.42 9.88
11/12/2021 5:00:00 PM 12.9 55.22 0.216 7.14 63.65 9.9
11/12/2021 5:15:00 PM 12.87 55.166 0.217 7.13 62 9.89
11/12/2021 5:30:00 PM 12.82 55.076 0.217 7.13 60.45 9.85
11/12/2021 5:45:00 PM 12.77 54.986 0.217 7.13 59.95 9.86
11/12/2021 6:00:00 PM 12.72 54.896 0.216 7.13 56.94 9.79
11/12/2021 6:15:00 PM 12.7 54.86 0.215 7.11 56.42 9.75
11/12/2021 6:30:00 PM 12.63 54.734 0.214 7.11 55.41 9.82
11/12/2021 6:45:00 PM 12.58 54.644 0.212 7.12 54.32 9.79
11/12/2021 7:00:00 PM 12.54 54.572 0.211 7.1 52.76 9.83
11/12/2021 7:15:00 PM 12.49 54.482 0.209 7.1 54.4 9.79
11/12/2021 7:30:00 PM 12.46 54.428 0.206 7.09 51.24 9.78
11/12/2021 7:45:00 PM 12.39 54.302 0.205 7.09 49.24 9.81
11/12/2021 8:00:00 PM 12.36 54.248 0.204 7.08 49.93 9.76
11/12/2021 8:15:00 PM 12.32 54.176 0.203 7.08 53.12 9.82
11/12/2021 8:30:00 PM 12.27 54.086 0.202 7.08 47.46 9.86
11/12/2021 8:45:00 PM 12.23 54.014 0.201 7.08 48.41 9.87
11/12/2021 9:00:00 PM 12.17 53.906 0.201 7.08 45.81 9.85
11/12/2021 9:15:00 PM 12.13 53.834 0.2 7.08 45.23 9.9
11/12/2021 9:30:00 PM 12.08 53.744 0.199 7.08 46.76 9.92
11/12/2021 9:45:00 PM 12.03 53.654 0.199 7.07 45.59 9.87
11/12/2021 10:00:00 PM 11.98 53.564 0.199 7.08 47.13 9.86
11/12/2021 10:15:00 PM 11.93 53.474 0.199 7.07 44.77 9.93
11/12/2021 10:30:00 PM 11.88 53.384 0.199 7.07 44.38 9.94
11/12/2021 10:45:00 PM 11.82 53.276 0.198 7.08 47.04 9.94
11/12/2021 11:00:00 PM 11.77 53.186 0.198 7.09 46.37 9.94
11/12/2021 11:15:00 PM 11.72 53.096 0.198 7.08 47.94 9.94
11/12/2021 11:30:00 PM 11.68 53.024 0.198 7.07 46.17 9.98
11/12/2021 11:45:00 PM 11.63 52.934 0.198 7.07 44.89 9.96
11/13/2021 12:00:00 AM 11.58 52.844 0.198 7.07 43.32 9.98
11/13/2021 12:15:00 AM 11.53 52.754 0.199 7.07 45.65 9.98
11/13/2021 12:30:00 AM 11.49 52.682 0.2 7.07 44.88 10.01
11/13/2021 12:45:00 AM 11.43 52.574 0.2 7.06 45.75 10.1
11/13/2021 1:00:00 AM 11.38 52.484 0.2 7.06 43.01 10.04
11/13/2021 1:15:00 AM 11.33 52.394 0.201 7.05 43.65 10.06
11/13/2021 1:30:00 AM 11.29 52.322 0.201 7.06 48.76 10.08
11/13/2021 1:45:00 AM 11.26 52.268 0.202 7.06 46.47 10.05
11/13/2021 2:00:00 AM 11.21 52.178 0.202 7.06 43.94 10.05
11/13/2021 2:15:00 AM 11.18 52.124 0.202 7.07 44.46 10.05
11/13/2021 2:30:00 AM 11.14 52.052 0.203 7.06 44.39 10.06
11/13/2021 2:45:00 AM 11.1 51.98 0.203 7.08 42.92 10.05
11/13/2021 3:00:00 AM 11.06 51.908 0.204 7.07 44.98 10.07
11/13/2021 3:15:00 AM 11.02 51.836 0.205 7.1 43.81 10.04
11/13/2021 3:30:00 AM 10.97 51.746 0.206 7.09 45.57 10.04
11/13/2021 3:45:00 AM 10.93 51.674 0.206 7.11 42.31 10.09
11/13/2021 4:00:00 AM 10.9 51.62 0.206 7.12 41.1 10.12
11/13/2021 4:15:00 AM 10.87 51.566 0.206 7.13 44.87 10.11
11/13/2021 4:30:00 AM 10.87 51.566 0.207 7.13 42.76 10.11
11/13/2021 4:45:00 AM 10.82 51.476 0.207 7.16 41.47 10.14
11/13/2021 5:00:00 AM 10.82 51.476 0.208 7.17 45.36 10.1
11/13/2021 5:15:00 AM 10.8 51.44 0.208 7.17 42.82 10.18
11/13/2021 5:30:00 AM 10.79 51.422 0.209 7.18 40.3 10.13
11/13/2021 5:45:00 AM 10.78 51.404 0.209 7.19 44.55 10.2
11/13/2021 6:00:00 AM 10.76 51.368 0.21 7.19 45.56 10.17
11/13/2021 6:15:00 AM 10.78 51.404 0.21 7.2 40.02 10.24
11/13/2021 6:30:00 AM 10.79 51.422 0.21 7.21 38.36 10.19
11/13/2021 6:45:00 AM 10.79 51.422 0.211 7.21 38.77 10.23
11/13/2021 7:00:00 AM 10.78 51.404 0.211 7.21 42.06 10.22
11/13/2021 7:15:00 AM 10.78 51.404 0.212 7.22 42.15 10.24
11/13/2021 7:30:00 AM 10.78 51.404 0.212 7.22 41.52 10.27
11/13/2021 7:45:00 AM 10.77 51.386 0.213 7.23 41.07 10.31
11/13/2021 8:00:00 AM 10.77 51.386 0.214 7.21 40.18 10.33
11/13/2021 8:15:00 AM 10.78 51.404 0.214 7.22 41.07 10.35
11/13/2021 8:30:00 AM 10.79 51.422 0.215 7.23 37.67 10.45
11/13/2021 8:45:00 AM 10.8 51.44 0.215 7.21 37.32 10.49
11/13/2021 9:00:00 AM 10.79 51.422 0.215 7.22 36.65 10.53
11/13/2021 9:15:00 AM 10.8 51.44 0.216 7.22 35.64 10.56
11/13/2021 9:30:00 AM 10.77 51.386 0.216 7.22 39.49 10.58
11/13/2021 9:45:00 AM 10.78 51.404 0.217 7.22 37.2 10.64
11/13/2021 10:00:00 AM 10.77 51.386 0.217 7.23 39.26 10.68
11/13/2021 10:15:00 AM 10.77 51.386 0.218 7.22 36.97 10.63
11/13/2021 10:30:00 AM 10.78 51.404 0.218 7.23 37.16 10.77
11/13/2021 10:45:00 AM 10.97 51.746 0.219 7.25 37.66 10.85
11/13/2021 11:00:00 AM 11.07 51.926 0.218 7.25 41.24 10.82
11/13/2021 11:15:00 AM 11.14 52.052 0.217 7.26 39.45 10.87
11/13/2021 11:30:00 AM 11.11 51.998 0.217 7.26 40.99 10.83
11/13/2021 11:45:00 AM 11.11 51.998 0.218 7.27 38.71 10.76
11/13/2021 12:00:00 PM 11.05 51.89 0.217 7.27 40.1 10.74
11/13/2021 12:15:00 PM 11.01 51.818 0.217 7.26 38.71 10.75
11/13/2021 12:30:00 PM 10.97 51.746 0.218 7.25 38.53 10.8
11/13/2021 12:45:00 PM 10.95 51.71 0.218 7.26 37.32 10.79
11/13/2021 1:00:00 PM 10.97 51.746 0.218 7.26 34.56 10.91
11/13/2021 1:15:00 PM 11.03 51.854 0.218 7.26 37.97 11.06
11/13/2021 1:30:00 PM 11.08 51.944 0.218 7.26 36.62 11.1
11/13/2021 1:45:00 PM 11.12 52.016 0.218 7.26 35.78 11.15
11/13/2021 2:00:00 PM 11.17 52.106 0.219 7.26 38.22 11.18
11/13/2021 2:15:00 PM 11.07 51.926 0.219 7.27 36.79 11.16
11/13/2021 2:30:00 PM 11.04 51.872 0.22 7.27 37.73 11.15
11/13/2021 2:45:00 PM 11.03 51.854 0.22 7.26 38.58 11.17
11/13/2021 3:00:00 PM 10.99 51.782 0.221 7.25 37.08 11.16
11/13/2021 3:15:00 PM 10.97 51.746 0.221 7.26 33.18 11.06
11/13/2021 3:30:00 PM 10.92 51.656 0.221 7.26 41.73 11.02
11/13/2021 3:45:00 PM 10.86 51.548 0.222 7.25 37.4 10.95
11/13/2021 4:00:00 PM 10.8 51.44 0.222 7.24 37.84 10.89
11/13/2021 4:15:00 PM 10.77 51.386 0.222 7.24 38.03 10.78
11/13/2021 4:30:00 PM 10.77 51.386 0.222 7.25 34.7 10.74
11/13/2021 4:45:00 PM 10.72 51.296 0.222 7.25 38.94 10.65
11/13/2021 5:00:00 PM 10.69 51.242 0.222 7.24 44.31 10.65
11/13/2021 5:15:00 PM 10.63 51.134 0.223 7.22 36.41 10.67
11/13/2021 5:30:00 PM 10.61 51.098 0.223 7.21 32.94 10.53
11/13/2021 5:45:00 PM 10.59 51.062 0.223 7.21 32.11 10.55
11/13/2021 6:00:00 PM 10.57 51.026 0.223 7.2 36.85 10.53
11/13/2021 6:15:00 PM 10.51 50.918 0.223 7.2 40.16 10.48
11/13/2021 6:30:00 PM 10.51 50.918 0.222 7.2 34.92 10.52
11/13/2021 6:45:00 PM 10.52 50.936 0.223 7.21 34.45 10.57
11/13/2021 7:00:00 PM 10.56 51.008 0.222 7.19 40.49 10.56
11/13/2021 7:15:00 PM 10.48 50.864 0.222 7.2 34.22 10.53
11/13/2021 7:30:00 PM 10.44 50.792 0.223 7.19 35.42 10.54
11/13/2021 7:45:00 PM 10.41 50.738 0.223 7.19 30.99 10.6
11/13/2021 8:00:00 PM 10.35 50.63 0.223 7.2 39.64 10.56
11/13/2021 8:15:00 PM 10.34 50.612 0.222 7.2 36.21 10.56
11/13/2021 8:30:00 PM 10.32 50.576 0.223 7.19 31.17 10.6
11/13/2021 8:45:00 PM 10.33 50.594 0.223 7.18 34.31 10.63
11/13/2021 9:00:00 PM 10.28 50.504 0.223 7.17 35.49 10.66
11/13/2021 9:15:00 PM 10.26 50.468 0.222 7.18 35.84 10.63
11/13/2021 9:30:00 PM 10.28 50.504 0.223 7.16 39.91 10.57
11/13/2021 9:45:00 PM 10.23 50.414 0.223 7.18 35.45 10.63
11/13/2021 10:00:00 PM 10.26 50.468 0.223 7.18 44.03 10.63
11/13/2021 10:15:00 PM 10.17 50.306 0.223 7.18 31.15 10.64
11/13/2021 10:30:00 PM 10.18 50.324 0.223 7.19 35.35 10.69
11/13/2021 10:45:00 PM 10.19 50.342 0.223 7.18 38.3 10.67
11/13/2021 11:00:00 PM 10.1 50.18 0.223 7.18 44.15 10.62
11/13/2021 11:15:00 PM 10.13 50.234 0.223 7.17 41.15 10.65
11/13/2021 11:30:00 PM 10.08 50.144 0.223 7.17 32.39 10.71
11/13/2021 11:45:00 PM 10.02 50.036 0.223 7.18 34.17 10.69
11/14/2021 12:00:00 AM 9.97 49.946 0.223 7.18 38.25 10.69
11/14/2021 12:15:00 AM 10 50 0.223 7.17 36.92 10.63
11/14/2021 12:30:00 AM 9.95 49.91 0.223 7.17 33.83 10.65
11/14/2021 12:45:00 AM 9.9 49.82 0.224 7.17 40.53 10.68
11/14/2021 1:00:00 AM 9.88 49.784 0.223 7.17 34.95 10.72
11/14/2021 1:15:00 AM 9.83 49.694 0.224 7.17 37.4 10.71
11/14/2021 1:30:00 AM 9.81 49.658 0.223 7.18 30.34 10.75
11/14/2021 1:45:00 AM 9.78 49.604 0.223 7.18 34.59 10.8
11/14/2021 2:00:00 AM 9.82 49.676 0.223 7.17 39.93 10.78
11/14/2021 2:15:00 AM 9.73 49.514 0.223 7.18 37.59 10.73
11/14/2021 2:30:00 AM 9.83 49.694 0.223 7.18 34.98 10.75
11/14/2021 2:45:00 AM 9.81 49.658 0.223 7.18 35.03 10.76
11/14/2021 3:00:00 AM 9.74 49.532 0.223 7.19 39.07 10.75
11/14/2021 3:15:00 AM 9.65 49.37 0.224 7.18 40.39 10.83
11/14/2021 3:30:00 AM 9.6 49.28 0.224 7.18 34.12 10.81
11/14/2021 3:45:00 AM 9.61 49.298 0.224 7.17 47.04 10.73
11/14/2021 4:00:00 AM 9.6 49.28 0.223 7.17 36.18 10.79
11/14/2021 4:15:00 AM 9.64 49.352 0.223 7.17 37.06 10.76
11/14/2021 4:30:00 AM 9.46 49.028 0.224 7.16 37.67 10.81
11/14/2021 4:45:00 AM 9.48 49.064 0.224 7.17 39.25 10.8
11/14/2021 5:00:00 AM 9.48 49.064 0.223 7.16 42.68 10.82
11/14/2021 5:15:00 AM 9.43 48.974 0.224 7.16 42.15 10.83
11/14/2021 5:30:00 AM 9.41 48.938 0.224 7.16 31.1 10.8
11/14/2021 5:45:00 AM 9.36 48.848 0.224 7.15 32.2 10.83
11/14/2021 6:00:00 AM 9.41 48.938 0.224 7.18 39.11 10.86
11/14/2021 6:15:00 AM 9.39 48.902 0.223 7.16 40.86 10.86
11/14/2021 6:30:00 AM 9.29 48.722 0.224 7.17 31.83 10.9
11/14/2021 6:45:00 AM 9.29 48.722 0.223 7.17 36.63 10.87
11/14/2021 7:00:00 AM 9.35 48.83 0.222 7.15 36.24 10.86
11/14/2021 7:15:00 AM 9.27 48.686 0.223 7.15 41.05 10.87
11/14/2021 7:30:00 AM 9.36 48.848 0.222 7.15 37.4 10.86
11/14/2021 7:45:00 AM 9.27 48.686 0.224 7.15 37.59 10.99
11/14/2021 8:00:00 AM 9.28 48.704 0.224 7.16 43.58 10.96
11/14/2021 8:15:00 AM 9.25 48.65 0.224 7.16 41.88 11.06
11/14/2021 8:30:00 AM 9.29 48.722 0.223 7.15 42.81 11.14
11/14/2021 8:45:00 AM 9.29 48.722 0.223 7.16 38.77 11.23
11/14/2021 9:00:00 AM 9.29 48.722 0.223 7.16 34.51 11.22
11/14/2021 9:15:00 AM 9.45 49.01 0.222 7.16 35.32 11.29
11/14/2021 9:30:00 AM 9.43 48.974 0.222 7.15 38.05 11.35
11/14/2021 9:45:00 AM 9.48 49.064 0.223 7.17 34.96 11.4
11/14/2021 10:00:00 AM 9.57 49.226 0.222 7.17 34.52 11.43
11/14/2021 10:15:00 AM 9.54 49.172 0.223 7.18 36.85 11.43
11/14/2021 10:30:00 AM 9.6 49.28 0.223 7.19 40.83 11.56
11/14/2021 10:45:00 AM 9.57 49.226 0.222 7.18 44.98 11.6
11/14/2021 11:00:00 AM 9.58 49.244 0.222 7.19 40.99 11.68
11/14/2021 11:15:00 AM 9.66 49.388 0.222 7.2 41.58 11.7
11/14/2021 11:30:00 AM 9.74 49.532 0.222 7.2 34.11 11.74
11/14/2021 11:45:00 AM 9.75 49.55 0.222 7.2 38.48 11.82
11/14/2021 12:00:00 PM 9.82 49.676 0.222 7.21 51.88 11.79
11/14/2021 12:15:00 PM 9.89 49.802 0.222 7.22 39.65 11.9
11/14/2021 12:30:00 PM 9.89 49.802 0.222 7.23 44.35 11.87
11/14/2021 12:45:00 PM 9.88 49.784 0.223 7.22 37.49 11.92
11/14/2021 1:00:00 PM 9.91 49.838 0.223 7.23 52.26 11.86
11/14/2021 1:15:00 PM 9.92 49.856 0.223 7.23 43 11.88
11/14/2021 1:30:00 PM 9.95 49.91 0.222 7.24 47.28 11.92
11/14/2021 1:45:00 PM 9.95 49.91 0.222 7.25 41.4 11.89
11/14/2021 2:00:00 PM 9.92 49.856 0.223 7.25 35.76 11.9
11/14/2021 2:15:00 PM 9.97 49.946 0.222 7.25 39.99 11.87
11/14/2021 2:30:00 PM 9.95 49.91 0.222 7.26 37.14 11.86
11/14/2021 2:45:00 PM 9.95 49.91 0.223 7.26 43.33 11.88
11/14/2021 3:00:00 PM 10.03 50.054 0.223 7.27 44.09 11.79
11/14/2021 3:15:00 PM 9.91 49.838 0.223 7.27 38.48 11.79
11/14/2021 3:30:00 PM 9.98 49.964 0.223 7.27 40.68 11.68
11/14/2021 3:45:00 PM 9.95 49.91 0.223 7.27 41.53 11.55
11/14/2021 4:00:00 PM 9.87 49.766 0.224 7.26 40.56 11.56
11/14/2021 4:15:00 PM 9.87 49.766 0.224 7.26 44.62 11.44
11/14/2021 4:30:00 PM 9.85 49.73 0.224 7.26 47.64 11.39
11/14/2021 4:45:00 PM 9.81 49.658 0.223 7.25 38.47 11.33
11/14/2021 5:00:00 PM 9.81 49.658 0.224 7.24 36.63 11.17
11/14/2021 5:15:00 PM 9.74 49.532 0.224 7.24 41.17 11.1
11/14/2021 5:30:00 PM 9.76 49.568 0.224 7.25 36.44 11.06
11/14/2021 5:45:00 PM 9.78 49.604 0.224 7.24 34.67 11.06
11/14/2021 6:00:00 PM 9.71 49.478 0.225 7.24 42.21 11.08
11/14/2021 6:15:00 PM 9.67 49.406 0.225 7.24 41.68 10.98
11/14/2021 6:30:00 PM 9.7 49.46 0.225 7.24 40.27 10.99
11/14/2021 6:45:00 PM 9.61 49.298 0.225 7.23 40.33 11.02
11/14/2021 7:00:00 PM 9.59 49.262 0.225 7.25 38.46 11.04
11/14/2021 7:15:00 PM 9.68 49.424 0.224 7.25 39.27 11.06
11/14/2021 7:30:00 PM 9.63 49.334 0.225 7.23 35.38 11.04
11/14/2021 7:45:00 PM 9.7 49.46 0.225 7.22 37.42 11
11/14/2021 8:00:00 PM 9.71 49.478 0.225 7.22 35.96 11
11/14/2021 8:15:00 PM 9.68 49.424 0.225 7.22 46.65 10.99
11/14/2021 8:30:00 PM 9.66 49.388 0.225 7.21 37.72 10.97
11/14/2021 8:45:00 PM 9.66 49.388 0.226 7.23 38.64 10.98
11/14/2021 9:00:00 PM 9.73 49.514 0.225 7.21 39.51 10.96
11/14/2021 9:15:00 PM 9.65 49.37 0.225 7.21 46.01 10.97
11/14/2021 9:30:00 PM 9.62 49.316 0.225 7.21 41.64 10.94
11/14/2021 9:45:00 PM 9.66 49.388 0.225 7.18 40.77 10.95
11/14/2021 10:00:00 PM 9.75 49.55 0.225 7.19 40.4 10.9
11/14/2021 10:15:00 PM 9.58 49.244 0.226 7.18 37.74 10.98
11/14/2021 10:30:00 PM 9.74 49.532 0.226 7.19 49.66 10.88
11/14/2021 10:45:00 PM 9.7 49.46 0.226 7.18 41.62 10.92
11/14/2021 11:00:00 PM 9.67 49.406 0.226 7.18 41.13 10.89
11/14/2021 11:15:00 PM 9.72 49.496 0.225 7.17 39.35 10.92
11/14/2021 11:30:00 PM 9.71 49.478 0.225 7.19 39.29 10.86
11/14/2021 11:45:00 PM 9.61 49.298 0.225 7.18 60.08 10.92
11/15/2021 12:00:00 AM 9.61 49.298 0.225 7.18 35.24 10.88
11/15/2021 12:15:00 AM 9.62 49.316 0.224 7.2 48.02 10.89
11/15/2021 12:30:00 AM 9.56 49.208 0.225 7.17 43.27 10.88
11/15/2021 12:45:00 AM 9.57 49.226 0.225 7.17 63.66 10.87
11/15/2021 1:00:00 AM 9.61 49.298 0.225 7.18 51.82 10.86
11/15/2021 1:15:00 AM 9.56 49.208 0.225 7.18 41.07 10.85
11/15/2021 1:30:00 AM 9.6 49.28 0.225 7.15 42.87 10.82
11/15/2021 1:45:00 AM 9.47 49.046 0.225 7.19 44.61 10.86
11/15/2021 2:00:00 AM 9.52 49.136 0.225 7.18 43.37 10.88
11/15/2021 2:15:00 AM 9.58 49.244 0.225 7.2 57.14 10.85
11/15/2021 2:30:00 AM 9.49 49.082 0.225 7.18 43.42 10.83
11/15/2021 2:45:00 AM 9.52 49.136 0.225 7.18 32.72 10.85
11/15/2021 3:00:00 AM 9.49 49.082 0.225 7.18 37.17 10.87
11/15/2021 3:15:00 AM 9.45 49.01 0.226 7.18 45.42 10.88
11/15/2021 3:30:00 AM 9.53 49.154 0.226 7.16 40.69 10.89
11/15/2021 3:45:00 AM 9.45 49.01 0.226 7.16 45.15 10.85
11/15/2021 4:00:00 AM 9.38 48.884 0.227 7.2 46.99 10.84
11/15/2021 4:15:00 AM 9.44 48.992 0.226 7.19 46.84 10.88
11/15/2021 4:30:00 AM 9.42 48.956 0.226 7.18 41.28 10.85
11/15/2021 4:45:00 AM 9.35 48.83 0.226 7.2 56.6 10.85
11/15/2021 5:00:00 AM 9.37 48.866 0.225 7.19 38.17 10.85
11/15/2021 5:15:00 AM 9.3 48.74 0.225 7.2 52.19 10.89
11/15/2021 5:30:00 AM 9.3 48.74 0.225 7.2 48.29 10.88
11/15/2021 5:45:00 AM 9.27 48.686 0.226 7.2 44.95 10.86
11/15/2021 6:00:00 AM 9.2 48.56 0.226 7.19 40.25 10.92
11/15/2021 6:15:00 AM 9.2 48.56 0.226 7.19 46.73 10.9
11/15/2021 6:30:00 AM 9.3 48.74 0.225 7.19 47.19 10.87
11/15/2021 6:45:00 AM 9.23 48.614 0.225 7.19 43.76 10.89
11/15/2021 7:00:00 AM 9.3 48.74 0.225 7.19 42.01 10.88
11/15/2021 7:15:00 AM 9.19 48.542 0.225 7.18 43.94 10.94
11/15/2021 7:30:00 AM 9.32 48.776 0.224 7.18 53.81 10.9
11/15/2021 7:45:00 AM 9.26 48.668 0.225 7.19 41.31 10.95
11/15/2021 8:00:00 AM 9.22 48.596 0.225 7.19 39.22 10.92
11/15/2021 8:15:00 AM 9.29 48.722 0.225 7.2 43.61 11.02
11/15/2021 8:30:00 AM 9.26 48.668 0.224 7.18 45.09 11.11
11/15/2021 8:45:00 AM 9.25 48.65 0.225 7.2 39.45 11.22
11/15/2021 9:00:00 AM 9.39 48.902 0.223 7.21 37.66 11.31
11/15/2021 9:15:00 AM 9.42 48.956 0.224 7.22 41.72 11.35
11/15/2021 9:30:00 AM 9.36 48.848 0.223 7.22 43.16 11.49
11/15/2021 9:45:00 AM 9.39 48.902 0.224 7.23 48.11 11.55
11/15/2021 10:00:00 AM 9.46 49.028 0.223 7.23 45.87 11.66
11/15/2021 10:15:00 AM 9.49 49.082 0.224 7.22 38.32 11.7
11/15/2021 10:30:00 AM 9.53 49.154 0.223 7.21 42.31 11.61
11/15/2021 10:45:00 AM 9.56 49.208 0.224 7.22 48.82 11.59
11/15/2021 11:00:00 AM 9.53 49.154 0.224 7.24 49.77 11.55
11/15/2021 11:15:00 AM 9.54 49.172 0.224 7.23 41.07 11.6
11/15/2021 11:30:00 AM 9.56 49.208 0.223 7.23 49.51 11.61
11/15/2021 11:45:00 AM 9.52 49.136 0.223 7.23 40.86 11.67
11/15/2021 12:00:00 PM 9.45 49.01 0.224 7.23 44.09 11.7
11/15/2021 12:15:00 PM 9.64 49.352 0.223 7.23 37.6 11.73
11/15/2021 12:30:00 PM 9.67 49.406 0.224 7.27 42.4 11.77
11/15/2021 12:45:00 PM 9.65 49.37 0.224 7.27 52.53 11.86
11/15/2021 1:00:00 PM 9.73 49.514 0.224 7.24 42.57 11.81
11/15/2021 1:15:00 PM 9.65 49.37 0.225 7.24 44.89 11.86
11/15/2021 1:30:00 PM 9.73 49.514 0.223 7.29 55.4 11.88
11/15/2021 1:45:00 PM 9.71 49.478 0.224 7.26 39.22 11.87
11/15/2021 2:00:00 PM 9.68 49.424 0.224 7.26 43.81 11.87
11/15/2021 2:15:00 PM 9.76 49.568 0.223 7.27 40.79 11.85
11/15/2021 2:30:00 PM 9.63 49.334 0.223 7.29 44.52 11.87
11/15/2021 2:45:00 PM 9.46 49.028 0.224 7.29 46.96 11.91
11/15/2021 3:00:00 PM 9.36 48.848 0.224 7.26 36.27 11.89
11/15/2021 3:15:00 PM 9.31 48.758 0.225 7.29 54.49 11.94
11/15/2021 3:30:00 PM 9.23 48.614 0.226 7.28 51.82 11.98
11/15/2021 3:45:00 PM 9.26 48.668 0.225 7.28 49.03 11.87
11/15/2021 4:00:00 PM 9.18 48.524 0.226 7.28 55.78 11.82
11/15/2021 4:15:00 PM 9.16 48.488 0.226 7.27 51.14 11.77
11/15/2021 4:30:00 PM 9.07 48.326 0.226 7.28 58.95 11.7
11/15/2021 4:45:00 PM 9.14 48.452 0.226 7.28 56.82 11.64
11/15/2021 5:00:00 PM 9.06 48.308 0.226 7.29 42.58 11.6
11/15/2021 5:15:00 PM 9.06 48.308 0.226 7.28 38.56 11.54
11/15/2021 5:30:00 PM 8.99 48.182 0.227 7.27 55.89 11.45
11/15/2021 5:45:00 PM 8.98 48.164 0.227 7.27 52.64 11.49
11/15/2021 6:00:00 PM 8.93 48.074 0.227 7.26 54.23 11.43
11/15/2021 6:15:00 PM 8.9 48.02 0.227 7.27 51.67 11.41
11/15/2021 6:30:00 PM 8.87 47.966 0.226 7.26 46.31 11.37
11/15/2021 6:45:00 PM 8.9 48.02 0.226 7.25 69.9 11.35
11/15/2021 7:00:00 PM 8.88 47.984 0.226 7.26 56.86 11.34
11/15/2021 7:15:00 PM 8.84 47.912 0.226 7.24 47.53 11.37
11/15/2021 7:30:00 PM 8.87 47.966 0.226 7.25 69.21 11.25
11/15/2021 7:45:00 PM 8.86 47.948 0.226 7.24 53.08 11.3
11/15/2021 8:00:00 PM 8.81 47.858 0.227 7.23 67.71 11.34
11/15/2021 8:15:00 PM 8.78 47.804 0.227 7.22 59.12 11.34
11/15/2021 8:30:00 PM 8.81 47.858 0.227 7.22 65.45 11.31
11/15/2021 8:45:00 PM 8.71 47.678 0.227 7.21 43.05 11.29
11/15/2021 9:00:00 PM 8.76 47.768 0.227 7.22 72.88 11.38
11/15/2021 9:15:00 PM 8.76 47.768 0.227 7.22 55.81 11.3
11/15/2021 9:30:00 PM 8.71 47.678 0.226 7.21 55.12 11.33
11/15/2021 9:45:00 PM 8.68 47.624 0.226 7.21 51.93 11.29
11/15/2021 10:00:00 PM 8.67 47.606 0.226 7.22 68.33 11.26
11/15/2021 10:15:00 PM 8.69 47.642 0.227 7.21 58.46 11.28
11/15/2021 10:30:00 PM 8.66 47.588 0.227 7.19 67.46 11.27
11/15/2021 10:45:00 PM 8.62 47.516 0.228 7.18 63.98 11.31
11/15/2021 11:00:00 PM 8.59 47.462 0.228 7.19 66.7 11.29
11/15/2021 11:15:00 PM 8.63 47.534 0.227 7.18 69.49 11.32
11/15/2021 11:30:00 PM 8.62 47.516 0.227 7.18 40.4 11.33
11/15/2021 11:45:00 PM 8.56 47.408 0.227 7.2 48.68 11.33
11/16/2021 12:00:00 AM 8.54 47.372 0.226 7.18 38.44 11.31
11/16/2021 12:15:00 AM 8.54 47.372 0.226 7.18 46.01 11.36
11/16/2021 12:30:00 AM 8.42 47.156 0.227 7.19 43.31 11.35
11/16/2021 12:45:00 AM 8.53 47.354 0.227 7.18 45.15 11.33
11/16/2021 1:00:00 AM 8.43 47.174 0.227 7.18 65.51 11.35
11/16/2021 1:15:00 AM 8.37 47.066 0.228 7.18 46.22 11.34
11/16/2021 1:30:00 AM 8.34 47.012 0.228 7.19 40.46 11.37
11/16/2021 1:45:00 AM 8.32 46.976 0.228 7.17 42.89 11.37
11/16/2021 2:00:00 AM 8.24 46.832 0.228 7.18 51.67 11.39
11/16/2021 2:15:00 AM 8.26 46.868 0.227 7.18 48.38 11.38
11/16/2021 2:30:00 AM 8.29 46.922 0.226 7.17 46.91 11.39
11/16/2021 2:45:00 AM 8.27 46.886 0.227 7.17 58 11.38
11/16/2021 3:00:00 AM 8.14 46.652 0.227 7.18 61.69 11.39
11/16/2021 3:15:00 AM 8.21 46.778 0.227 7.18 48.81 11.39
11/16/2021 3:30:00 AM 8.13 46.634 0.227 7.19 49.08 11.37
11/16/2021 3:45:00 AM 8.08 46.544 0.228 7.19 47.36 11.43
11/16/2021 4:00:00 AM 8.13 46.634 0.227 7.19 54.16 11.38
11/16/2021 4:15:00 AM 8 46.4 0.228 7.2 41.61 11.42
11/16/2021 4:30:00 AM 8 46.4 0.228 7.18 43.56 11.44
11/16/2021 4:45:00 AM 8.01 46.418 0.227 7.17 47.65 11.4
11/16/2021 5:00:00 AM 7.96 46.328 0.227 7.18 44.92 11.42
11/16/2021 5:15:00 AM 8.03 46.454 0.227 7.17 56.53 11.37
11/16/2021 5:30:00 AM 7.84 46.112 0.228 7.17 53.93 11.46
11/16/2021 5:45:00 AM 7.91 46.238 0.228 7.18 59.21 11.46
11/16/2021 6:00:00 AM 7.89 46.202 0.228 7.17 48.17 11.45
11/16/2021 6:15:00 AM 7.82 46.076 0.228 7.16 58.67 11.46
11/16/2021 6:30:00 AM 7.8 46.04 0.228 7.18 53.39 11.45
11/16/2021 6:45:00 AM 7.76 45.968 0.228 7.18 45.51 11.49
11/16/2021 7:00:00 AM 7.73 45.914 0.228 7.16 46.65 11.53
11/16/2021 7:15:00 AM 7.76 45.968 0.227 7.16 57.44 11.5
11/16/2021 7:30:00 AM 7.73 45.914 0.227 7.16 58.18 11.6
11/16/2021 7:45:00 AM 7.75 45.95 0.226 7.16 47.12 11.63
11/16/2021 8:00:00 AM 7.77 45.986 0.226 7.16 54.58 11.7
11/16/2021 8:15:00 AM 7.78 46.004 0.227 7.17 54.76 11.77
11/16/2021 8:30:00 AM 7.74 45.932 0.227 7.17 47.96 11.88
11/16/2021 8:45:00 AM 7.79 46.022 0.227 7.18 48.71 11.94
11/16/2021 9:00:00 AM 7.89 46.202 0.226 7.19 57.65 12
11/16/2021 9:15:00 AM 7.98 46.364 0.225 7.18 58.88 12.05
11/16/2021 9:30:00 AM 8 46.4 0.225 7.2 56.93 12.13
11/16/2021 9:45:00 AM 8.05 46.49 0.225 7.2 52 12.18
11/16/2021 10:00:00 AM 8.13 46.634 0.226 7.2 59.09 12.25
11/16/2021 10:15:00 AM 8.16 46.688 0.225 7.2 48.86 12.34
11/16/2021 10:30:00 AM 8.24 46.832 0.225 7.21 57.03 12.34
11/16/2021 10:45:00 AM 8.29 46.922 0.225 7.21 53.05 12.37
11/16/2021 11:00:00 AM 8.36 47.048 0.225 7.21 65.24 12.45
11/16/2021 11:15:00 AM 8.41 47.138 0.225 7.22 50.62 12.43
11/16/2021 11:30:00 AM 8.53 47.354 0.225 7.22 53.26 12.45
11/16/2021 11:45:00 AM 8.54 47.372 0.224 7.22 48.23 12.47
11/16/2021 12:00:00 PM 8.53 47.354 0.224 7.24 53.72 12.44
11/16/2021 12:15:00 PM 8.65 47.57 0.224 7.25 48.93 12.45
11/16/2021 12:30:00 PM 8.67 47.606 0.224 7.25 45.12 12.44
11/16/2021 12:45:00 PM 8.79 47.822 0.225 7.26 53.52 12.49
11/16/2021 1:00:00 PM 8.8 47.84 0.224 7.28 48.84 12.46
11/16/2021 1:15:00 PM 8.86 47.948 0.224 7.28 58.54 12.51
11/16/2021 1:30:00 PM 8.86 47.948 0.224 7.27 50.28 12.52
11/16/2021 1:45:00 PM 8.89 48.002 0.224 7.28 54.48 12.45
11/16/2021 2:00:00 PM 8.92 48.056 0.224 7.28 60.57 12.46
11/16/2021 2:15:00 PM 8.88 47.984 0.224 7.27 67.05 12.52
11/16/2021 2:30:00 PM 8.85 47.93 0.225 7.27 67.04 12.47
11/16/2021 2:45:00 PM 8.89 48.002 0.225 7.27 43.51 12.43
11/16/2021 3:00:00 PM 8.88 47.984 0.225 7.28 53.24 12.38
11/16/2021 3:15:00 PM 8.87 47.966 0.225 7.28 57.9 12.31
11/16/2021 3:30:00 PM 8.82 47.876 0.225 7.27 49.43 12.05
11/16/2021 3:45:00 PM 8.72 47.696 0.225 7.27 65.73 12.06
11/16/2021 4:00:00 PM 8.72 47.696 0.225 7.27 50.72 12.1
11/16/2021 4:15:00 PM 8.72 47.696 0.225 7.26 53.72 12.09
11/16/2021 4:30:00 PM 8.65 47.57 0.225 7.27 52.71 12
11/16/2021 4:45:00 PM 8.66 47.588 0.224 7.27 65.87 11.9
11/16/2021 5:00:00 PM 8.61 47.498 0.225 7.26 56.41 11.92
11/16/2021 5:15:00 PM 8.59 47.462 0.224 7.25 62.62 11.81
11/16/2021 5:30:00 PM 8.58 47.444 0.224 7.25 49.08 11.77
11/16/2021 5:45:00 PM 8.56 47.408 0.224 7.25 60.14 11.69
11/16/2021 6:00:00 PM 8.53 47.354 0.224 7.25 56.09 11.68
11/16/2021 6:15:00 PM 8.53 47.354 0.224 7.24 52.93 11.67
11/16/2021 6:30:00 PM 8.39 47.102 0.224 7.24 47.48 11.65
11/16/2021 6:45:00 PM 8.47 47.246 0.224 7.23 50.83 11.64
11/16/2021 7:00:00 PM 8.4 47.12 0.224 7.23 57.26 11.61
11/16/2021 7:15:00 PM 8.39 47.102 0.224 7.23 51.7 11.62
11/16/2021 7:30:00 PM 8.37 47.066 0.224 7.22 66.89 11.58
11/16/2021 7:45:00 PM 8.37 47.066 0.224 7.22 56.25 11.6
11/16/2021 8:00:00 PM 8.36 47.048 0.225 7.21 54.85 11.57
11/16/2021 8:15:00 PM 8.31 46.958 0.226 7.21 46.45 11.56
11/16/2021 8:30:00 PM 8.29 46.922 0.226 7.2 52.94 11.55
11/16/2021 8:45:00 PM 8.28 46.904 0.226 7.21 47.38 11.6
11/16/2021 9:00:00 PM 8.26 46.868 0.226 7.2 47.37 11.59
11/16/2021 9:15:00 PM 8.25 46.85 0.226 7.2 48.05 11.58
11/16/2021 9:30:00 PM 8.3 46.94 0.226 7.2 52.76 11.56
11/16/2021 9:45:00 PM 8.29 46.922 0.226 7.19 69.81 11.52
11/16/2021 10:00:00 PM 8.26 46.868 0.226 7.2 75.78 11.55
11/16/2021 10:15:00 PM 8.25 46.85 0.226 7.2 67.27 11.57
11/16/2021 10:30:00 PM 8.22 46.796 0.227 7.19 56.53 11.56
11/16/2021 10:45:00 PM 8.23 46.814 0.227 7.19 59.48 11.53
11/16/2021 11:00:00 PM 8.19 46.742 0.227 7.19 69.5 11.51
11/16/2021 11:15:00 PM 8.18 46.724 0.227 7.18 46.51 11.56
11/16/2021 11:30:00 PM 8.2 46.76 0.226 7.19 49.08 11.53
11/16/2021 11:45:00 PM 8.17 46.706 0.226 7.19 76.24 11.55
11/17/2021 12:00:00 AM 8.13 46.634 0.226 7.21 46.61 11.52
11/17/2021 12:15:00 AM 8.13 46.634 0.226 7.2 51.82 11.52
11/17/2021 12:30:00 AM 8.14 46.652 0.225 7.21 57.9 11.58
11/17/2021 12:45:00 AM 8.12 46.616 0.226 7.2 56 11.52
11/17/2021 1:00:00 AM 8.01 46.418 0.227 7.21 45.38 11.56
11/17/2021 1:15:00 AM 8.05 46.49 0.227 7.2 69.54 11.52
11/17/2021 1:30:00 AM 7.98 46.364 0.227 7.2 65.72 11.53
11/17/2021 1:45:00 AM 7.92 46.256 0.227 7.18 59.82 11.55
11/17/2021 2:00:00 AM 7.88 46.184 0.227 7.18 57.24 11.53
11/17/2021 2:15:00 AM 7.95 46.31 0.227 7.17 63.07 11.5
11/17/2021 2:30:00 AM 7.88 46.184 0.227 7.17 50.3 11.56
11/17/2021 2:45:00 AM 7.85 46.13 0.226 7.16 64.25 11.51
11/17/2021 3:00:00 AM 7.8 46.04 0.226 7.16 60.7 11.57
11/17/2021 3:15:00 AM 7.79 46.022 0.227 7.16 56.98 11.55
11/17/2021 3:30:00 AM 7.78 46.004 0.227 7.16 65.44 11.52
11/17/2021 3:45:00 AM 7.72 45.896 0.227 7.16 69.57 11.53
11/17/2021 4:00:00 AM 7.71 45.878 0.227 7.16 56.16 11.59
11/17/2021 4:15:00 AM 7.64 45.752 0.227 7.15 72.41 11.62
11/17/2021 4:30:00 AM 7.73 45.914 0.227 7.17 55.12 11.59
11/17/2021 4:45:00 AM 7.66 45.788 0.227 7.16 69.8 11.61
11/17/2021 5:00:00 AM 7.66 45.788 0.227 7.17 57.7 11.58
11/17/2021 5:15:00 AM 7.63 45.734 0.227 7.16 66.85 11.57
11/17/2021 5:30:00 AM 7.6 45.68 0.227 7.15 59.26 11.6
11/17/2021 5:45:00 AM 7.62 45.716 0.228 7.16 68 11.6
11/17/2021 6:00:00 AM 7.54 45.572 0.228 7.16 58.88 11.63
11/17/2021 6:15:00 AM 7.58 45.644 0.228 7.15 57.88 11.61
11/17/2021 6:30:00 AM 7.59 45.662 0.228 7.15 63 11.59
11/17/2021 6:45:00 AM 7.54 45.572 0.227 7.15 66.55 11.6
11/17/2021 7:00:00 AM 7.54 45.572 0.227 7.16 74.95 11.57
11/17/2021 7:15:00 AM 7.52 45.536 0.227 7.16 58.8 11.64
11/17/2021 7:30:00 AM 7.58 45.644 0.227 7.15 63.45 11.67
11/17/2021 7:45:00 AM 7.62 45.716 0.226 7.18 81.01 11.77
11/17/2021 8:00:00 AM 7.61 45.698 0.226 7.18 82.41 11.84
11/17/2021 8:15:00 AM 7.65 45.77 0.227 7.18 85.69 11.95
11/17/2021 8:30:00 AM 7.62 45.716 0.227 7.2 63.57 12.05
11/17/2021 8:45:00 AM 7.64 45.752 0.227 7.21 84.09 12.12
11/17/2021 9:00:00 AM 7.7 45.86 0.226 7.22 72.57 12.09
11/17/2021 9:15:00 AM 7.79 46.022 0.226 7.23 88.99 12.1
11/17/2021 9:30:00 AM 7.82 46.076 0.226 7.23 72.02 12.23
11/17/2021 9:45:00 AM 7.89 46.202 0.225 7.23 45.59 12.31
11/17/2021 10:00:00 AM 7.94 46.292 0.225 7.21 63.8 12.4
11/17/2021 10:15:00 AM 7.98 46.364 0.225 7.2 75.2 12.46
11/17/2021 10:30:00 AM 8.01 46.418 0.225 7.2 81.17 12.46
11/17/2021 10:45:00 AM 8.08 46.544 0.225 7.21 61.12 12.44
11/17/2021 11:00:00 AM 8.05 46.49 0.225 7.21 68.46 12.47
11/17/2021 11:15:00 AM 8.04 46.472 0.226 7.22 68.91 12.51
11/17/2021 11:30:00 AM 8.04 46.472 0.226 7.21 65.55 12.5
11/17/2021 11:45:00 AM 8.15 46.67 0.225 7.23 73.82 12.52
11/17/2021 12:00:00 PM 8.26 46.868 0.224 7.22 50.05 12.56
11/17/2021 12:15:00 PM 8.31 46.958 0.224 7.23 70.83 12.61
11/17/2021 12:30:00 PM 8.34 47.012 0.224 7.23 73.32 12.66
11/17/2021 12:45:00 PM 8.42 47.156 0.225 7.24 78.37 12.64
11/17/2021 1:00:00 PM 8.48 47.264 0.225 7.24 71.18 12.69
11/17/2021 1:15:00 PM 8.56 47.408 0.225 7.26 61.52 12.74
11/17/2021 1:30:00 PM 8.63 47.534 0.225 7.26 62.33 12.75
11/17/2021 1:45:00 PM 8.68 47.624 0.225 7.27 78.76 12.7
11/17/2021 2:00:00 PM 8.76 47.768 0.224 7.27 70.53 12.68
11/17/2021 2:15:00 PM 8.8 47.84 0.224 7.28 79.13 12.59
11/17/2021 2:30:00 PM 8.73 47.714 0.224 7.29 71.98 12.57
11/17/2021 2:45:00 PM 8.81 47.858 0.224 7.3 66.57 12.53
11/17/2021 3:00:00 PM 8.82 47.876 0.224 7.3 72.09 12.47
11/17/2021 3:15:00 PM 8.8 47.84 0.225 7.28 63.72 12.37
11/17/2021 3:30:00 PM 8.78 47.804 0.225 7.28 73.64 12.34
11/17/2021 3:45:00 PM 8.72 47.696 0.226 7.28 58.66 12.29
11/17/2021 4:00:00 PM 8.72 47.696 0.226 7.28 60.37 12.24
11/17/2021 4:15:00 PM 8.75 47.75 0.226 7.27 79.67 12.15
11/17/2021 4:30:00 PM 8.69 47.642 0.226 7.29 59.45 12.1
11/17/2021 4:45:00 PM 8.69 47.642 0.226 7.27 58.71 12.01
11/17/2021 5:00:00 PM 8.62 47.516 0.226 7.27 60.57 11.93
11/17/2021 5:15:00 PM 8.65 47.57 0.226 7.28 76.07 11.89
11/17/2021 5:30:00 PM 8.61 47.498 0.226 7.27 78.45 11.76
11/17/2021 5:45:00 PM 8.64 47.552 0.227 7.29 75.45 11.72
11/17/2021 6:00:00 PM 8.6 47.48 0.227 7.27 74.17 11.65
11/17/2021 6:15:00 PM 8.55 47.39 0.227 7.26 74.22 11.65
11/17/2021 6:30:00 PM 8.54 47.372 0.227 7.25 64.23 11.59
11/17/2021 6:45:00 PM 8.51 47.318 0.227 7.24 66.42 11.6
11/17/2021 7:00:00 PM 8.5 47.3 0.227 7.25 96.59 11.48
11/17/2021 7:15:00 PM 8.48 47.264 0.227 7.24 82.38 11.58
11/17/2021 7:30:00 PM 8.46 47.228 0.226 7.23 71.02 11.5
11/17/2021 7:45:00 PM 8.43 47.174 0.227 7.22 73.77 11.54
11/17/2021 8:00:00 PM 8.46 47.228 0.227 7.22 67.95 11.52
11/17/2021 8:15:00 PM 8.44 47.192 0.227 7.21 94.5 11.48
11/17/2021 8:30:00 PM 8.38 47.084 0.227 7.22 74.54 11.51
11/17/2021 8:45:00 PM 8.36 47.048 0.227 7.22 68.54 11.51
11/17/2021 9:00:00 PM 8.34 47.012 0.227 7.21 61.7 11.48
11/17/2021 9:15:00 PM 8.39 47.102 0.226 7.21 73.79 11.44
11/17/2021 9:30:00 PM 8.39 47.102 0.226 7.21 71.64 11.44
11/17/2021 9:45:00 PM 8.37 47.066 0.226 7.2 55.51 11.45
11/17/2021 10:00:00 PM 8.42 47.156 0.226 7.2 77.95 11.42
11/17/2021 10:15:00 PM 8.39 47.102 0.227 7.19 66 11.4
11/17/2021 10:30:00 PM 8.43 47.174 0.227 7.18 76.4 11.39
11/17/2021 10:45:00 PM 8.43 47.174 0.227 7.18 75.39 11.36
11/17/2021 11:00:00 PM 8.42 47.156 0.227 7.18 86.06 11.31
11/17/2021 11:15:00 PM 8.42 47.156 0.227 7.17 74.12 11.39
11/17/2021 11:30:00 PM 8.43 47.174 0.227 7.17 76.14 11.33
11/17/2021 11:45:00 PM 8.4 47.12 0.226 7.17 70.31 11.38
11/18/2021 12:00:00 AM 8.42 47.156 0.226 7.17 102.1 11.31
11/18/2021 12:15:00 AM 8.42 47.156 0.226 7.16 62.4 11.31
11/18/2021 12:30:00 AM 8.43 47.174 0.226 7.16 68.67 11.3
11/18/2021 12:45:00 AM 8.43 47.174 0.227 7.17 71.14 11.33
11/18/2021 1:00:00 AM 8.39 47.102 0.227 7.17 62.78 11.29
11/18/2021 1:15:00 AM 8.41 47.138 0.227 7.18 74.73 11.31
11/18/2021 1:30:00 AM 8.37 47.066 0.227 7.17 60.56 11.29
11/18/2021 1:45:00 AM 8.34 47.012 0.227 7.16 69.92 11.31
11/18/2021 2:00:00 AM 8.26 46.868 0.227 7.16 80.03 11.26
11/18/2021 2:15:00 AM 8.27 46.886 0.227 7.16 75.3 11.26
11/18/2021 2:30:00 AM 8.28 46.904 0.227 7.16 92 11.24
11/18/2021 2:45:00 AM 8.29 46.922 0.226 7.17 58.21 11.16
11/18/2021 3:00:00 AM 8.25 46.85 0.226 7.16 68.92 11.18
11/18/2021 3:15:00 AM 8.25 46.85 0.227 7.15 73.5 11.18
11/18/2021 3:30:00 AM 8.24 46.832 0.227 7.16 70.11 11.17
11/18/2021 3:45:00 AM 8.19 46.742 0.227 7.15 55.92 11.24
11/18/2021 4:00:00 AM 8.14 46.652 0.227 7.14 65.42 11.26
11/18/2021 4:15:00 AM 8.16 46.688 0.227 7.15 79.81 11.26
11/18/2021 4:30:00 AM 8.15 46.67 0.226 7.16 75.19 11.25
11/18/2021 4:45:00 AM 8.12 46.616 0.227 7.17 74.65 11.23
11/18/2021 5:00:00 AM 8.15 46.67 0.226 7.16 71.08 11.26
11/18/2021 5:15:00 AM 8.11 46.598 0.227 7.16 60.02 11.28
11/18/2021 5:30:00 AM 8.11 46.598 0.227 7.16 71.54 11.27
11/18/2021 5:45:00 AM 8.09 46.562 0.227 7.17 69.18 11.24
11/18/2021 6:00:00 AM 8.08 46.544 0.227 7.17 68.73 11.24
11/18/2021 6:15:00 AM 8.05 46.49 0.227 7.19 79.77 11.25
11/18/2021 6:30:00 AM 8.01 46.418 0.227 7.19 74.31 11.31
11/18/2021 6:45:00 AM 8.07 46.526 0.227 7.19 92.78 11.26
11/18/2021 7:00:00 AM 8.03 46.454 0.227 7.2 80.17 11.26
11/18/2021 7:15:00 AM 8.04 46.472 0.226 7.21 63.92 11.29
11/18/2021 7:30:00 AM 8.07 46.526 0.226 7.22 76.75 11.34
11/18/2021 7:45:00 AM 8.04 46.472 0.226 7.22 69.61 11.38
11/18/2021 8:00:00 AM 8.08 46.544 0.226 7.19 87.71 11.48
11/18/2021 8:15:00 AM 8.05 46.49 0.227 7.17 87.7 11.59
11/18/2021 8:30:00 AM 8.04 46.472 0.227 7.16 64.62 11.65
11/18/2021 8:45:00 AM 8.06 46.508 0.226 7.17 74.18 11.81
11/18/2021 9:00:00 AM 8.11 46.598 0.226 7.17 79.17 11.87
11/18/2021 9:15:00 AM 8.23 46.814 0.225 7.19 92.12 11.97
11/18/2021 9:30:00 AM 8.28 46.904 0.225 7.19 75.88 12.1
11/18/2021 9:45:00 AM 8.35 47.03 0.225 7.19 66.08 12.12
11/18/2021 10:00:00 AM 8.47 47.246 0.224 7.21 78.14 12.18
11/18/2021 10:15:00 AM 8.56 47.408 0.224 7.2 83.08 12.28
11/18/2021 10:30:00 AM 8.7 47.66 0.224 7.21 90.38 12.26
11/18/2021 10:45:00 AM 8.82 47.876 0.224 7.22 101.3 12.32
11/18/2021 11:00:00 AM 8.91 48.038 0.225 7.24 68.76 12.34
11/18/2021 11:15:00 AM 8.97 48.146 0.224 7.23 58.38 12.43
11/18/2021 11:30:00 AM 9.16 48.488 0.224 7.23 94.79 12.42
11/18/2021 11:45:00 AM 9.24 48.632 0.224 7.24 77.49 12.44
11/18/2021 12:00:00 PM 9.39 48.902 0.223 7.24 77.25 12.4
11/18/2021 12:15:00 PM 9.49 49.082 0.223 7.25 94.43 12.5
11/18/2021 12:30:00 PM 9.56 49.208 0.223 7.25 87.05 12.41
11/18/2021 12:45:00 PM 9.64 49.352 0.224 7.26 86.1 12.4
11/18/2021 1:00:00 PM 9.75 49.55 0.224 7.26 94.01 12.42
11/18/2021 1:15:00 PM 9.77 49.586 0.225 7.27 89.41 12.44
11/18/2021 1:30:00 PM 9.81 49.658 0.225 7.28 84.54 12.45
11/18/2021 1:45:00 PM 9.9 49.82 0.224 7.27 95.45 12.4
11/18/2021 2:00:00 PM 9.94 49.892 0.224 7.28 76.3 12.39
11/18/2021 2:15:00 PM 9.98 49.964 0.224 7.29 96.8 12.37
11/18/2021 2:30:00 PM 9.99 49.982 0.224 7.29 93.41 12.33
11/18/2021 2:45:00 PM 10.04 50.072 0.224 7.28 56.46 12.25
11/18/2021 3:00:00 PM 10.05 50.09 0.224 7.3 94.49 12.21
11/18/2021 3:15:00 PM 10.04 50.072 0.224 7.29 97.24 12.08
11/18/2021 3:30:00 PM 10.02 50.036 0.225 7.3 67.2 11.82
11/18/2021 3:45:00 PM 10.01 50.018 0.226 7.3 88.86 11.68
11/18/2021 4:00:00 PM 9.99 49.982 0.226 7.29 99.46 11.64
11/18/2021 4:15:00 PM 9.98 49.964 0.226 7.29 86.8 11.52
11/18/2021 4:30:00 PM 9.97 49.946 0.225 7.29 79.85 11.44
11/18/2021 4:45:00 PM 9.97 49.946 0.225 7.28 86.97 11.34
11/18/2021 5:00:00 PM 9.96 49.928 0.225 7.27 84.78 11.25
11/18/2021 5:15:00 PM 9.96 49.928 0.225 7.26 92.07 11.17
11/18/2021 5:30:00 PM 9.95 49.91 0.225 7.26 97.36 11.17
11/18/2021 5:45:00 PM 9.96 49.928 0.226 7.25 78.39 11.08
11/18/2021 6:00:00 PM 9.97 49.946 0.226 7.25 91.79 11.06
11/18/2021 6:15:00 PM 9.96 49.928 0.226 7.23 86.21 11.05
11/18/2021 6:30:00 PM 9.96 49.928 0.226 7.23 62.7 10.97
11/18/2021 6:45:00 PM 9.94 49.892 0.226 7.21 92.64 10.95
11/18/2021 7:00:00 PM 9.92 49.856 0.225 7.22 86.17 10.96
11/18/2021 7:15:00 PM 9.89 49.802 0.225 7.21 101.1 10.92
11/18/2021 7:30:00 PM 9.87 49.766 0.225 7.22 66.08 10.93
11/18/2021 7:45:00 PM 9.87 49.766 0.225 7.21 72.54 10.92
11/18/2021 8:00:00 PM 9.87 49.766 0.225 7.21 88.39 10.88
11/18/2021 8:15:00 PM 9.86 49.748 0.226 7.21 81.99 10.92
11/18/2021 8:30:00 PM 9.86 49.748 0.226 7.19 65.36 10.86
11/18/2021 8:45:00 PM 9.86 49.748 0.225 7.19 94.09 10.86
11/18/2021 9:00:00 PM 9.85 49.73 0.227 7.18 97.86 10.91
11/18/2021 9:15:00 PM 9.85 49.73 0.226 7.19 70.43 10.82
11/18/2021 9:30:00 PM 9.83 49.694 0.226 7.19 77.37 10.88
11/18/2021 9:45:00 PM 9.81 49.658 0.226 7.19 90.72 10.87
11/18/2021 10:00:00 PM 9.79 49.622 0.226 7.19 77.78 10.86
11/18/2021 10:15:00 PM 9.77 49.586 0.226 7.18 68.4 10.85
11/18/2021 10:30:00 PM 9.75 49.55 0.227 7.18 81.93 10.85
11/18/2021 10:45:00 PM 9.72 49.496 0.227 7.18 69.79 10.88
11/18/2021 11:00:00 PM 9.7 49.46 0.226 7.17 117.3 10.83
11/18/2021 11:15:00 PM 9.66 49.388 0.226 7.18 92.12 10.85
11/18/2021 11:30:00 PM 9.63 49.334 0.226 7.18 107.9 10.82
11/18/2021 11:45:00 PM 9.6 49.28 0.226 7.18 94.85 10.89
11/19/2021 12:00:00 AM 9.57 49.226 0.226 7.18 89.91 10.87
11/19/2021 12:15:00 AM 9.54 49.172 0.226 7.18 87.52 10.85
11/19/2021 12:30:00 AM 9.51 49.118 0.226 7.18 98.98 10.86
11/19/2021 12:45:00 AM 9.48 49.064 0.226 7.18 102.7 10.81
11/19/2021 1:00:00 AM 9.44 48.992 0.227 7.18 76.94 10.84
11/19/2021 1:15:00 AM 9.4 48.92 0.227 7.18 102 10.84
11/19/2021 1:30:00 AM 9.36 48.848 0.227 7.18 114.7 10.84
11/19/2021 1:45:00 AM 9.32 48.776 0.227 7.18 102.6 10.85
11/19/2021 2:00:00 AM 9.29 48.722 0.227 7.17 80.2 10.86
11/19/2021 2:15:00 AM 9.25 48.65 0.226 7.18 84.87 10.86
11/19/2021 2:30:00 AM 9.22 48.596 0.226 7.2 89.4 10.83
11/19/2021 2:45:00 AM 9.19 48.542 0.226 7.21 112.8 10.87
11/19/2021 3:00:00 AM 9.16 48.488 0.226 7.22 82.11 10.9
11/19/2021 3:15:00 AM 9.13 48.434 0.226 7.22 116.8 10.91
11/19/2021 3:30:00 AM 9.09 48.362 0.227 7.21 73.45 10.89
11/19/2021 3:45:00 AM 9.06 48.308 0.226 7.2 94.12 10.96
11/19/2021 4:00:00 AM 9.05 48.29 0.226 7.22 121.3 10.95
11/19/2021 4:15:00 AM 9.03 48.254 0.226 7.21 86.15 10.92
11/19/2021 4:30:00 AM 9.03 48.254 0.226 7.21 116.6 10.97
11/19/2021 4:45:00 AM 9.02 48.236 0.226 7.2 98.29 10.98
11/19/2021 5:00:00 AM 8.98 48.164 0.226 7.21 70.38 10.91
11/19/2021 5:15:00 AM 8.95 48.11 0.226 7.21 105.1 10.98
11/19/2021 5:30:00 AM 8.92 48.056 0.226 7.21 89.57 10.98
11/19/2021 5:45:00 AM 8.88 47.984 0.226 7.2 97.51 11.01
11/19/2021 6:00:00 AM 8.85 47.93 0.227 7.21 76.53 11.01
11/19/2021 6:15:00 AM 8.82 47.876 0.226 7.21 76.71 11.06
11/19/2021 6:30:00 AM 8.77 47.786 0.227 7.19 95.24 11.02
11/19/2021 6:45:00 AM 8.74 47.732 0.226 7.22 115.9 11.04
11/19/2021 7:00:00 AM 8.69 47.642 0.227 7.21 84.1 11.08
11/19/2021 7:15:00 AM 8.67 47.606 0.226 7.21 86.43 11.1
11/19/2021 7:30:00 AM 8.65 47.57 0.226 7.2 94.4 11.22
11/19/2021 7:45:00 AM 8.62 47.516 0.226 7.23 90.09 11.29
11/19/2021 8:00:00 AM 8.58 47.444 0.226 7.21 83.8 11.37
11/19/2021 8:15:00 AM 8.57 47.426 0.226 7.21 105.5 11.46
11/19/2021 8:30:00 AM 8.54 47.372 0.226 7.22 82.93 11.55
11/19/2021 8:45:00 AM 8.56 47.408 0.226 7.23 102.8 11.68
11/19/2021 9:00:00 AM 8.56 47.408 0.226 7.24 117.1 11.84
11/19/2021 9:15:00 AM 8.59 47.462 0.225 7.24 102.1 11.88
11/19/2021 9:30:00 AM 8.61 47.498 0.225 7.26 90.74 12.01
11/19/2021 9:45:00 AM 8.61 47.498 0.225 7.27 73.15 12.11
11/19/2021 10:00:00 AM 8.67 47.606 0.224 7.27 75.36 12.14
11/19/2021 10:15:00 AM 8.72 47.696 0.224 7.28 83.78 12.22
11/19/2021 10:30:00 AM 8.76 47.768 0.224 7.28 77.14 12.31
11/19/2021 10:45:00 AM 8.8 47.84 0.224 7.28 93.94 12.4
11/19/2021 11:00:00 AM 8.87 47.966 0.224 7.3 65.65 12.48
11/19/2021 11:15:00 AM 8.92 48.056 0.224 7.3 94.41 12.49
11/19/2021 11:30:00 AM 8.95 48.11 0.224 7.31 97.26 12.48
11/19/2021 11:45:00 AM 8.99 48.182 0.223 7.31 80.68 12.56
11/19/2021 12:00:00 PM 9.04 48.272 0.223 7.32 84.66 12.54
11/19/2021 12:15:00 PM 9.03 48.254 0.223 7.33 102.5 12.62
11/19/2021 12:30:00 PM 9.1 48.38 0.223 7.34 93.88 12.61
11/19/2021 12:45:00 PM 9.13 48.434 0.223 7.35 93.07 12.66
11/19/2021 1:00:00 PM 9.14 48.452 0.224 7.35 97.57 12.7
11/19/2021 1:15:00 PM 9.19 48.542 0.224 7.35 80.86 12.64
11/19/2021 1:30:00 PM 9.16 48.488 0.225 7.37 106.4 12.65
11/19/2021 1:45:00 PM 9.11 48.398 0.224 7.37 75.62 12.64
11/19/2021 2:00:00 PM 9.14 48.452 0.224 7.38 74.45 12.67
11/19/2021 2:15:00 PM 9.14 48.452 0.224 7.38 103.1 12.65
11/19/2021 2:30:00 PM 9.11 48.398 0.223 7.39 101 12.61
11/19/2021 2:45:00 PM 9.1 48.38 0.223 7.4 104.1 12.6
11/19/2021 3:00:00 PM 9.1 48.38 0.223 7.41 106.7 12.57
11/19/2021 3:15:00 PM 9.07 48.326 0.224 7.41 98.12 12.52
11/19/2021 3:30:00 PM 9.02 48.236 0.224 7.41 67.65 12.47
11/19/2021 3:45:00 PM 8.99 48.182 0.224 7.41 87.67 12.44
11/19/2021 4:00:00 PM 8.95 48.11 0.225 7.41 77.2 12.37
11/19/2021 4:15:00 PM 8.93 48.074 0.225 7.42 93.64 12.24
11/19/2021 4:30:00 PM 8.86 47.948 0.225 7.41 92.8 12.17
11/19/2021 4:45:00 PM 8.84 47.912 0.225 7.41 82.2 12.07
11/19/2021 5:00:00 PM 8.81 47.858 0.225 7.4 77.49 11.96
11/19/2021 5:15:00 PM 8.76 47.768 0.225 7.41 96.17 11.91
11/19/2021 5:30:00 PM 8.71 47.678 0.225 7.4 81.03 11.82
11/19/2021 5:45:00 PM 8.66 47.588 0.225 7.39 103.5 11.75
11/19/2021 6:00:00 PM 8.6 47.48 0.225 7.37 98.33 11.69
11/19/2021 6:15:00 PM 8.58 47.444 0.226 7.37 128.8 11.7
11/19/2021 6:30:00 PM 8.57 47.426 0.225 7.37 76.25 11.68
11/19/2021 6:45:00 PM 8.5 47.3 0.226 7.35 90.85 11.67
11/19/2021 7:00:00 PM 8.5 47.3 0.225 7.35 108 11.63
11/19/2021 7:15:00 PM 8.46 47.228 0.225 7.33 72.2 11.54
11/19/2021 7:30:00 PM 8.47 47.246 0.225 7.32 61.77 11.57
11/19/2021 7:45:00 PM 8.43 47.174 0.225 7.32 89.89 11.6
11/19/2021 8:00:00 PM 8.38 47.084 0.225 7.31 94.1 11.63
11/19/2021 8:15:00 PM 8.35 47.03 0.226 7.31 79.85 11.6
11/19/2021 8:30:00 PM 8.35 47.03 0.226 7.31 109.3 11.61
11/19/2021 8:45:00 PM 8.31 46.958 0.227 7.3 114.6 11.53
11/19/2021 9:00:00 PM 8.29 46.922 0.226 7.3 111.6 11.62
11/19/2021 9:15:00 PM 8.25 46.85 0.226 7.3 67.82 11.64
11/19/2021 9:30:00 PM 8.24 46.832 0.226 7.3 122.1 11.61
11/19/2021 9:45:00 PM 8.2 46.76 0.226 7.3 76.83 11.62
11/19/2021 10:00:00 PM 8.19 46.742 0.226 7.3 132.5 11.62
11/19/2021 10:15:00 PM 8.19 46.742 0.226 7.29 114.2 11.59
11/19/2021 10:30:00 PM 8.16 46.688 0.226 7.29 102.3 11.62
11/19/2021 10:45:00 PM 8.11 46.598 0.227 7.28 113.3 11.6
11/19/2021 11:00:00 PM 8.08 46.544 0.227 7.29 106.6 11.6
11/19/2021 11:15:00 PM 8.07 46.526 0.226 7.29 98.33 11.65
11/19/2021 11:30:00 PM 8.06 46.508 0.226 7.29 115.1 11.67
11/19/2021 11:45:00 PM 7.99 46.382 0.225 7.29 100.4 11.64
11/20/2021 12:00:00 AM 7.97 46.346 0.225 7.28 80.76 11.64
11/20/2021 12:15:00 AM 7.96 46.328 0.225 7.29 80.47 11.61
11/20/2021 12:30:00 AM 7.95 46.31 0.225 7.28 79.03 11.63
11/20/2021 12:45:00 AM 7.92 46.256 0.225 7.27 105.7 11.65
11/20/2021 1:00:00 AM 7.87 46.166 0.225 7.27 76.47 11.62
11/20/2021 1:15:00 AM 7.83 46.094 0.226 7.27 103.9 11.65
11/20/2021 1:30:00 AM 7.77 45.986 0.226 7.27 102.1 11.63
11/20/2021 1:45:00 AM 7.74 45.932 0.226 7.27 80.92 11.66
11/20/2021 2:00:00 AM 7.72 45.896 0.226 7.26 132.6 11.7
11/20/2021 2:15:00 AM 7.73 45.914 0.226 7.26 75 11.68
11/20/2021 2:30:00 AM 7.68 45.824 0.225 7.26 124.1 11.66
11/20/2021 2:45:00 AM 7.64 45.752 0.225 7.27 115 11.7
11/20/2021 3:00:00 AM 7.6 45.68 0.225 7.28 98.96 11.71
11/20/2021 3:15:00 AM 7.57 45.626 0.226 7.29 102.8 11.74
11/20/2021 3:30:00 AM 7.49 45.482 0.226 7.29 85.55 11.7
11/20/2021 3:45:00 AM 7.49 45.482 0.227 7.27 121.2 11.74
11/20/2021 4:00:00 AM 7.41 45.338 0.227 7.27 106.1 11.76
11/20/2021 4:15:00 AM 7.41 45.338 0.227 7.28 95.44 11.77
11/20/2021 4:30:00 AM 7.37 45.266 0.226 7.28 116.1 11.74
11/20/2021 4:45:00 AM 7.31 45.158 0.226 7.29 124.8 11.75
11/20/2021 5:00:00 AM 7.35 45.23 0.225 7.27 111 11.71
11/20/2021 5:15:00 AM 7.24 45.032 0.226 7.29 120 11.75
11/20/2021 5:30:00 AM 7.23 45.014 0.226 7.29 114.7 11.75
11/20/2021 5:45:00 AM 7.22 44.996 0.226 7.28 93.11 11.78
11/20/2021 6:00:00 AM 7.13 44.834 0.226 7.28 103.9 11.86
11/20/2021 6:15:00 AM 7.13 44.834 0.226 7.26 70.06 11.82
11/20/2021 6:30:00 AM 7.06 44.708 0.226 7.27 115.9 11.87
11/20/2021 6:45:00 AM 7.05 44.69 0.226 7.27 110.9 11.87
11/20/2021 7:00:00 AM 7.02 44.636 0.226 7.27 78.54 11.92
11/20/2021 7:15:00 AM 6.97 44.546 0.226 7.28 80.88 11.82
11/20/2021 7:30:00 AM 6.93 44.474 0.226 7.28 110 12.02
11/20/2021 7:45:00 AM 6.99 44.582 0.225 7.27 114.3 12.08
11/20/2021 8:00:00 AM 6.97 44.546 0.225 7.29 91.16 12.2
11/20/2021 8:15:00 AM 6.97 44.546 0.225 7.29 77.29 12.3
11/20/2021 8:30:00 AM 6.97 44.546 0.226 7.29 81.59 12.38
11/20/2021 8:45:00 AM 7 44.6 0.225 7.3 93.51 12.42
11/20/2021 9:00:00 AM 6.98 44.564 0.225 7.3 88.91 12.62
11/20/2021 9:15:00 AM 7.02 44.636 0.225 7.31 110.3 12.64
11/20/2021 9:30:00 AM 7.04 44.672 0.225 7.31 101.5 12.77
11/20/2021 9:45:00 AM 7.14 44.852 0.225 7.32 114.8 12.84
11/20/2021 10:00:00 AM 7.24 45.032 0.224 7.33 108.1 12.91
11/20/2021 10:15:00 AM 7.33 45.194 0.224 7.33 102.2 13.01
11/20/2021 10:30:00 AM 7.34 45.212 0.224 7.35 78.44 13.07
11/20/2021 10:45:00 AM 7.37 45.266 0.225 7.36 76.91 13.17
11/20/2021 11:00:00 AM 7.41 45.338 0.225 7.36 104 13.2
11/20/2021 11:15:00 AM 7.55 45.59 0.224 7.38 101.3 13.29
11/20/2021 11:30:00 AM 7.63 45.734 0.225 7.38 93.72 13.31
11/20/2021 11:45:00 AM 7.72 45.896 0.224 7.41 128.6 13.36
11/20/2021 12:00:00 PM 7.8 46.04 0.224 7.4 72.15 13.42
11/20/2021 12:15:00 PM 7.87 46.166 0.223 7.41 73.75 13.4
11/20/2021 12:30:00 PM 7.82 46.076 0.223 7.41 90.38 13.41
11/20/2021 12:45:00 PM 7.87 46.166 0.223 7.4 89.26 13.4
11/20/2021 1:00:00 PM 7.93 46.274 0.223 7.4 126.8 13.37
11/20/2021 1:15:00 PM 7.91 46.238 0.224 7.4 104.8 13.38
11/20/2021 1:30:00 PM 7.85 46.13 0.224 7.42 84.21 13.42
11/20/2021 1:45:00 PM 7.87 46.166 0.224 7.42 94.82 13.34
11/20/2021 2:00:00 PM 7.88 46.184 0.224 7.43 95.18 13.42
11/20/2021 2:15:00 PM 7.89 46.202 0.223 7.44 91.85 13.37
11/20/2021 2:30:00 PM 7.95 46.31 0.223 7.45 89.18 13.41
11/20/2021 2:45:00 PM 7.97 46.346 0.223 7.46 68.96 13.44
11/20/2021 3:00:00 PM 8.04 46.472 0.223 7.46 73.69 13.38
11/20/2021 3:15:00 PM 8.02 46.436 0.223 7.47 92.65 13.34
11/20/2021 3:30:00 PM 7.96 46.328 0.224 7.48 105.9 13.3
11/20/2021 3:45:00 PM